U23385 / G-EZAB 7700 Squawk Report (18th of February, 2019)

Aircraft A319 Reg No. G-EZAB Age 13 years old
Model A319 Jet engines 2 First flight 27-01-06
Registered 06-02-06 Rollout 01-06 Delivered 06-02-06
Construction No. 2681 Line No. N/A Series 111
ADSHEX 400D8C Airline name easyJet Owner N/A
Airfield based Luton~Beds~G First tracked 2017-07-13 07:00:00

Flight history for G-EZAB

Route Flight No Date Playback
Bristol (BRS) - Schiphol (AMS) U26161 2019-03-21 09:19:00
EuroAirport Basel Mulhouse Freiburg (BSL) - Bristol (BRS) U26086 2019-03-20 16:12:00
Luton (LTN) - EuroAirport Basel Mulhouse Freiburg (BSL) U22197 2019-03-20 14:03:00
Zurich (ZRH) - Luton (LTN) U22044 2019-03-20 11:22:00
Luton (LTN) - Zurich (ZRH) U22043 2019-03-20 09:36:00
Cote D Azur (NCE) - Luton (LTN) U22126 2019-03-20 07:30:00
Luton (LTN) - Cote D Azur (NCE) U22125 2019-03-19 19:39:00
Luton (LTN) - EuroAirport Basel Mulhouse Freiburg (BSL) U22197 2019-03-19 17:10:00
Luton (LTN) - Schiphol (AMS) U22159 2019-03-18 16:26:00
Charles De Gaulle (CDG) - Luton (LTN) U22436 2019-03-18 15:16:00
Luton (LTN) - Charles De Gaulle (CDG) U22435 2019-03-18 13:35:00
Schiphol (AMS) - Luton (LTN) U22156 2019-03-18 11:45:00
Luton (LTN) - Schiphol (AMS) U22155 2019-03-18 10:04:00
Alicante (ALC) - Luton (LTN) U22224 2019-03-18 07:39:00
Luton (LTN) - Alicante (ALC) U22223 2019-03-17 20:41:00
Dortmund (DTM) - Luton (LTN) U22176 2019-03-17 16:56:00
Luton (LTN) - Dortmund (DTM) U22175 2019-03-17 15:38:00
Barajas (MAD) - Luton (LTN) U22202 2019-03-17 14:00:00
Luton (LTN) - Barajas (MAD) U22201 2019-03-17 09:44:00
Geneve Cointrin (GVA) - Luton (LTN) U22064 2019-03-16 20:40:00
Time Lat Lon Altitude Heading Speed Vertical Rate
2019-02-18 12:53:25 GMT 55.950714 -3.364209 0 101 14 0
2019-02-18 12:53:20 GMT 55.950714 -3.364605 0 61 13 0
2019-02-18 12:52:14 GMT 55.946812 -3.376194 0 59 21 0
2019-02-18 12:50:53 GMT 55.951698 -3.367455 0 239 110 0
2019-02-18 12:50:31 GMT 55.957626 -3.349998 575 239 118 -832
2019-02-18 12:50:28 GMT 55.958542 -3.347251 600 240 119 -704
2019-02-18 12:50:16 GMT 55.961983 -3.337011 725 240 118 -576
2019-02-18 12:50:05 GMT 55.964996 -3.327942 875 240 118 -960
2019-02-18 12:49:58 GMT 55.967335 -3.321047 950 239 117 -576
2019-02-18 12:49:54 GMT 55.967926 -3.319286 975 239 117 -704
2019-02-18 12:49:47 GMT 55.970123 -3.312877 1,100 239 120 -704
2019-02-18 12:49:44 GMT 55.970966 -3.310318 1,100 240 120 -448
2019-02-18 12:49:37 GMT 55.972961 -3.304388 1,200 239 117 -512
2019-02-18 12:49:34 GMT 55.973740 -3.302057 1,200 239 117 -512
2019-02-18 12:49:30 GMT 55.974792 -3.298811 1,250 240 117 -640
2019-02-18 12:49:27 GMT 55.975800 -3.295815 1,275 240 118 -704
2019-02-18 12:49:24 GMT 55.976532 -3.293651 1,300 240 117 -512
2019-02-18 12:49:20 GMT 55.977585 -3.290489 1,350 239 115 -384
2019-02-18 12:49:17 GMT 55.978592 -3.287492 1,375 240 115 -640
2019-02-18 12:49:14 GMT 55.979324 -3.285245 1,400 240 116 -640
2019-02-18 12:49:08 GMT 55.980835 -3.280834 1,475 239 117 -896
2019-02-18 12:49:04 GMT 55.982117 -3.276922 1,525 239 117 -640
2019-02-18 12:48:58 GMT 55.983719 -3.272428 1,600 237 115 -320
2019-02-18 12:48:53 GMT 55.985229 -3.268183 1,600 238 115 -512
2019-02-18 12:48:47 GMT 55.986748 -3.263798 1,675 240 117 -640
2019-02-18 12:48:44 GMT 55.987911 -3.260365 1,725 240 116 -576
2019-02-18 12:48:37 GMT 55.989578 -3.255282 1,800 240 116 -576
2019-02-18 12:48:33 GMT 55.990540 -3.252286 1,825 239 114 -320
2019-02-18 12:48:28 GMT 55.993423 -3.243797 1,900 240 115 -576
2019-02-18 12:48:23 GMT 55.993423 -3.243797 1,925 240 116 -768
2019-02-18 12:48:19 GMT 55.994888 -3.239469 1,975 239 117 -1024
2019-02-18 12:48:16 GMT 55.996262 -3.235390 2,050 240 118 -896
2019-02-18 12:48:13 GMT 55.996262 -3.235390 2,050 239 114 -448
2019-02-18 12:48:07 GMT 55.998013 -3.230410 2,100 239 117 -704
2019-02-18 12:48:03 GMT 55.999191 -3.226818 2,150 240 118 -1024
2019-02-18 12:47:56 GMT 56.001320 -3.220453 2,250 240 124 -512
2019-02-18 12:47:53 GMT 56.002075 -3.218245 2,250 240 124 -512
2019-02-18 12:47:46 GMT 56.003860 -3.212918 2,300 240 130 -448
2019-02-18 12:47:43 GMT 56.005096 -3.209173 2,325 239 133 -640
2019-02-18 12:47:36 GMT 56.007156 -3.203097 2,425 239 133 -1088
2019-02-18 12:47:32 GMT 56.008301 -3.199685 2,475 240 129 -768
2019-02-18 12:47:26 GMT 56.010269 -3.193859 2,550 239 129 -576
2019-02-18 12:47:23 GMT 56.011372 -3.190498 2,600 240 131 -576
2019-02-18 12:47:16 GMT 56.014584 -3.181143 2,700 239 133 -768
2019-02-18 12:47:12 GMT 56.014584 -3.181143 2,725 239 133 -768
2019-02-18 12:47:06 GMT 56.016632 -3.174966 2,800 240 130 -448
2019-02-18 12:47:02 GMT 56.017868 -3.171137 2,825 240 131 -768
2019-02-18 12:46:56 GMT 56.019798 -3.165436 2,900 240 133 -832
2019-02-18 12:46:52 GMT 56.021301 -3.160817 2,975 241 133 -832
2019-02-18 12:46:45 GMT 56.022949 -3.155656 3,100 242 133 -704
2019-02-18 12:46:42 GMT 56.023941 -3.152304 3,100 242 133 -640
2019-02-18 12:46:34 GMT 56.026291 -3.144337 3,175 244 136 -768
2019-02-18 12:46:31 GMT 56.026966 -3.142004 3,200 244 136 -768
2019-02-18 12:46:24 GMT 56.029587 -3.132019 3,325 246 137 -256
2019-02-18 12:46:15 GMT 56.031300 -3.125353 3,325 247 138 0
2019-02-18 12:46:12 GMT 56.032242 -3.121366 3,325 250 139 0
2019-02-18 12:46:04 GMT 56.033485 -3.111706 3,325 276 150 0
2019-02-18 12:46:01 GMT 56.033432 -3.109713 3,325 280 153 64
2019-02-18 12:45:57 GMT 56.032837 -3.104636 3,325 287 165 0
2019-02-18 12:45:54 GMT 56.031902 -3.099174 3,325 287 165 0
2019-02-18 12:45:51 GMT 56.031483 -3.096685 3,325 287 166 -64
2019-02-18 12:45:44 GMT 56.028969 -3.082352 3,350 288 167 256
2019-02-18 12:45:40 GMT 56.028969 -3.082352 3,350 288 167 256
2019-02-18 12:45:33 GMT 56.027390 -3.073259 3,325 287 171 -64
2019-02-18 12:45:30 GMT 56.026642 -3.068619 3,325 287 173 -192
2019-02-18 12:45:23 GMT 56.024963 -3.058194 3,350 287 181 -128
2019-02-18 12:45:20 GMT 56.024315 -3.054543 3,350 287 183 -320
2019-02-18 12:45:12 GMT 56.022079 -3.042381 3,400 297 198 -640
2019-02-18 12:45:09 GMT 56.021210 -3.038968 3,400 300 200 -640
2019-02-18 12:45:03 GMT 56.014618 -3.024986 3,525 323 224 -640
2019-02-18 12:44:54 GMT 56.006607 -3.016829 3,600 336 237 -768
2019-02-18 12:44:50 GMT 56.006607 -3.016829 3,875 339 241 -896
2019-02-18 12:44:43 GMT 55.998642 -3.011169 3,725 339 243 -832
2019-02-18 12:44:40 GMT 55.996170 -3.009422 3,775 339 245 -832
2019-02-18 12:44:32 GMT 55.987122 -3.003130 3,875 339 248 -960
2019-02-18 12:44:29 GMT 55.985046 -3.001681 3,950 339 250 -896
2019-02-18 12:44:21 GMT 55.972736 -2.993174 4,100 339 256 -640
2019-02-18 12:44:11 GMT 55.964169 -2.987251 4,175 339 263 -832
2019-02-18 12:44:08 GMT 55.961746 -2.985618 4,200 339 266 -960
2019-02-18 12:44:02 GMT 55.948425 -2.976379 4,375 339 271 -1792
2019-02-18 12:43:51 GMT 55.941696 -2.971635 4,725 339 273 -1536
2019-02-18 12:43:48 GMT 55.937988 -2.968972 4,725 339 273 -1536
2019-02-18 12:43:44 GMT 55.932953 -2.965393 5,075 339 272 -1600
2019-02-18 12:43:41 GMT 55.929440 -2.962961 4,950 339 272 -1600
2019-02-18 12:43:38 GMT 55.925949 -2.960483 5,025 339 272 -1536
2019-02-18 12:43:32 GMT 55.914406 -2.952404 5,225 339 273 -1280
2019-02-18 12:43:28 GMT 55.914406 -2.952404 5,300 339 274 -1216
2019-02-18 12:43:24 GMT 55.908691 -2.948414 5,350 339 274 -1344
2019-02-18 12:43:21 GMT 55.905075 -2.945917 5,425 339 274 -1408
2019-02-18 12:43:17 GMT 55.893173 -2.937678 5,575 339 276 -1024
2019-02-18 12:43:11 GMT 55.889420 -2.935097 5,750 339 275 -1280
2019-02-18 12:43:07 GMT 55.889420 -2.935097 5,775 339 275 -1088
2019-02-18 12:43:03 GMT 55.884842 -2.931935 5,875 339 276 -960
2019-02-18 12:43:00 GMT 55.881260 -2.929487 5,875 339 277 -832
2019-02-18 12:42:57 GMT 55.877472 -2.926858 5,925 339 280 -640
2019-02-18 12:42:54 GMT 55.873531 -2.924080 5,975 339 284 -640
2019-02-18 12:42:50 GMT 55.868362 -2.920532 6,000 339 286 -640
2019-02-18 12:42:46 GMT 55.864975 -2.918119 6,100 339 294 -704
2019-02-18 12:42:42 GMT 55.859344 -2.914290 6,100 339 293 -704
2019-02-18 12:42:39 GMT 55.852070 -2.909231 6,125 339 296 -768
2019-02-18 12:42:36 GMT 55.852070 -2.909231 6,150 340 298 -704
2019-02-18 12:42:32 GMT 55.841309 -2.901889 6,225 339 312 -2048
2019-02-18 12:42:28 GMT 55.841309 -2.901889 6,250 339 305 -640
2019-02-18 12:42:25 GMT 55.837921 -2.899618 6,275 339 306 -640
2019-02-18 12:42:22 GMT 55.832798 -2.896099 6,325 339 309 -896
2019-02-18 12:42:16 GMT 55.825119 -2.890863 6,425 339 311 -1920
2019-02-18 12:42:09 GMT 55.814758 -2.883745 6,700 339 312 -2112
2019-02-18 12:42:05 GMT 55.811050 -2.881165 6,800 339 312 -2112
2019-02-18 12:42:01 GMT 55.804504 -2.876670 6,975 339 312 -2048
2019-02-18 12:41:58 GMT 55.800491 -2.873869 7,075 339 312 -1920
2019-02-18 12:41:55 GMT 55.795670 -2.870594 7,150 339 312 -1856
2019-02-18 12:41:52 GMT 55.793289 -2.868930 7,250 339 313 -1728
2019-02-18 12:41:48 GMT 55.786469 -2.864186 7,325 339 313 -1728
2019-02-18 12:41:45 GMT 55.783493 -2.862188 7,450 339 314 -1600
2019-02-18 12:41:40 GMT 55.776566 -2.857389 7,550 339 315 -1408
2019-02-18 12:41:37 GMT 55.772839 -2.854729 7,675 339 316 -1472
2019-02-18 12:41:34 GMT 55.769627 -2.852497 7,725 339 316 -1408
2019-02-18 12:41:28 GMT 55.760056 -2.845792 7,900 339 316 -896
2019-02-18 12:41:25 GMT 55.755157 -2.842379 7,950 339 316 -704
2019-02-18 12:41:20 GMT 55.748749 -2.837885 7,975 339 317 -256
2019-02-18 12:41:17 GMT 55.745281 -2.835417 8,000 339 317 64
2019-02-18 12:41:14 GMT 55.741791 -2.832928 8,000 339 317 64
2019-02-18 12:41:10 GMT 55.736530 -2.829151 8,000 339 318 0
2019-02-18 12:41:07 GMT 55.730576 -2.824901 8,000 339 315 0
2019-02-18 12:41:03 GMT 55.727600 -2.822737 8,000 339 315 0
2019-02-18 12:40:59 GMT 55.720963 -2.817993 8,000 338 314 -64
2019-02-18 12:40:55 GMT 55.715767 -2.814302 8,000 339 313 -64
2019-02-18 12:40:52 GMT 55.709015 -2.809504 8,000 339 312 -64
2019-02-18 12:40:49 GMT 55.707504 -2.808422 8,000 339 312 -64
2019-02-18 12:40:46 GMT 55.703751 -2.805758 8,000 339 312 -128
2019-02-18 12:40:43 GMT 55.694305 -2.799110 8,000 339 314 -64
2019-02-18 12:40:39 GMT 55.694305 -2.799110 8,000 339 312 -64
2019-02-18 12:40:36 GMT 55.689743 -2.795854 8,025 340 372 -1600
2019-02-18 12:40:33 GMT 55.685696 -2.793102 8,025 339 313 -64
2019-02-18 12:40:28 GMT 55.678482 -2.788114 8,025 339 318 -256
2019-02-18 12:40:24 GMT 55.674088 -2.785034 8,025 339 322 -448
2019-02-18 12:40:20 GMT 55.668503 -2.781206 8,050 339 327 -640
2019-02-18 12:40:17 GMT 55.664017 -2.778126 8,050 339 327 -576
2019-02-18 12:40:13 GMT 55.658230 -2.774220 8,125 339 332 -896
2019-02-18 12:40:08 GMT 55.651520 -2.769637 8,175 339 336 -896
2019-02-18 12:40:04 GMT 55.645287 -2.765379 8,250 340 341 -896
2019-02-18 12:40:01 GMT 55.640537 -2.762203 8,275 340 342 -896
2019-02-18 12:39:58 GMT 55.636734 -2.759649 8,350 340 347 -1024
2019-02-18 12:39:55 GMT 55.630997 -2.755766 8,400 340 351 -1088
2019-02-18 12:39:52 GMT 55.627121 -2.753240 8,475 340 354 -1152
2019-02-18 12:39:48 GMT 55.620941 -2.749162 8,525 340 357 -1088
2019-02-18 12:39:45 GMT 55.616982 -2.746496 8,650 340 362 -1088
2019-02-18 12:39:42 GMT 55.610962 -2.742587 8,650 340 362 -1088
2019-02-18 12:39:38 GMT 55.605560 -2.739008 8,700 340 366 -1216
2019-02-18 12:39:34 GMT 55.593750 -2.731268 8,825 340 372 -1600
2019-02-18 12:39:31 GMT 55.593750 -2.731268 8,900 340 372 -1600
2019-02-18 12:39:27 GMT 55.588493 -2.727785 8,975 340 375 -2176
2019-02-18 12:39:24 GMT 55.578857 -2.721262 9,150 339 376 -2560
2019-02-18 12:39:21 GMT 55.578857 -2.721262 9,225 339 377 -2368
2019-02-18 12:39:17 GMT 55.571915 -2.716536 9,375 339 378 -2240
2019-02-18 12:39:14 GMT 55.562210 -2.709794 9,550 339 379 -2432
2019-02-18 12:39:08 GMT 55.555344 -2.704967 9,750 339 381 -2880
2019-02-18 12:39:05 GMT 55.552788 -2.703152 10,350 339 382 -3072
2019-02-18 12:39:02 GMT 55.546131 -2.698431 10,075 339 382 -3136
2019-02-18 12:38:59 GMT 55.540558 -2.694480 10,275 339 382 -3264
2019-02-18 12:38:56 GMT 55.538124 -2.692766 10,350 339 382 -3392
2019-02-18 12:38:52 GMT 55.530075 -2.687156 10,500 339 382 -3648
2019-02-18 12:38:48 GMT 55.525135 -2.683668 10,825 339 381 -3584
2019-02-18 12:38:45 GMT 55.519272 -2.679548 11,175 339 381 -3456
2019-02-18 12:38:42 GMT 55.514660 -2.676373 11,225 339 381 -3264
2019-02-18 12:38:38 GMT 55.502930 -2.668263 12,175 339 381 -2752
2019-02-18 12:38:31 GMT 55.497162 -2.664351 11,825 339 383 -2624
2019-02-18 12:38:28 GMT 55.484447 -2.655687 11,950 340 386 -2368
2019-02-18 12:38:24 GMT 55.484447 -2.655687 12,125 340 387 -2432
2019-02-18 12:38:21 GMT 55.480865 -2.653284 12,175 340 387 -2432
2019-02-18 12:38:18 GMT 55.474812 -2.649250 12,325 340 389 -2688
2019-02-18 12:38:15 GMT 55.470112 -2.646074 12,675 340 390 -2752
2019-02-18 12:38:11 GMT 55.462990 -2.641354 12,675 340 391 -2816
2019-02-18 12:38:08 GMT 55.457588 -2.637749 12,850 340 392 -3136
2019-02-18 12:38:05 GMT 55.453171 -2.634804 12,975 340 392 -3136
2019-02-18 12:38:02 GMT 55.445663 -2.629727 13,100 340 392 -3136
2019-02-18 12:37:59 GMT 55.442780 -2.627752 13,275 339 392 -3264
2019-02-18 12:37:56 GMT 55.431610 -2.620156 13,525 339 392 -3584
2019-02-18 12:37:53 GMT 55.431610 -2.620156 13,650 339 391 -3776
2019-02-18 12:37:50 GMT 55.428398 -2.617909 13,900 339 389 -4096
2019-02-18 12:37:47 GMT 55.422592 -2.613938 14,100 339 387 -4224
2019-02-18 12:37:43 GMT 55.414810 -2.608445 14,450 338 385 -4224
2019-02-18 12:37:40 GMT 55.411331 -2.605941 14,525 337 384 -4224
2019-02-18 12:37:37 GMT 55.406113 -2.601983 15,125 329 374 -3840
2019-02-18 12:37:33 GMT 55.400654 -2.597434 15,000 332 377 -3968
2019-02-18 12:37:30 GMT 55.395206 -2.592024 15,250 329 374 -3840
2019-02-18 12:37:27 GMT 55.390598 -2.586781 15,825 318 364 -2304
2019-02-18 12:37:23 GMT 55.385605 -2.580252 16,625 320 365 -2944
2019-02-18 12:37:20 GMT 55.381706 -2.574629 15,850 319 364 -2496
2019-02-18 12:37:16 GMT 55.376122 -2.565724 16,100 317 365 -2112
2019-02-18 12:37:12 GMT 55.371700 -2.558483 16,175 317 365 -2048
2019-02-18 12:37:09 GMT 55.369034 -2.554079 16,250 317 366 -1984
2019-02-18 12:37:06 GMT 55.364857 -2.547164 16,325 317 367 -1728
2019-02-18 12:37:03 GMT 55.355824 -2.532349 16,500 317 370 -1792
2019-02-18 12:36:59 GMT 55.355824 -2.532349 16,775 317 372 -2496
2019-02-18 12:36:55 GMT 55.345398 -2.515287 16,925 318 372 -2496
2019-02-18 12:36:52 GMT 55.345398 -2.515287 16,875 318 372 -2496
2019-02-18 12:36:49 GMT 55.342987 -2.511345 16,950 318 372 -2496
2019-02-18 12:36:46 GMT 55.339207 -2.505133 17,050 318 372 -2304
2019-02-18 12:36:43 GMT 55.335155 -2.498557 17,200 318 374 -1920
2019-02-18 12:36:39 GMT 55.330082 -2.490234 17,325 318 375 -1792
2019-02-18 12:36:36 GMT 55.326233 -2.484041 17,425 317 377 -1856
2019-02-18 12:36:32 GMT 55.321934 -2.476918 17,550 317 378 -3008
2019-02-18 12:36:29 GMT 55.317558 -2.469677 17,625 317 378 -3008
2019-02-18 12:36:26 GMT 55.313789 -2.463518 17,850 317 377 -3328
2019-02-18 12:36:23 GMT 55.311035 -2.458999 17,975 317 377 -3008
2019-02-18 12:36:20 GMT 55.306458 -2.451486 18,150 317 376 -2816
2019-02-18 12:36:17 GMT 55.303482 -2.446558 18,275 317 376 -2944
2019-02-18 12:36:14 GMT 55.298355 -2.438076 18,475 317 376 -3008
2019-02-18 12:36:10 GMT 55.293777 -2.430483 21,450 317 375 -3008
2019-02-18 12:36:07 GMT 55.289795 -2.423778 18,775 317 375 -2944
2019-02-18 12:36:03 GMT 55.285530 -2.416576 19,125 316 373 -3392
2019-02-18 12:36:00 GMT 55.281246 -2.409335 19,200 316 372 -3648
2019-02-18 12:35:56 GMT 55.275757 -2.399930 19,375 313 360 -3584
2019-02-18 12:35:53 GMT 55.267467 -2.385781 19,925 316 367 -3712
2019-02-18 12:35:49 GMT 55.267467 -2.385781 19,850 316 365 -3648
2019-02-18 12:35:46 GMT 55.260952 -2.374129 20,200 315 362 0
2019-02-18 12:35:43 GMT 55.256344 -2.364974 20,650 312 356 -3456
2019-02-18 12:35:40 GMT 55.256344 -2.364974 20,500 310 353 -3200
2019-02-18 12:35:37 GMT 55.254730 -2.361576 20,600 309 352 -3072
2019-02-18 12:35:33 GMT 55.250381 -2.351397 20,900 302 345 -1280
2019-02-18 12:35:30 GMT 55.247730 -2.344333 20,950 302 345 -1280
2019-02-18 12:35:27 GMT 55.245125 -2.336675 20,975 300 344 -960
2019-02-18 12:35:24 GMT 55.242416 -2.328051 21,050 296 343 -512
2019-02-18 12:35:20 GMT 55.240376 -2.320945 21,050 297 343 -384
2019-02-18 12:35:17 GMT 55.238022 -2.312461 21,075 296 345 -768
2019-02-18 12:35:14 GMT 55.235722 -2.303883 21,125 296 350 -1536
2019-02-18 12:35:10 GMT 55.233253 -2.294561 21,275 296 350 -1600
2019-02-18 12:35:07 GMT 55.231342 -2.287487 21,300 296 352 -1728
2019-02-18 12:35:03 GMT 55.228085 -2.275418 21,325 296 352 -1792
2019-02-18 12:35:00 GMT 55.226269 -2.268843 21,525 296 353 -1984
2019-02-18 12:34:57 GMT 55.224197 -2.261245 21,575 296 353 -1984
2019-02-18 12:34:54 GMT 55.222229 -2.253974 21,675 296 354 -1984
2019-02-18 12:34:51 GMT 55.219849 -2.245412 21,750 296 354 -1984
2019-02-18 12:34:47 GMT 55.216911 -2.234802 21,925 297 356 -2048
2019-02-18 12:34:44 GMT 55.214073 -2.224898 22,200 298 358 -2112
2019-02-18 12:34:41 GMT 55.212814 -2.220487 22,125 297 357 -2048
2019-02-18 12:34:38 GMT 55.210602 -2.212776 22,750 299 362 -1984
2019-02-18 12:34:35 GMT 55.207031 -2.200658 22,400 298 360 -1984
2019-02-18 12:34:29 GMT 55.203598 -2.189187 22,550 299 361 -2048
2019-02-18 12:34:26 GMT 55.201225 -2.181452 22,675 300 365 -2048
2019-02-18 12:34:23 GMT 55.198151 -2.171577 22,800 299 362 -1984
2019-02-18 12:34:19 GMT 55.195408 -2.162892 22,900 299 363 -1984
2019-02-18 12:34:16 GMT 55.192291 -2.152997 23,075 300 365 -2048
2019-02-18 12:34:12 GMT 55.186844 -2.135952 23,250 300 365 -2048
2019-02-18 12:34:09 GMT 55.186844 -2.135952 23,275 300 366 -2048
2019-02-18 12:34:03 GMT 55.182606 -2.122858 23,450 300 368 -2048
2019-02-18 12:34:00 GMT 55.180069 -2.115111 23,575 300 369 -2048
2019-02-18 12:33:57 GMT 55.177734 -2.108002 23,625 300 369 -2048
2019-02-18 12:33:54 GMT 55.174084 -2.096891 23,800 300 370 -2048
2019-02-18 12:33:51 GMT 55.168636 -2.080245 23,900 300 372 -2048
2019-02-18 12:33:48 GMT 55.168636 -2.080245 24,250 301 375 -2112
2019-02-18 12:33:45 GMT 55.167526 -2.076901 24,175 301 374 -2048
2019-02-18 12:33:42 GMT 55.164589 -2.068010 24,300 301 375 -2112
2019-02-18 12:33:39 GMT 55.162308 -2.061229 24,550 301 376 -2048
2019-02-18 12:33:36 GMT 55.158955 -2.051364 24,500 302 378 -2048
2019-02-18 12:33:32 GMT 55.154572 -2.038691 24,650 302 379 -2048
2019-02-18 12:33:29 GMT 55.153183 -2.034635 24,600 302 379 -2048
2019-02-18 12:33:26 GMT 55.146572 -2.015492 24,800 302 380 -1984
2019-02-18 12:33:23 GMT 55.146572 -2.015492 24,900 301 380 -1984
2019-02-18 12:33:20 GMT 55.144852 -2.010498 25,000 301 381 -1984
2019-02-18 12:33:17 GMT 55.142197 -2.002674 25,100 301 381 -1984
2019-02-18 12:33:14 GMT 55.139511 -1.994746 25,125 301 381 -1984
2019-02-18 12:33:11 GMT 55.136845 -1.986778 25,275 301 382 -2048
2019-02-18 12:33:08 GMT 55.133789 -1.977701 25,350 301 385 -2048
2019-02-18 12:33:04 GMT 55.130722 -1.968572 25,550 301 385 -2048
2019-02-18 12:33:01 GMT 55.127857 -1.960061 25,625 301 385 -2112
2019-02-18 12:32:58 GMT 55.125183 -1.952093 25,800 301 386 -2112
2019-02-18 12:32:55 GMT 55.122459 -1.944081 25,825 301 386 -2112
2019-02-18 12:32:52 GMT 55.119781 -1.936098 25,975 301 387 -2048
2019-02-18 12:32:49 GMT 55.116302 -1.925677 26,075 301 388 -2048
2019-02-18 12:32:45 GMT 55.113602 -1.917680 26,100 301 388 -2048
2019-02-18 12:32:42 GMT 55.110718 -1.909036 26,250 301 389 -2048
2019-02-18 12:32:39 GMT 55.107788 -1.900312 26,400 301 391 -2048
2019-02-18 12:32:35 GMT 55.104309 -1.889891 26,575 301 391 -2112
2019-02-18 12:32:29 GMT 55.098858 -1.873668 26,750 301 392 -2048
2019-02-18 12:32:26 GMT 55.096527 -1.866626 26,825 301 394 -2048
2019-02-18 12:32:23 GMT 55.093365 -1.857272 26,925 301 394 -2048
2019-02-18 12:32:20 GMT 55.089981 -1.847319 27,100 302 397 -2112
2019-02-18 12:32:16 GMT 55.087006 -1.838514 27,250 302 397 -2112
2019-02-18 12:32:13 GMT 55.084007 -1.829889 27,425 302 397 -2048
2019-02-18 12:32:09 GMT 55.080376 -1.819319 27,475 301 398 -2048
2019-02-18 12:32:06 GMT 55.077351 -1.810580 27,550 301 398 -2048
2019-02-18 12:32:03 GMT 55.070755 -1.791175 27,925 301 398 -2240
2019-02-18 12:32:00 GMT 55.070755 -1.791175 27,850 301 398 -2240
2019-02-18 12:31:54 GMT 55.062359 -1.766385 28,075 301 399 -2304
2019-02-18 12:31:51 GMT 55.062359 -1.766385 28,175 301 398 -2240
2019-02-18 12:31:48 GMT 55.060547 -1.761125 28,250 301 399 -2240
2019-02-18 12:31:45 GMT 55.057751 -1.752819 28,425 301 399 -2240
2019-02-18 12:31:42 GMT 55.055237 -1.745162 28,425 301 399 -2240
2019-02-18 12:31:38 GMT 55.051254 -1.733255 28,625 300 400 -2240
2019-02-18 12:31:35 GMT 55.048737 -1.725581 28,725 300 400 -2240
2019-02-18 12:31:32 GMT 55.045555 -1.715948 28,800 300 400 -2240
2019-02-18 12:31:28 GMT 55.042065 -1.705211 29,000 300 400 -2240
2019-02-18 12:31:25 GMT 55.039131 -1.696306 29,125 300 401 -2240
2019-02-18 12:31:21 GMT 55.036377 -1.687855 29,225 300 402 -2240
2019-02-18 12:31:17 GMT 55.030975 -1.671376 29,350 300 402 -2240
2019-02-18 12:31:14 GMT 55.028183 -1.662813 29,575 300 403 -2240
2019-02-18 12:31:07 GMT 55.023056 -1.647141 29,775 300 404 -2240
2019-02-18 12:31:04 GMT 55.019302 -1.635751 29,950 300 405 -2240
2019-02-18 12:31:01 GMT 55.013527 -1.618236 30,125 300 406 -2240
2019-02-18 12:30:57 GMT 55.013527 -1.618236 30,175 301 406 -2240
2019-02-18 12:30:54 GMT 55.010918 -1.610413 30,275 301 408 -2304
2019-02-18 12:30:51 GMT 55.007473 -1.600092 30,475 301 409 -2304
2019-02-18 12:30:47 GMT 55.003830 -1.589221 30,575 301 409 -2304
2019-02-18 12:30:44 GMT 55.000397 -1.578800 30,750 300 410 -2304
2019-02-18 12:30:41 GMT 54.998611 -1.573307 31,125 300 410 -2304
2019-02-18 12:30:38 GMT 54.992294 -1.553838 31,100 300 411 -2304
2019-02-18 12:30:34 GMT 54.988724 -1.542610 31,100 299 411 -2304
2019-02-18 12:30:31 GMT 54.988724 -1.542610 31,175 299 411 -2304
2019-02-18 12:30:28 GMT 54.986618 -1.535839 31,325 299 412 -2304
2019-02-18 12:30:25 GMT 54.983139 -1.524676 31,450 299 413 -2304
2019-02-18 12:30:22 GMT 54.977692 -1.507308 31,550 299 413 -2304
2019-02-18 12:30:19 GMT 54.977692 -1.507308 31,750 299 415 -2304
2019-02-18 12:30:16 GMT 54.975399 -1.499800 31,825 299 414 -2304
2019-02-18 12:30:13 GMT 54.971741 -1.488082 31,875 299 416 -2240
2019-02-18 12:30:10 GMT 54.967392 -1.474165 32,100 299 417 -2176
2019-02-18 12:30:07 GMT 54.967392 -1.474165 32,350 300 419 -2176
2019-02-18 12:30:04 GMT 54.963638 -1.462393 32,450 300 419 -2176
2019-02-18 12:30:01 GMT 54.961578 -1.455931 32,350 300 419 -2176
2019-02-18 12:29:58 GMT 54.958782 -1.447282 32,400 300 419 -2176
2019-02-18 12:29:55 GMT 54.956360 -1.439792 32,775 300 421 -2176
2019-02-18 12:29:52 GMT 54.952869 -1.429055 32,675 300 421 -2176
2019-02-18 12:29:49 GMT 54.948212 -1.414823 32,825 300 422 -2176
2019-02-18 12:29:46 GMT 54.947144 -1.411493 32,925 300 423 -2176
2019-02-18 12:29:43 GMT 54.943222 -1.399464 33,100 300 422 -2240
2019-02-18 12:29:40 GMT 54.941368 -1.393849 33,100 300 423 -2240
2019-02-18 12:29:37 GMT 54.935074 -1.374260 33,300 300 423 -2176
2019-02-18 12:29:31 GMT 54.932831 -1.367313 34,350 300 428 -1984
2019-02-18 12:29:28 GMT 54.929352 -1.356569 33,675 300 425 -2112
2019-02-18 12:29:22 GMT 54.923630 -1.338797 33,825 300 426 -2112
2019-02-18 12:29:19 GMT 54.920563 -1.329265 33,900 300 426 -2048
2019-02-18 12:29:16 GMT 54.917358 -1.319329 33,975 300 427 -2048
2019-02-18 12:29:12 GMT 54.915253 -1.312785 34,025 300 427 -2048
2019-02-18 12:29:09 GMT 54.910973 -1.299549 34,225 300 429 -1984
2019-02-18 12:29:06 GMT 54.909485 -1.294852 34,350 300 428 -1984
2019-02-18 12:29:03 GMT 54.906372 -1.285239 34,350 300 428 -1920
2019-02-18 12:29:00 GMT 54.902500 -1.273249 34,500 300 429 -1984
2019-02-18 12:28:57 GMT 54.899368 -1.263589 34,625 300 429 -2176
2019-02-18 12:28:53 GMT 54.895294 -1.250907 34,675 300 430 -2112
2019-02-18 12:28:49 GMT 54.892319 -1.241778 35,175 300 428 -1536
2019-02-18 12:28:46 GMT 54.889881 -1.234048 35,025 299 429 -1664
2019-02-18 12:28:43 GMT 54.887184 -1.225641 35,125 300 428 -1536
2019-02-18 12:28:40 GMT 54.883484 -1.214151 35,175 300 427 -1216
2019-02-18 12:28:34 GMT 54.877808 -1.196298 35,325 300 426 -960
2019-02-18 12:28:30 GMT 54.873684 -1.183610 35,375 300 426 -960
2019-02-18 12:28:27 GMT 54.871216 -1.175941 35,375 300 426 -960
2019-02-18 12:28:24 GMT 54.866272 -1.160673 35,525 300 426 -960
2019-02-18 12:28:18 GMT 54.862556 -1.149320 35,550 300 427 -960
2019-02-18 12:28:15 GMT 54.859905 -1.141080 35,600 300 428 -960
2019-02-18 12:28:12 GMT 54.856228 -1.129761 35,625 300 428 -960
2019-02-18 12:28:09 GMT 54.853664 -1.121937 35,700 300 429 -960
2019-02-18 12:28:06 GMT 54.851616 -1.115612 35,700 300 429 -896
2019-02-18 12:28:03 GMT 54.847427 -1.102794 35,750 300 432 -960
2019-02-18 12:28:00 GMT 54.845333 -1.096469 35,775 300 433 -960
2019-02-18 12:27:57 GMT 54.842587 -1.088063 35,850 300 433 -896
2019-02-18 12:27:54 GMT 54.839676 -1.079084 35,875 300 434 -832
2019-02-18 12:27:51 GMT 54.831482 -1.053880 36,000 300 436 -256
2019-02-18 12:27:48 GMT 54.830246 -1.050002 35,975 300 436 -256
2019-02-18 12:27:45 GMT 54.830246 -1.050002 36,025 300 436 -128
2019-02-18 12:27:41 GMT 54.826218 -1.037643 36,025 300 436 64
2019-02-18 12:27:38 GMT 54.823471 -1.029241 36,025 300 436 0
2019-02-18 12:27:35 GMT 54.819489 -1.016962 36,025 300 436 64
2019-02-18 12:27:30 GMT 54.815910 -1.005915 36,025 300 436 64
2019-02-18 12:27:27 GMT 54.813164 -0.997425 36,025 300 436 64
2019-02-18 12:27:23 GMT 54.808136 -0.981984 36,025 300 436 64
2019-02-18 12:27:20 GMT 54.805622 -0.974204 36,025 300 436 64
2019-02-18 12:27:17 GMT 54.802231 -0.963727 36,000 300 436 64
2019-02-18 12:27:14 GMT 54.796326 -0.945713 36,000 300 435 64
2019-02-18 12:27:10 GMT 54.796326 -0.945713 36,000 300 435 64
2019-02-18 12:27:07 GMT 54.792961 -0.935419 36,000 300 435 64
2019-02-18 12:27:04 GMT 54.789551 -0.925033 36,000 300 435 128
2019-02-18 12:27:00 GMT 54.786209 -0.914695 36,000 300 435 64
2019-02-18 12:26:57 GMT 54.783234 -0.905645 35,975 300 435 64
2019-02-18 12:26:54 GMT 54.779461 -0.893971 35,975 300 435 0
2019-02-18 12:26:50 GMT 54.776295 -0.884316 35,975 300 435 -64
2019-02-18 12:26:47 GMT 54.772934 -0.874059 35,975 300 435 -64
2019-02-18 12:26:43 GMT 54.767029 -0.856045 35,975 300 434 0
2019-02-18 12:26:40 GMT 54.765961 -0.852772 36,000 300 434 0
2019-02-18 12:26:35 GMT 54.760468 -0.836043 35,975 300 433 -64
2019-02-18 12:26:32 GMT 54.757553 -0.827125 35,975 300 433 -64
2019-02-18 12:26:29 GMT 54.754211 -0.817027 35,975 300 433 -64
2019-02-18 12:26:26 GMT 54.752472 -0.811777 35,975 300 433 -128
2019-02-18 12:26:23 GMT 54.748901 -0.800790 35,975 300 433 -128
2019-02-18 12:26:20 GMT 54.745804 -0.791349 35,975 300 433 -128
2019-02-18 12:26:17 GMT 54.743244 -0.783525 35,975 300 432 -128
2019-02-18 12:26:11 GMT 54.737091 -0.764923 36,000 300 433 -128
2019-02-18 12:26:08 GMT 54.734985 -0.758541 36,000 300 433 -128
2019-02-18 12:26:05 GMT 54.731606 -0.748319 36,000 300 433 -128
2019-02-18 12:26:02 GMT 54.728668 -0.739315 36,000 300 433 -64
2019-02-18 12:25:59 GMT 54.725273 -0.729176 36,025 301 429 0
2019-02-18 12:25:55 GMT 54.721436 -0.717585 36,025 300 434 0
2019-02-18 12:25:52 GMT 54.717827 -0.706704 36,000 300 434 -128
2019-02-18 12:25:46 GMT 54.712936 -0.691889 36,025 300 434 -128
2019-02-18 12:25:43 GMT 54.709354 -0.681069 36,025 300 434 -64
2019-02-18 12:25:40 GMT 54.706562 -0.672663 36,025 300 434 -64
2019-02-18 12:25:37 GMT 54.703171 -0.662411 36,025 300 434 -64
2019-02-18 12:25:34 GMT 54.700649 -0.654769 36,025 300 434 -64
2019-02-18 12:25:31 GMT 54.694271 -0.635542 36,025 300 434 0
2019-02-18 12:25:28 GMT 54.694271 -0.635542 36,025 300 434 0
2019-02-18 12:25:24 GMT 54.690857 -0.625332 36,025 300 434 0
2019-02-18 12:25:21 GMT 54.687241 -0.614427 36,025 300 434 0
2019-02-18 12:25:18 GMT 54.683842 -0.604248 36,025 300 434 0
2019-02-18 12:25:12 GMT 54.678909 -0.589465 36,025 300 434 64
2019-02-18 12:25:09 GMT 54.672501 -0.570320 36,025 300 434 64
2019-02-18 12:25:06 GMT 54.669754 -0.561999 36,025 300 434 64
2019-02-18 12:25:03 GMT 54.665955 -0.550609 36,025 300 434 64
2019-02-18 12:25:00 GMT 54.665955 -0.550609 36,025 300 434 0
2019-02-18 12:24:57 GMT 54.663391 -0.542854 36,025 300 434 0
2019-02-18 12:24:54 GMT 54.658939 -0.529508 36,025 300 435 0
2019-02-18 12:24:51 GMT 54.654465 -0.515873 36,025 300 434 -64
2019-02-18 12:24:48 GMT 54.654465 -0.515873 36,025 300 435 -64
2019-02-18 12:24:45 GMT 54.651260 -0.506260 36,025 300 434 0
2019-02-18 12:24:40 GMT 54.647461 -0.494789 36,025 300 434 -64
2019-02-18 12:24:37 GMT 54.644459 -0.485729 36,025 300 433 -64
2019-02-18 12:24:34 GMT 54.640827 -0.474826 36,025 300 434 -64
2019-02-18 12:24:31 GMT 54.638500 -0.467751 36,025 300 434 -64
2019-02-18 12:24:28 GMT 54.633682 -0.453348 36,025 300 434 -64
2019-02-18 12:24:23 GMT 54.629608 -0.441034 36,025 300 433 -64
2019-02-18 12:24:20 GMT 54.626633 -0.432102 36,025 300 433 -64
2019-02-18 12:24:17 GMT 54.623886 -0.423781 36,025 300 433 -128
2019-02-18 12:24:14 GMT 54.621094 -0.415461 36,025 300 433 -64
2019-02-18 12:24:11 GMT 54.618347 -0.407221 36,025 300 433 -64
2019-02-18 12:24:08 GMT 54.614319 -0.395185 36,025 300 432 -64
2019-02-18 12:24:05 GMT 54.607956 -0.376039 36,050 300 432 -64
2019-02-18 12:24:02 GMT 54.607956 -0.376039 36,025 300 431 -64
2019-02-18 12:23:59 GMT 54.605621 -0.369092 36,050 301 431 -64
2019-02-18 12:23:56 GMT 54.602280 -0.359075 36,050 300 431 -64
2019-02-18 12:23:53 GMT 54.600281 -0.353144 36,050 301 431 0
2019-02-18 12:23:50 GMT 54.596512 -0.341869 36,025 301 431 0
2019-02-18 12:23:47 GMT 54.592438 -0.329751 36,025 301 431 0
2019-02-18 12:23:44 GMT 54.590103 -0.322804 36,025 301 431 0
2019-02-18 12:23:41 GMT 54.588596 -0.318354 36,025 301 429 0
2019-02-18 12:23:38 GMT 54.584793 -0.306890 36,025 301 431 0
2019-02-18 12:23:35 GMT 54.582218 -0.299294 36,025 301 431 0
2019-02-18 12:23:31 GMT 54.574539 -0.276516 36,025 301 431 0
2019-02-18 12:23:28 GMT 54.574539 -0.276516 36,025 301 431 0
2019-02-18 12:23:25 GMT 54.572212 -0.269664 36,025 301 431 -64
2019-02-18 12:23:22 GMT 54.568581 -0.258928 36,025 301 431 -64
2019-02-18 12:23:19 GMT 54.565155 -0.248808 36,025 301 430 -64
2019-02-18 12:23:15 GMT 54.560711 -0.235623 36,025 301 430 -64
2019-02-18 12:23:12 GMT 54.554287 -0.216730 36,025 301 429 0
2019-02-18 12:23:08 GMT 54.554287 -0.216730 36,025 301 430 0
2019-02-18 12:23:05 GMT 54.552155 -0.210356 36,025 301 429 0
2019-02-18 12:23:02 GMT 54.549225 -0.201631 36,025 301 429 -64
2019-02-18 12:22:59 GMT 54.545582 -0.190929 36,025 301 428 -64
2019-02-18 12:22:56 GMT 54.542587 -0.182082 36,025 301 428 0
2019-02-18 12:22:50 GMT 54.536499 -0.163987 36,025 301 427 64
2019-02-18 12:22:47 GMT 54.534119 -0.157121 36,025 301 427 64
2019-02-18 12:22:44 GMT 54.530781 -0.147150 36,025 301 425 0
2019-02-18 12:22:41 GMT 54.528870 -0.141574 36,025 301 425 64
2019-02-18 12:22:38 GMT 54.524643 -0.129089 36,025 301 425 0
2019-02-18 12:22:35 GMT 54.522766 -0.123435 36,025 301 424 0
2019-02-18 12:22:31 GMT 54.518955 -0.112277 36,025 301 424 0
2019-02-18 12:22:28 GMT 54.514755 -0.099846 36,025 301 423 0
2019-02-18 12:22:25 GMT 54.511833 -0.091220 36,000 301 423 0
2019-02-18 12:22:21 GMT 54.508247 -0.080733 36,000 301 422 64
2019-02-18 12:22:18 GMT 54.502430 -0.063504 36,000 301 421 64
2019-02-18 12:22:15 GMT 54.502430 -0.063504 36,000 301 422 64
2019-02-18 12:22:07 GMT 54.492783 -0.035059 36,000 301 421 0
2019-02-18 12:22:04 GMT 54.490906 -0.029485 36,000 301 420 -64
2019-02-18 12:22:00 GMT 54.487999 -0.020974 36,000 301 421 0
2019-02-18 12:21:57 GMT 54.485458 -0.013652 36,000 301 420 0
2019-02-18 12:21:54 GMT 54.481712 -0.002580 36,000 301 420 0
2019-02-18 12:21:51 GMT 54.475288 0.016313 36,000 301 420 -64
2019-02-18 12:21:48 GMT 54.475288 0.016313 36,000 301 420 -64
2019-02-18 12:21:45 GMT 54.473755 0.020807 36,000 301 420 -128
2019-02-18 12:21:42 GMT 54.470169 0.031263 36,000 301 420 -64
2019-02-18 12:21:39 GMT 54.468109 0.037402 36,000 301 419 0
2019-02-18 12:21:35 GMT 54.463745 0.050188 36,000 301 419 0
2019-02-18 12:21:31 GMT 54.460205 0.060674 36,000 301 418 0
2019-02-18 12:21:28 GMT 54.455460 0.074657 36,000 301 418 0
2019-02-18 12:21:25 GMT 54.452663 0.082980 36,000 301 418 64
2019-02-18 12:21:21 GMT 54.449890 0.091041 35,975 301 417 64
2019-02-18 12:21:18 GMT 54.447403 0.098378 35,975 301 417 0
2019-02-18 12:21:15 GMT 54.444489 0.106955 35,975 301 416 64
2019-02-18 12:21:11 GMT 54.439041 0.122708 35,975 301 416 64
2019-02-18 12:21:07 GMT 54.436371 0.130587 35,975 301 416 64
2019-02-18 12:21:04 GMT 54.433868 0.137814 35,975 301 415 64
2019-02-18 12:21:01 GMT 54.430344 0.148154 35,975 301 415 64
2019-02-18 12:20:57 GMT 54.425617 0.162048 35,975 301 415 0
2019-02-18 12:20:54 GMT 54.423756 0.167542 35,975 301 415 0
2019-02-18 12:20:50 GMT 54.420044 0.178366 35,975 301 414 -64
2019-02-18 12:20:47 GMT 54.417145 0.186851 35,975 301 414 0
2019-02-18 12:20:44 GMT 54.413315 0.198158 35,975 301 414 -64
2019-02-18 12:20:41 GMT 54.410534 0.206243 35,975 301 414 -64
2019-02-18 12:20:38 GMT 54.408691 0.211648 35,975 301 414 -64
2019-02-18 12:20:35 GMT 54.402107 0.230963 35,975 301 413 -64
2019-02-18 12:20:32 GMT 54.402107 0.230963 35,975 301 413 -128
2019-02-18 12:20:29 GMT 54.398060 0.242864 35,975 301 413 -128
2019-02-18 12:20:26 GMT 54.395325 0.250747 35,975 301 413 -128
2019-02-18 12:20:23 GMT 54.393265 0.256805 36,000 301 414 -192
2019-02-18 12:20:19 GMT 54.389786 0.266984 36,000 301 412 -128
2019-02-18 12:20:15 GMT 54.382553 0.288068 36,000 301 413 -128
2019-02-18 12:20:12 GMT 54.382553 0.288068 36,000 301 413 -128
2019-02-18 12:20:09 GMT 54.379852 0.295904 36,000 301 412 -64
2019-02-18 12:20:05 GMT 54.373672 0.313757 36,025 301 412 -64
2019-02-18 12:20:02 GMT 54.373672 0.313757 36,025 301 411 64
2019-02-18 12:19:59 GMT 54.370560 0.322804 36,000 301 412 0
2019-02-18 12:19:56 GMT 54.367447 0.331852 36,000 301 412 0
2019-02-18 12:19:53 GMT 54.364334 0.340819 36,000 301 412 -64
2019-02-18 12:19:50 GMT 54.361656 0.348566 36,000 301 412 -64
2019-02-18 12:19:47 GMT 54.359421 0.355058 36,000 301 412 -64
2019-02-18 12:19:44 GMT 54.355682 0.365861 36,000 301 412 -64
2019-02-18 12:19:41 GMT 54.352982 0.373697 36,000 301 412 -64
2019-02-18 12:19:38 GMT 54.350903 0.379694 36,025 301 412 -64
2019-02-18 12:19:34 GMT 54.342636 0.403667 36,025 301 412 -64
2019-02-18 12:19:31 GMT 54.342636 0.403667 36,025 301 411 0
2019-02-18 12:19:28 GMT 54.335541 0.424305 36,025 301 411 0
2019-02-18 12:19:24 GMT 54.335541 0.424305 36,000 301 411 64
2019-02-18 12:19:21 GMT 54.333344 0.430567 36,025 301 411 0
2019-02-18 12:19:18 GMT 54.329315 0.442361 36,025 301 411 64
2019-02-18 12:19:15 GMT 54.328045 0.446028 36,000 301 411 64
2019-02-18 12:19:12 GMT 54.325562 0.453186 36,000 301 411 64
2019-02-18 12:19:09 GMT 54.321671 0.464495 36,000 301 411 64
2019-02-18 12:19:05 GMT 54.315445 0.482348 36,000 301 411 64
2019-02-18 12:19:02 GMT 54.315445 0.482348 36,000 301 411 64
2019-02-18 12:18:59 GMT 54.311920 0.492527 36,000 301 411 64
2019-02-18 12:18:56 GMT 54.309471 0.499628 35,975 301 410 64
2019-02-18 12:18:53 GMT 54.307388 0.505613 35,975 301 410 64
2019-02-18 12:18:50 GMT 54.302860 0.518688 35,975 301 410 64
2019-02-18 12:18:47 GMT 54.300159 0.526428 35,975 301 409 64
2019-02-18 12:18:44 GMT 54.298096 0.532271 35,975 301 409 128
2019-02-18 12:18:41 GMT 54.294388 0.542991 35,975 301 409 64
2019-02-18 12:18:37 GMT 54.290848 0.553062 35,950 301 409 64
2019-02-18 12:18:34 GMT 54.287777 0.561884 35,950 301 409 128
2019-02-18 12:18:31 GMT 54.285450 0.568459 35,950 301 409 0
2019-02-18 12:18:28 GMT 54.282166 0.577832 35,950 301 409 0
2019-02-18 12:18:25 GMT 54.278465 0.588518 35,950 301 409 0
2019-02-18 12:18:22 GMT 54.276398 0.594360 35,950 301 408 -64
2019-02-18 12:18:19 GMT 54.273697 0.602129 35,950 301 408 -128
2019-02-18 12:18:16 GMT 54.270458 0.611518 35,950 301 408 -128
2019-02-18 12:18:13 GMT 54.265713 0.625171 35,975 301 408 -192
2019-02-18 12:18:07 GMT 54.262264 0.635107 35,975 301 408 -192
2019-02-18 12:18:04 GMT 54.259140 0.644034 36,000 301 407 -128
2019-02-18 12:18:01 GMT 54.256073 0.652902 36,000 301 406 0
2019-02-18 12:17:58 GMT 54.253235 0.661063 36,000 301 406 -64
2019-02-18 12:17:55 GMT 54.249939 0.670558 36,000 301 406 -64
2019-02-18 12:17:52 GMT 54.247276 0.678163 36,000 301 406 0
2019-02-18 12:17:46 GMT 54.239269 0.701025 36,000 301 406 -64
2019-02-18 12:17:43 GMT 54.239269 0.701025 36,000 301 406 -64
2019-02-18 12:17:39 GMT 54.235565 0.711600 36,000 301 406 -64
2019-02-18 12:17:36 GMT 54.232285 0.720978 36,000 301 406 -64
2019-02-18 12:17:33 GMT 54.227444 0.734791 36,000 301 406 -64
2019-02-18 12:17:30 GMT 54.226559 0.737296 36,000 301 406 -64
2019-02-18 12:17:27 GMT 54.223862 0.745051 36,025 301 406 -64
2019-02-18 12:17:24 GMT 54.217297 0.763711 36,000 301 406 -64
2019-02-18 12:17:21 GMT 54.217297 0.763711 36,000 301 405 -64
2019-02-18 12:17:15 GMT 54.212585 0.777283 36,025 302 407 64
2019-02-18 12:17:11 GMT 54.208080 0.790127 36,025 301 406 -64
2019-02-18 12:17:07 GMT 54.203564 0.803052 36,025 301 405 -64
2019-02-18 12:17:04 GMT 54.201096 0.810080 36,025 301 405 -64
2019-02-18 12:17:01 GMT 54.198624 0.817069 36,050 301 406 -128
2019-02-18 12:16:57 GMT 54.194733 0.828134 36,025 301 405 -64
2019-02-18 12:16:54 GMT 54.191666 0.836923 36,025 301 405 -64
2019-02-18 12:16:50 GMT 54.188370 0.846340 36,025 301 405 -128
2019-02-18 12:16:47 GMT 54.185688 0.853945 36,025 301 406 -128
2019-02-18 12:16:44 GMT 54.181503 0.865958 36,025 301 406 -128
2019-02-18 12:16:41 GMT 54.179810 0.870823 36,050 301 406 -128
2019-02-18 12:16:38 GMT 54.174889 0.884723 36,050 301 406 -128
2019-02-18 12:16:34 GMT 54.171955 0.893043 36,050 301 406 -64
2019-02-18 12:16:31 GMT 54.169952 0.898859 36,050 301 406 0
2019-02-18 12:16:27 GMT 54.166229 0.909361 36,050 301 406 0
2019-02-18 12:16:23 GMT 54.159618 0.928183 36,025 302 407 64
2019-02-18 12:16:17 GMT 54.155708 0.939250 36,025 302 407 0
2019-02-18 12:16:13 GMT 54.152634 0.947975 36,050 302 407 64
2019-02-18 12:16:10 GMT 54.146576 0.964992 36,025 302 407 64
2019-02-18 12:16:07 GMT 54.146576 0.964992 36,025 302 407 64
2019-02-18 12:16:03 GMT 54.142639 0.976135 36,025 302 407 0
2019-02-18 12:16:00 GMT 54.139114 0.986101 36,025 302 407 -64
2019-02-18 12:15:57 GMT 54.134758 0.998383 36,025 302 407 0
2019-02-18 12:15:54 GMT 54.129776 1.012469 36,025 302 407 0
2019-02-18 12:15:51 GMT 54.129776 1.012469 36,025 302 407 0
2019-02-18 12:15:48 GMT 54.128101 1.017124 36,025 302 407 0
2019-02-18 12:15:45 GMT 54.125244 1.025260 36,025 302 407 -64
2019-02-18 12:15:42 GMT 54.121540 1.035785 36,025 302 407 0
2019-02-18 12:15:39 GMT 54.118793 1.043459 36,025 302 407 -64
2019-02-18 12:15:35 GMT 54.115494 1.052804 36,025 302 406 0
2019-02-18 12:15:32 GMT 54.110138 1.068028 36,025 302 407 0
2019-02-18 12:15:26 GMT 54.106613 1.077837 36,025 302 406 0
2019-02-18 12:15:23 GMT 54.104130 1.084900 36,025 302 406 64
2019-02-18 12:15:20 GMT 54.101055 1.093624 36,025 302 406 64
2019-02-18 12:15:16 GMT 54.093796 1.114014 36,000 302 407 0
2019-02-18 12:15:13 GMT 54.093796 1.114014 36,000 302 406 64
2019-02-18 12:15:10 GMT 54.091698 1.119798 36,000 302 406 64
2019-02-18 12:15:07 GMT 54.088581 1.128522 36,000 302 407 64
2019-02-18 12:15:04 GMT 54.080475 1.151289 36,000 302 407 -128
2019-02-18 12:15:00 GMT 54.080475 1.151289 36,000 302 407 0
2019-02-18 12:14:57 GMT 54.078598 1.156468 36,000 302 406 -128
2019-02-18 12:14:54 GMT 54.075684 1.164712 36,000 302 407 -128
2019-02-18 12:14:51 GMT 54.071915 1.175223 36,000 302 406 -128
2019-02-18 12:14:47 GMT 54.068981 1.183373 36,025 302 407 0
2019-02-18 12:14:44 GMT 54.065861 1.192097 36,025 302 407 0
2019-02-18 12:14:41 GMT 54.063164 1.199610 36,025 302 406 64
2019-02-18 12:14:38 GMT 54.059624 1.209546 36,025 302 406 64
2019-02-18 12:14:35 GMT 54.057762 1.214797 36,025 302 406 64
2019-02-18 12:14:32 GMT 54.054016 1.225211 36,000 302 406 64
2019-02-18 12:14:29 GMT 54.048359 1.240890 36,000 302 406 64
2019-02-18 12:14:26 GMT 54.048359 1.240890 36,000 302 406 64
2019-02-18 12:14:22 GMT 54.045044 1.250166 36,000 302 406 0
2019-02-18 12:14:19 GMT 54.040863 1.261812 36,000 302 406 0
2019-02-18 12:14:14 GMT 54.034698 1.279044 36,000 302 407 0
2019-02-18 12:14:10 GMT 54.032997 1.283866 36,000 302 407 0
2019-02-18 12:14:07 GMT 54.029644 1.293155 36,000 302 406 0
2019-02-18 12:14:04 GMT 54.026688 1.301331 36,000 302 406 0
2019-02-18 12:14:01 GMT 54.023575 1.310041 36,000 302 406 0
2019-02-18 12:13:58 GMT 54.019043 1.322597 36,000 302 405 0
2019-02-18 12:13:55 GMT 54.018147 1.325064 36,000 302 406 -64
2019-02-18 12:13:52 GMT 54.015491 1.332577 36,000 302 406 -64
2019-02-18 12:13:49 GMT 54.012543 1.340724 36,000 302 406 -64
2019-02-18 12:13:46 GMT 54.009430 1.349435 36,000 302 406 -64
2019-02-18 12:13:43 GMT 54.006775 1.356968 36,050 302 404 -64
2019-02-18 12:13:40 GMT 54.002792 1.368033 36,000 302 405 0
2019-02-18 12:13:37 GMT 54.000916 1.373291 36,000 302 405 0
2019-02-18 12:13:33 GMT 53.997025 1.384199 36,000 302 405 0
2019-02-18 12:13:30 GMT 53.994125 1.392356 36,000 302 405 0
2019-02-18 12:13:27 GMT 53.990585 1.402130 36,000 302 405 0
2019-02-18 12:13:24 GMT 53.988098 1.409075 36,000 302 405 -64
2019-02-18 12:13:21 GMT 53.979042 1.434362 36,025 302 405 -64
2019-02-18 12:13:17 GMT 53.979042 1.434362 36,000 302 405 -64
2019-02-18 12:13:13 GMT 53.972527 1.452296 36,025 302 405 -64
2019-02-18 12:13:10 GMT 53.972527 1.452296 36,025 302 405 -64
2019-02-18 12:13:07 GMT 53.971455 1.455285 36,025 302 404 -64
2019-02-18 12:13:04 GMT 53.968094 1.464478 36,025 302 405 -128
2019-02-18 12:13:01 GMT 53.963772 1.476530 36,025 302 404 -64
2019-02-18 12:12:55 GMT 53.955643 1.499084 36,025 302 404 -64
2019-02-18 12:12:52 GMT 53.955643 1.499084 36,025 302 404 -64
2019-02-18 12:12:49 GMT 53.954369 1.502542 36,025 302 403 0
2019-02-18 12:12:46 GMT 53.950413 1.513528 36,025 302 403 0
2019-02-18 12:12:43 GMT 53.948177 1.519829 36,025 302 404 0
2019-02-18 12:12:40 GMT 53.944839 1.529140 36,025 302 404 64
2019-02-18 12:12:37 GMT 53.941101 1.539459 36,025 302 404 0
2019-02-18 12:12:33 GMT 53.938248 1.547503 36,025 302 404 0
2019-02-18 12:12:30 GMT 53.935284 1.555616 36,025 302 404 -64
2019-02-18 12:12:26 GMT 53.932163 1.564259 36,025 302 404 -64
2019-02-18 12:12:23 GMT 53.928864 1.573399 36,025 302 404 -64
2019-02-18 12:12:19 GMT 53.924667 1.584939 36,025 302 404 -64
2019-02-18 12:12:16 GMT 53.921310 1.594116 36,025 302 405 -64
2019-02-18 12:12:12 GMT 53.916569 1.607235 36,025 302 404 -64
2019-02-18 12:12:09 GMT 53.914627 1.612636 36,025 302 405 -64
2019-02-18 12:12:05 GMT 53.905655 1.637355 36,050 302 404 -128
2019-02-18 12:12:00 GMT 53.905655 1.637355 36,050 302 404 -128
2019-02-18 12:11:54 GMT 53.897251 1.660390 36,050 302 404 -64
2019-02-18 12:11:51 GMT 53.897251 1.660390 36,050 302 405 0
2019-02-18 12:11:48 GMT 53.894596 1.667822 36,050 302 404 -64
2019-02-18 12:11:44 GMT 53.889999 1.680437 36,050 302 404 64
2019-02-18 12:11:41 GMT 53.886841 1.689069 36,050 302 404 64
2019-02-18 12:11:38 GMT 53.883938 1.697145 36,050 302 404 0
2019-02-18 12:11:33 GMT 53.879932 1.708051 36,050 302 405 -64
2019-02-18 12:11:29 GMT 53.875076 1.721244 36,050 302 405 -64
2019-02-18 12:11:24 GMT 53.869629 1.736232 36,050 302 404 0
2019-02-18 12:11:20 GMT 53.867130 1.743110 36,050 302 405 0
2019-02-18 12:11:17 GMT 53.862614 1.755551 36,050 302 404 0
2019-02-18 12:11:14 GMT 53.861500 1.758620 36,050 302 404 0
2019-02-18 12:11:10 GMT 53.856468 1.772434 36,050 302 405 0
2019-02-18 12:11:06 GMT 53.853561 1.780413 36,050 302 405 0
2019-02-18 12:11:03 GMT 53.850605 1.788510 36,050 302 405 0
2019-02-18 12:10:59 GMT 53.846649 1.799334 36,050 302 405 0
2019-02-18 12:10:56 GMT 53.843063 1.809109 36,050 302 405 0
2019-02-18 12:10:52 GMT 53.838638 1.821141 36,050 302 405 0
2019-02-18 12:10:49 GMT 53.835480 1.829773 36,050 302 405 0
2019-02-18 12:10:46 GMT 53.829609 1.845784 36,050 303 405 0
2019-02-18 12:10:43 GMT 53.829609 1.845784 36,050 303 405 64
2019-02-18 12:10:38 GMT 53.824909 1.858386 35,950 303 405 64
2019-02-18 12:10:34 GMT 53.820904 1.869211 36,025 303 405 128
2019-02-18 12:10:30 GMT 53.817078 1.879525 36,025 303 405 128
2019-02-18 12:10:27 GMT 53.814377 1.886980 36,000 302 406 0
2019-02-18 12:10:22 GMT 53.805267 1.911621 36,000 302 406 64
2019-02-18 12:10:18 GMT 53.805267 1.911621 36,000 302 405 0
2019-02-18 12:10:12 GMT 53.795998 1.936825 36,000 302 405 0
2019-02-18 12:10:09 GMT 53.795998 1.936825 36,000 302 405 0
2019-02-18 12:10:05 GMT 53.793045 1.944815 36,000 302 405 0
2019-02-18 12:10:02 GMT 53.789669 1.953951 35,950 302 404 128
2019-02-18 12:09:58 GMT 53.785904 1.964199 35,975 302 404 320
2019-02-18 12:09:55 GMT 53.782745 1.972752 35,975 302 404 256
2019-02-18 12:09:52 GMT 53.778961 1.983032 35,950 302 403 -64
2019-02-18 12:09:47 GMT 53.775188 1.993292 35,950 302 403 0
2019-02-18 12:09:44 GMT 53.771187 2.004197 35,950 302 403 0
2019-02-18 12:09:41 GMT 53.768299 2.012033 35,950 302 403 -64
2019-02-18 12:09:37 GMT 53.765320 2.020111 35,950 302 403 0
2019-02-18 12:09:34 GMT 53.761364 2.030936 35,950 302 403 0
2019-02-18 12:09:31 GMT 53.760040 2.034433 35,950 302 402 -64
2019-02-18 12:09:27 GMT 53.755451 2.046931 35,950 302 403 -64
2019-02-18 12:09:24 GMT 53.752193 2.055817 35,950 302 402 -64
2019-02-18 12:09:21 GMT 53.748138 2.066764 35,950 302 402 -64
2019-02-18 12:09:18 GMT 53.744141 2.077628 35,950 302 402 0
2019-02-18 12:09:15 GMT 53.744141 2.077628 35,950 302 402 0
2019-02-18 12:09:12 GMT 53.739716 2.089583 35,950 302 402 0
2019-02-18 12:09:09 GMT 53.736832 2.097447 35,950 302 402 0
2019-02-18 12:09:05 GMT 53.734085 2.104902 35,950 302 402 0
2019-02-18 12:09:02 GMT 53.730103 2.115653 35,950 303 403 0
2019-02-18 12:08:59 GMT 53.725239 2.128763 35,950 302 403 -64
2019-02-18 12:08:56 GMT 53.725239 2.128763 35,950 302 403 -64
2019-02-18 12:08:53 GMT 53.722504 2.136135 35,950 302 403 -128
2019-02-18 12:08:50 GMT 53.719189 2.145161 35,975 302 403 -128
2019-02-18 12:08:44 GMT 53.712902 2.162287 35,975 302 405 -64
2019-02-18 12:08:41 GMT 53.709503 2.171448 35,975 302 405 -64
2019-02-18 12:08:38 GMT 53.706757 2.178824 35,975 302 405 -64
2019-02-18 12:08:35 GMT 53.704243 2.185633 35,975 302 405 -64
2019-02-18 12:08:32 GMT 53.700661 2.195408 35,975 302 405 -64
2019-02-18 12:08:29 GMT 53.698563 2.201032 36,000 302 406 -128
2019-02-18 12:08:26 GMT 53.695587 2.209060 36,000 302 406 -128
2019-02-18 12:08:23 GMT 53.692421 2.217623 36,000 302 406 -128
2019-02-18 12:08:20 GMT 53.688835 2.227316 36,000 302 406 -128
2019-02-18 12:08:17 GMT 53.686707 2.233128 36,000 303 409 -64
2019-02-18 12:08:14 GMT 53.683548 2.241682 36,025 303 409 0
2019-02-18 12:08:11 GMT 53.679710 2.252036 36,025 302 407 -64
2019-02-18 12:08:08 GMT 53.677803 2.257125 36,025 302 407 -64
2019-02-18 12:08:05 GMT 53.673615 2.268441 36,025 302 407 -64
2019-02-18 12:08:02 GMT 53.671417 2.274327 36,025 302 408 -64
2019-02-18 12:07:59 GMT 53.668491 2.282329 36,025 302 407 -64
2019-02-18 12:07:56 GMT 53.664642 2.292611 36,025 302 408 -64
2019-02-18 12:07:53 GMT 53.661667 2.300694 36,050 303 412 0
2019-02-18 12:07:50 GMT 53.657684 2.311523 36,050 303 410 -64
2019-02-18 12:07:46 GMT 53.655441 2.317409 36,025 303 410 -64
2019-02-18 12:07:43 GMT 53.651829 2.327244 36,025 303 410 -64
2019-02-18 12:07:39 GMT 53.648193 2.336937 36,025 303 410 -64
2019-02-18 12:07:36 GMT 53.646053 2.342673 36,025 303 411 0
2019-02-18 12:07:33 GMT 53.641205 2.355783 36,050 303 413 0
2019-02-18 12:07:30 GMT 53.640244 2.358215 36,050 303 411 -64
2019-02-18 12:07:26 GMT 53.635300 2.371512 36,050 303 412 0
2019-02-18 12:07:22 GMT 53.631157 2.382498 36,050 303 412 0
2019-02-18 12:07:19 GMT 53.627243 2.392822 36,050 303 413 0
2019-02-18 12:07:15 GMT 53.624641 2.399786 36,050 303 413 0
2019-02-18 12:07:12 GMT 53.620697 2.410165 36,050 303 414 0
2019-02-18 12:07:06 GMT 53.615021 2.425310 36,050 303 415 -64
2019-02-18 12:07:02 GMT 53.608932 2.441554 36,025 303 415 -64
2019-02-18 12:06:58 GMT 53.606297 2.448659 36,050 303 416 -64
2019-02-18 12:06:55 GMT 53.602798 2.457877 36,050 303 416 0
2019-02-18 12:06:52 GMT 53.600647 2.463684 36,050 303 416 -64
2019-02-18 12:06:48 GMT 53.596481 2.474670 36,050 303 416 -64
2019-02-18 12:06:45 GMT 53.592381 2.485657 36,050 303 416 -64
2019-02-18 12:06:42 GMT 53.589890 2.492170 36,050 303 416 -64
2019-02-18 12:06:38 GMT 53.585674 2.503348 36,050 303 418 0
2019-02-18 12:06:34 GMT 53.582657 2.511396 36,025 303 420 0
2019-02-18 12:06:31 GMT 53.579533 2.519585 36,050 303 419 128
2019-02-18 12:06:28 GMT 53.575340 2.530652 36,050 303 419 0
2019-02-18 12:06:24 GMT 53.571396 2.541216 36,050 303 418 64
2019-02-18 12:06:18 GMT 53.565426 2.556987 36,050 303 419 0
2019-02-18 12:06:13 GMT 53.559189 2.573386 36,050 303 419 64
2019-02-18 12:06:10 GMT 53.556999 2.579202 36,025 303 419 64
2019-02-18 12:06:07 GMT 53.551895 2.592695 36,025 303 419 64
2019-02-18 12:06:04 GMT 53.550808 2.595601 36,025 303 419 128
2019-02-18 12:05:58 GMT 53.544617 2.612080 36,000 303 420 128
2019-02-18 12:05:55 GMT 53.541092 2.621416 36,000 303 420 128
2019-02-18 12:05:52 GMT 53.537960 2.629610 36,000 303 420 128
2019-02-18 12:05:49 GMT 53.535782 2.635463 35,975 303 420 128
2019-02-18 12:05:46 GMT 53.531113 2.647784 36,000 303 420 64
2019-02-18 12:05:43 GMT 53.529099 2.653041 36,000 303 420 64
2019-02-18 12:05:40 GMT 53.526878 2.659015 35,975 303 420 0
2019-02-18 12:05:37 GMT 53.523109 2.668870 35,975 303 420 64
2019-02-18 12:05:34 GMT 53.519119 2.679487 35,975 303 420 64
2019-02-18 12:05:31 GMT 53.515568 2.688823 35,975 303 420 64
2019-02-18 12:05:28 GMT 53.513992 2.692984 35,975 303 420 0
2019-02-18 12:05:25 GMT 53.509186 2.705619 35,975 303 420 0
2019-02-18 12:05:22 GMT 53.507309 2.710563 35,975 303 420 0
2019-02-18 12:05:19 GMT 53.502487 2.723317 35,975 303 420 0
2019-02-18 12:05:15 GMT 53.500214 2.729239 35,975 303 420 0
2019-02-18 12:05:12 GMT 53.496872 2.738107 35,975 303 420 0
2019-02-18 12:05:09 GMT 53.492889 2.748622 35,975 303 420 0
2019-02-18 12:05:06 GMT 53.490601 2.754586 35,975 303 420 0
2019-02-18 12:05:03 GMT 53.485775 2.767343 35,975 303 420 0
2019-02-18 12:05:00 GMT 53.484612 2.770413 35,975 303 420 0
2019-02-18 12:04:57 GMT 53.481491 2.778521 35,975 303 420 0
2019-02-18 12:04:54 GMT 53.477489 2.789073 35,975 303 420 0
2019-02-18 12:04:51 GMT 53.475021 2.795536 35,975 303 420 0
2019-02-18 12:04:47 GMT 53.470833 2.806684 35,975 303 420 0
2019-02-18 12:04:44 GMT 53.467480 2.815408 35,975 303 420 0
2019-02-18 12:04:39 GMT 53.461197 2.831888 35,975 303 419 0
2019-02-18 12:04:35 GMT 53.458355 2.839400 35,975 303 419 0
2019-02-18 12:04:29 GMT 53.452118 2.855718 35,975 303 419 0
2019-02-18 12:04:26 GMT 53.448532 2.865156 35,975 303 419 -64
2019-02-18 12:04:23 GMT 53.444321 2.876221 36,000 303 419 -64
2019-02-18 12:04:19 GMT 53.441849 2.882656 35,975 303 419 -128
2019-02-18 12:04:15 GMT 53.436989 2.895463 35,975 303 419 -128
2019-02-18 12:04:12 GMT 53.433403 2.904834 35,975 303 419 -64
2019-02-18 12:04:09 GMT 53.430954 2.911220 36,000 303 419 -64
2019-02-18 12:04:06 GMT 53.428284 2.918163 36,000 303 419 -128
2019-02-18 12:04:03 GMT 53.425186 2.926365 36,000 303 419 -64
2019-02-18 12:04:00 GMT 53.420742 2.937954 36,000 303 419 -64
2019-02-18 12:03:57 GMT 53.419159 2.942074 36,000 303 419 -64
2019-02-18 12:03:54 GMT 53.415386 2.951929 36,025 303 419 -64
2019-02-18 12:03:51 GMT 53.412277 2.960109 36,000 303 420 -64
2019-02-18 12:03:48 GMT 53.409149 2.968328 36,000 303 420 -64
2019-02-18 12:03:44 GMT 53.404221 2.981140 36,025 303 421 -64
2019-02-18 12:03:41 GMT 53.396667 3.000837 36,025 303 420 0
2019-02-18 12:03:37 GMT 53.396667 3.000837 36,025 303 420 -64
2019-02-18 12:03:34 GMT 53.392483 3.011789 36,025 303 421 -64
2019-02-18 12:03:31 GMT 53.390350 3.017238 36,000 303 421 -64
2019-02-18 12:03:28 GMT 53.388336 3.022496 36,025 303 421 -64
2019-02-18 12:03:22 GMT 53.381870 3.039335 36,025 303 421 -64
2019-02-18 12:03:19 GMT 53.378265 3.048706 36,025 303 421 -64
2019-02-18 12:03:15 GMT 53.374466 3.058594 36,025 303 421 0
2019-02-18 12:03:12 GMT 53.368195 3.074995 36,025 303 421 0
2019-02-18 12:03:05 GMT 53.360550 3.094770 36,025 303 422 0
2019-02-18 12:03:02 GMT 53.360550 3.094770 36,000 303 423 -64
2019-02-18 12:02:56 GMT 53.351982 3.117047 36,025 303 422 -64
2019-02-18 12:02:50 GMT 53.349098 3.124560 36,050 303 424 0
2019-02-18 12:02:46 GMT 53.343884 3.138051 36,025 303 423 -64
2019-02-18 12:02:43 GMT 53.336884 3.156137 36,025 303 423 -64
2019-02-18 12:02:37 GMT 53.334412 3.162650 36,025 303 423 -64
2019-02-18 12:02:31 GMT 53.328754 3.177230 36,025 303 423 -64
2019-02-18 12:02:28 GMT 53.325577 3.185486 36,025 303 423 -64
2019-02-18 12:02:24 GMT 53.320450 3.198826 36,025 303 424 0
2019-02-18 12:02:20 GMT 53.313858 3.215924 36,025 303 425 -64
2019-02-18 12:02:14 GMT 53.309784 3.226449 36,025 303 424 0
2019-02-18 12:02:10 GMT 53.303467 3.242772 36,025 303 424 0
2019-02-18 12:02:04 GMT 53.299381 3.253326 36,050 304 425 0
2019-02-18 12:02:01 GMT 53.296188 3.261605 36,025 303 425 -64
2019-02-18 12:01:58 GMT 53.291046 3.274895 36,025 303 425 -64
2019-02-18 12:01:54 GMT 53.288910 3.280439 36,050 303 425 -64
2019-02-18 12:01:51 GMT 53.285065 3.290327 36,050 304 425 0
2019-02-18 12:01:48 GMT 53.279362 3.305027 36,050 304 425 0
2019-02-18 12:01:45 GMT 53.279362 3.305027 36,050 303 425 0
2019-02-18 12:01:42 GMT 53.276184 3.313163 36,050 304 425 0
2019-02-18 12:01:39 GMT 53.272984 3.321425 36,050 304 425 0
2019-02-18 12:01:36 GMT 53.268906 3.331918 36,050 304 425 0
2019-02-18 12:01:33 GMT 53.266342 3.338431 36,050 304 425 0
2019-02-18 12:01:30 GMT 53.263206 3.346549 36,050 304 425 0
2019-02-18 12:01:24 GMT 53.257462 3.361267 36,050 304 425 0
2019-02-18 12:01:21 GMT 53.253803 3.370622 36,050 304 425 0
2019-02-18 12:01:18 GMT 53.249336 3.382093 36,050 304 426 0
2019-02-18 12:01:15 GMT 53.246292 3.389910 36,050 304 425 -64
2019-02-18 12:01:12 GMT 53.244415 3.394618 36,050 304 425 0
2019-02-18 12:01:09 GMT 53.239700 3.406731 36,050 304 425 -64
2019-02-18 12:01:04 GMT 53.235489 3.417533 36,025 303 422 0
2019-02-18 12:01:01 GMT 53.232101 3.426322 36,025 304 426 0
2019-02-18 12:00:58 GMT 53.228436 3.435651 36,050 304 419 64
2019-02-18 12:00:55 GMT 53.223358 3.448576 36,025 304 426 64
2019-02-18 12:00:49 GMT 53.218613 3.460774 36,025 304 419 64
2019-02-18 12:00:46 GMT 53.215401 3.468852 36,025 304 426 0
2019-02-18 12:00:43 GMT 53.209671 3.483608 36,025 304 426 0
2019-02-18 12:00:37 GMT 53.205765 3.493572 36,025 304 426 0
2019-02-18 12:00:34 GMT 53.203484 3.499388 36,025 304 426 0
2019-02-18 12:00:30 GMT 53.197998 3.513349 36,025 304 426 0
2019-02-18 12:00:27 GMT 53.195663 3.519313 36,025 304 425 0
2019-02-18 12:00:24 GMT 53.192917 3.526376 36,025 303 422 0
2019-02-18 12:00:19 GMT 53.186966 3.541443 36,025 304 425 0
2019-02-18 12:00:16 GMT 53.180420 3.558236 36,025 303 424 0
2019-02-18 12:00:10 GMT 53.176666 3.567732 36,025 304 424 0
2019-02-18 12:00:07 GMT 53.174606 3.572989 36,025 303 424 0
2019-02-18 12:00:04 GMT 53.170715 3.582955 36,025 303 424 0
2019-02-18 11:59:59 GMT 53.163960 3.600365 36,000 303 424 0
2019-02-18 11:59:56 GMT 53.161633 3.606424 36,000 303 422 0
2019-02-18 11:59:53 GMT 53.159397 3.612159 36,025 303 422 0
2019-02-18 11:59:49 GMT 53.154881 3.623873 36,025 303 422 64
2019-02-18 11:59:46 GMT 53.151112 3.633728 36,000 303 422 64
2019-02-18 11:59:43 GMT 53.148876 3.639544 36,000 303 422 0
2019-02-18 11:59:40 GMT 53.142883 3.655308 36,000 303 421 0
2019-02-18 11:59:34 GMT 53.138866 3.665798 35,975 303 421 64
2019-02-18 11:59:28 GMT 53.133270 3.680420 36,000 303 421 64
2019-02-18 11:59:25 GMT 53.127090 3.696742 36,000 304 419 64
2019-02-18 11:59:19 GMT 53.124016 3.704897 35,975 303 420 64
2019-02-18 11:59:16 GMT 53.120712 3.713621 35,975 303 420 0
2019-02-18 11:59:13 GMT 53.116524 3.724608 35,975 303 419 0
2019-02-18 11:59:08 GMT 53.112534 3.735038 35,975 304 419 64
2019-02-18 11:59:05 GMT 53.108517 3.745449 35,975 303 419 0
2019-02-18 11:59:01 GMT 53.104092 3.756840 35,975 303 419 0
2019-02-18 11:58:58 GMT 53.102695 3.760475 35,975 305 419 64
2019-02-18 11:58:55 GMT 53.099533 3.768467 35,950 304 419 64
2019-02-18 11:58:52 GMT 53.095432 3.778731 35,950 305 419 64
2019-02-18 11:58:49 GMT 53.092163 3.786774 35,950 306 421 0
2019-02-18 11:58:46 GMT 53.089096 3.794022 35,950 306 420 0
2019-02-18 11:58:43 GMT 53.085983 3.801422 35,950 306 421 0
2019-02-18 11:58:40 GMT 53.081608 3.811471 35,950 307 421 0
2019-02-18 11:58:37 GMT 53.077698 3.820343 35,950 307 422 0
2019-02-18 11:58:34 GMT 53.076004 3.824234 35,950 307 421 -64
2019-02-18 11:58:31 GMT 53.072063 3.833130 35,950 307 420 -64
2019-02-18 11:58:27 GMT 53.067627 3.843155 35,950 307 419 -64
2019-02-18 11:58:24 GMT 53.064198 3.850865 35,975 307 419 0
2019-02-18 11:58:20 GMT 53.058563 3.863578 35,975 307 419 0
2019-02-18 11:58:17 GMT 53.055866 3.869699 35,975 307 419 0
2019-02-18 11:58:14 GMT 53.052189 3.878017 35,975 307 419 -64
2019-02-18 11:58:11 GMT 53.048767 3.885651 35,975 307 419 -64
2019-02-18 11:58:07 GMT 53.042179 3.900460 35,975 307 419 0
2019-02-18 11:58:03 GMT 53.035767 3.914948 35,975 307 419 -64
2019-02-18 11:57:57 GMT 53.031845 3.923689 35,975 307 419 -64
2019-02-18 11:57:54 GMT 53.028400 3.931458 35,975 307 419 -64
2019-02-18 11:57:51 GMT 53.025696 3.937531 35,975 307 419 -64
2019-02-18 11:57:48 GMT 53.023277 3.943072 35,975 307 419 -64
2019-02-18 11:57:45 GMT 53.019379 3.951797 35,975 307 419 -64
2019-02-18 11:57:42 GMT 53.016434 3.958452 35,975 307 419 -64
2019-02-18 11:57:39 GMT 53.012245 3.967869 36,000 307 419 0
2019-02-18 11:57:35 GMT 53.004684 3.984833 36,000 307 418 0
2019-02-18 11:57:29 GMT 53.000748 3.993687 36,000 307 418 0
2019-02-18 11:57:26 GMT 52.997360 4.001389 36,000 307 418 0
2019-02-18 11:57:23 GMT 52.993149 4.010773 36,000 307 418 0
2019-02-18 11:57:20 GMT 52.990952 4.015732 36,000 307 419 0
2019-02-18 11:57:17 GMT 52.983383 4.032689 36,000 307 419 -64
2019-02-18 11:57:11 GMT 52.979965 4.040451 36,000 307 419 -64
2019-02-18 11:57:08 GMT 52.976761 4.047699 36,000 307 419 -64
2019-02-18 11:57:05 GMT 52.973145 4.055862 36,000 307 419 0
2019-02-18 11:57:02 GMT 52.968979 4.065247 36,000 307 419 0
2019-02-18 11:56:59 GMT 52.965786 4.072396 36,000 307 419 -64
2019-02-18 11:56:56 GMT 52.962574 4.079538 36,000 307 419 0
2019-02-18 11:56:52 GMT 52.956940 4.092178 36,000 307 419 0
2019-02-18 11:56:49 GMT 52.954742 4.097061 36,000 307 419 0
2019-02-18 11:56:46 GMT 52.950283 4.107003 36,000 307 419 0
2019-02-18 11:56:42 GMT 52.946606 4.115243 36,000 307 419 0
2019-02-18 11:56:39 GMT 52.942657 4.124069 36,000 307 419 -64
2019-02-18 11:56:35 GMT 52.938229 4.133920 36,000 307 419 0
2019-02-18 11:56:31 GMT 52.933319 4.144821 36,000 307 422 0
2019-02-18 11:56:28 GMT 52.930359 4.151420 36,000 307 419 0
2019-02-18 11:56:25 GMT 52.926910 4.159164 36,000 307 419 0
2019-02-18 11:56:22 GMT 52.918770 4.177237 36,000 307 419 0
2019-02-18 11:56:18 GMT 52.918770 4.177237 36,025 307 420 0
2019-02-18 11:56:13 GMT 52.907913 4.201508 36,000 307 420 -128
2019-02-18 11:56:09 GMT 52.907913 4.201508 36,000 307 420 -64
2019-02-18 11:56:06 GMT 52.904522 4.209176 36,000 307 420 -64
2019-02-18 11:56:00 GMT 52.897339 4.225082 36,000 307 420 0
2019-02-18 11:55:57 GMT 52.895351 4.229501 36,000 307 420 0
2019-02-18 11:55:54 GMT 52.890472 4.240494 36,000 307 420 0
2019-02-18 11:55:50 GMT 52.887486 4.247079 36,000 307 421 0
2019-02-18 11:55:47 GMT 52.884018 4.254761 36,000 307 421 -64
2019-02-18 11:55:44 GMT 52.879349 4.265213 36,025 307 421 -128
2019-02-18 11:55:41 GMT 52.876099 4.272385 36,025 307 421 -128
2019-02-18 11:55:37 GMT 52.872391 4.280624 36,025 307 421 -128
2019-02-18 11:55:34 GMT 52.868446 4.289376 36,025 307 421 -64
2019-02-18 11:55:31 GMT 52.864975 4.297104 36,025 307 421 -64
2019-02-18 11:55:28 GMT 52.856342 4.316293 36,025 307 421 0
2019-02-18 11:55:24 GMT 52.856342 4.316293 36,025 307 421 0
2019-02-18 11:55:21 GMT 52.852890 4.324036 36,025 307 421 64
2019-02-18 11:55:18 GMT 52.844925 4.341660 36,025 307 421 64
2019-02-18 11:55:12 GMT 52.842224 4.347610 36,025 307 422 64
2019-02-18 11:55:09 GMT 52.839256 4.354196 36,025 307 423 0
2019-02-18 11:55:06 GMT 52.834972 4.363613 36,025 307 422 0
2019-02-18 11:55:03 GMT 52.832230 4.369655 36,025 307 422 0
2019-02-18 11:55:00 GMT 52.827526 4.380092 36,025 307 422 0
2019-02-18 11:54:57 GMT 52.824554 4.386673 36,000 307 422 0
2019-02-18 11:54:51 GMT 52.817284 4.402693 36,000 307 422 0
2019-02-18 11:54:48 GMT 52.814304 4.409284 36,025 307 422 0
2019-02-18 11:54:45 GMT 52.810535 4.417524 36,000 307 423 0
2019-02-18 11:54:41 GMT 52.806290 4.426880 36,025 307 423 0
2019-02-18 11:54:38 GMT 52.802536 4.435120 36,000 307 423 0
2019-02-18 11:54:35 GMT 52.799103 4.442749 36,000 307 423 0
2019-02-18 11:54:32 GMT 52.795349 4.450989 36,000 307 423 64
2019-02-18 11:54:29 GMT 52.791821 4.458723 36,000 307 423 0
2019-02-18 11:54:26 GMT 52.789120 4.464765 36,000 307 423 0
2019-02-18 11:54:23 GMT 52.785862 4.471985 36,000 307 423 64
2019-02-18 11:54:20 GMT 52.781673 4.481245 36,000 307 423 64
2019-02-18 11:54:17 GMT 52.778412 4.488464 35,975 307 424 64
2019-02-18 11:54:14 GMT 52.774933 4.496078 36,000 307 423 64
2019-02-18 11:54:11 GMT 52.770676 4.505463 35,975 307 423 0
2019-02-18 11:54:07 GMT 52.766418 4.514847 35,975 307 423 0
2019-02-18 11:54:04 GMT 52.762447 4.523621 35,975 307 423 0
2019-02-18 11:54:00 GMT 52.759186 4.530762 35,975 307 423 0
2019-02-18 11:53:57 GMT 52.753922 4.542389 35,975 307 423 0
2019-02-18 11:53:54 GMT 52.751694 4.547241 35,975 307 423 0
2019-02-18 11:53:51 GMT 52.747410 4.556580 35,975 308 423 64
2019-02-18 11:53:48 GMT 52.744198 4.563721 35,975 307 422 64
2019-02-18 11:53:45 GMT 52.737633 4.578003 35,975 307 422 64
2019-02-18 11:53:42 GMT 52.737633 4.578003 35,975 307 423 64
2019-02-18 11:53:39 GMT 52.732883 4.588440 35,950 307 423 64
2019-02-18 11:53:36 GMT 52.729160 4.596680 35,950 307 423 0
2019-02-18 11:53:33 GMT 52.722134 4.612061 35,950 307 423 0
2019-02-18 11:53:30 GMT 52.722134 4.612061 35,975 308 423 -128
2019-02-18 11:53:24 GMT 52.716339 4.624786 35,975 307 424 -64
2019-02-18 11:53:21 GMT 52.713100 4.631836 35,975 308 423 -128
2019-02-18 11:53:18 GMT 52.708832 4.641190 35,975 308 423 -128
2019-02-18 11:53:15 GMT 52.704395 4.650984 35,975 308 423 -128
2019-02-18 11:53:12 GMT 52.701599 4.657059 35,975 308 423 -128
2019-02-18 11:53:09 GMT 52.693829 4.673976 36,000 308 423 0
2019-02-18 11:53:06 GMT 52.693829 4.673976 36,000 308 423 -128
2019-02-18 11:53:03 GMT 52.690796 4.680557 36,000 308 423 -128
2019-02-18 11:53:00 GMT 52.688049 4.686661 36,000 308 423 -128
2019-02-18 11:52:57 GMT 52.681046 4.701920 36,025 308 423 0
2019-02-18 11:52:51 GMT 52.677246 4.710159 36,025 308 423 -64
2019-02-18 11:52:48 GMT 52.673996 4.717331 36,025 308 423 -64
2019-02-18 11:52:45 GMT 52.668968 4.728202 36,025 308 423 -64
2019-02-18 11:52:42 GMT 52.665436 4.735870 36,025 308 423 0
2019-02-18 11:52:39 GMT 52.661682 4.744110 36,025 308 423 0
2019-02-18 11:52:36 GMT 52.659191 4.749547 36,025 308 423 0
2019-02-18 11:52:33 GMT 52.655136 4.758377 36,025 307 424 0
2019-02-18 11:52:30 GMT 52.651653 4.765948 36,000 307 424 0
2019-02-18 11:52:24 GMT 52.645660 4.779129 36,000 307 424 -64
2019-02-18 11:52:21 GMT 52.641174 4.788895 36,025 307 424 -64
2019-02-18 11:52:18 GMT 52.637360 4.797259 36,025 308 424 -64
2019-02-18 11:52:15 GMT 52.633308 4.806048 36,025 308 424 -64
2019-02-18 11:52:11 GMT 52.629818 4.813660 36,025 308 424 0
2019-02-18 11:52:08 GMT 52.625721 4.822527 36,025 308 424 0
2019-02-18 11:52:05 GMT 52.621811 4.831085 36,025 308 424 0
2019-02-18 11:52:02 GMT 52.619705 4.835663 36,025 308 424 0
2019-02-18 11:51:59 GMT 52.613945 4.848110 36,025 308 424 0
2019-02-18 11:51:56 GMT 52.612106 4.852066 36,025 308 425 0
2019-02-18 11:51:53 GMT 52.608078 4.860822 36,025 308 425 0
2019-02-18 11:51:50 GMT 52.606075 4.865295 36,025 308 425 0
2019-02-18 11:51:47 GMT 52.597698 4.883344 36,025 308 426 0
2019-02-18 11:51:44 GMT 52.597698 4.883344 36,025 308 425 0
2019-02-18 11:51:41 GMT 52.594952 4.889308 36,025 308 425 0
2019-02-18 11:51:38 GMT 52.590866 4.898148 36,025 308 425 0
2019-02-18 11:51:35 GMT 52.588394 4.903564 36,025 308 426 0
2019-02-18 11:51:32 GMT 52.583313 4.914551 36,025 308 426 0
2019-02-18 11:51:29 GMT 52.579823 4.922189 36,025 308 426 -64
2019-02-18 11:51:26 GMT 52.574753 4.933243 36,000 308 425 64
2019-02-18 11:51:23 GMT 52.572464 4.938126 36,025 308 425 64
2019-02-18 11:51:20 GMT 52.569946 4.943619 36,025 308 425 64
2019-02-18 11:51:17 GMT 52.563110 4.958365 36,000 308 426 -64
2019-02-18 11:51:14 GMT 52.559555 4.966125 36,000 308 426 64
2019-02-18 11:51:11 GMT 52.559555 4.966125 36,000 308 426 128
2019-02-18 11:51:08 GMT 52.555988 4.973825 36,000 308 426 128
2019-02-18 11:51:04 GMT 52.551407 4.983673 36,000 308 426 64
2019-02-18 11:51:01 GMT 52.546352 4.994542 35,975 308 426 64
2019-02-18 11:50:58 GMT 52.542534 5.002781 35,975 308 425 0
2019-02-18 11:50:55 GMT 52.537766 5.013046 35,975 308 426 0
2019-02-18 11:50:52 GMT 52.536118 5.016556 35,975 308 426 0
2019-02-18 11:50:49 GMT 52.533085 5.023106 35,975 308 426 0
2019-02-18 11:50:46 GMT 52.530029 5.029678 35,975 308 426 0
2019-02-18 11:50:43 GMT 52.524937 5.040606 35,975 308 426 0
2019-02-18 11:50:40 GMT 52.522888 5.045013 35,975 308 426 0
2019-02-18 11:50:37 GMT 52.518326 5.054810 35,975 308 426 0
2019-02-18 11:50:34 GMT 52.514740 5.062561 35,975 308 426 0
2019-02-18 11:50:31 GMT 52.511204 5.070112 35,975 308 426 0
2019-02-18 11:50:25 GMT 52.504082 5.085571 35,975 308 426 -64
2019-02-18 11:50:22 GMT 52.499287 5.095930 35,975 308 426 -64
2019-02-18 11:50:19 GMT 52.496979 5.100861 35,975 308 426 -64
2019-02-18 11:50:16 GMT 52.493179 5.109100 35,975 308 426 -64
2019-02-18 11:50:13 GMT 52.488693 5.118790 36,000 308 426 0
2019-02-18 11:50:09 GMT 52.485321 5.126064 35,975 308 426 0
2019-02-18 11:50:06 GMT 52.481003 5.135422 35,975 308 426 0
2019-02-18 11:50:03 GMT 52.477406 5.143093 36,000 308 426 -64
2019-02-18 11:50:00 GMT 52.474380 5.149684 35,975 308 426 -64
2019-02-18 11:49:57 GMT 52.470016 5.158997 36,000 308 426 -64
2019-02-18 11:49:53 GMT 52.465534 5.168753 36,000 308 426 -64
2019-02-18 11:49:50 GMT 52.461960 5.176468 36,000 308 426 -64
2019-02-18 11:49:47 GMT 52.459442 5.181961 36,000 308 426 -64
2019-02-18 11:49:44 GMT 52.455853 5.189628 36,000 308 426 -64
2019-02-18 11:49:41 GMT 52.451065 5.199890 36,000 308 426 -64
2019-02-18 11:49:38 GMT 52.442413 5.218430 36,000 308 426 0
2019-02-18 11:49:35 GMT 52.442413 5.218430 36,000 308 426 -64
2019-02-18 11:49:31 GMT 52.440025 5.223607 36,000 308 426 -64
2019-02-18 11:49:28 GMT 52.436722 5.230669 36,025 308 427 -64
2019-02-18 11:49:25 GMT 52.431877 5.241028 36,025 308 427 -64
2019-02-18 11:49:22 GMT 52.429825 5.245438 36,025 308 427 -64
2019-02-18 11:49:19 GMT 52.426247 5.253113 36,025 308 427 0
2019-02-18 11:49:16 GMT 52.421917 5.262294 36,025 308 427 0
2019-02-18 11:49:13 GMT 52.418839 5.268860 36,025 308 427 0
2019-02-18 11:49:10 GMT 52.413166 5.280971 36,025 308 427 0
2019-02-18 11:49:07 GMT 52.411148 5.285263 36,025 308 428 64
2019-02-18 11:49:04 GMT 52.406754 5.294571 36,025 308 427 64
2019-02-18 11:49:01 GMT 52.403156 5.302237 36,025 308 427 64
2019-02-18 11:48:58 GMT 52.399803 5.309300 36,025 308 427 64
2019-02-18 11:48:54 GMT 52.393433 5.322800 36,025 308 428 64
2019-02-18 11:48:51 GMT 52.392124 5.325701 36,000 308 428 64
2019-02-18 11:48:48 GMT 52.388489 5.333405 36,000 308 428 0
2019-02-18 11:48:45 GMT 52.384907 5.341003 36,000 308 429 0
2019-02-18 11:48:41 GMT 52.379791 5.352020 36,000 308 429 -64
2019-02-18 11:48:38 GMT 52.376450 5.359039 36,000 308 429 0
2019-02-18 11:48:35 GMT 52.372849 5.366743 36,000 308 429 0
2019-02-18 11:48:32 GMT 52.368755 5.375532 36,000 308 429 0
2019-02-18 11:48:29 GMT 52.365372 5.382690 36,000 308 429 -64
2019-02-18 11:48:23 GMT 52.358185 5.397949 36,000 308 429 0
2019-02-18 11:48:20 GMT 52.354294 5.406189 36,000 308 429 -64
2019-02-18 11:48:16 GMT 52.349396 5.416565 36,025 308 429 -64
2019-02-18 11:48:13 GMT 52.345757 5.424186 36,025 308 429 0
2019-02-18 11:48:10 GMT 52.338776 5.438919 36,000 308 429 64
2019-02-18 11:48:07 GMT 52.338776 5.438919 36,000 308 429 64
2019-02-18 11:48:04 GMT 52.335144 5.446629 36,000 308 429 64
2019-02-18 11:48:01 GMT 52.331039 5.455322 36,000 308 429 64
2019-02-18 11:47:58 GMT 52.327652 5.462494 36,000 308 429 64
2019-02-18 11:47:55 GMT 52.324295 5.469543 36,000 306 428 0
2019-02-18 11:47:52 GMT 52.320015 5.478882 36,000 307 428 64
2019-02-18 11:47:49 GMT 52.317734 5.483826 35,975 303 425 -64
2019-02-18 11:47:46 GMT 52.312752 5.495754 36,000 303 426 -64
2019-02-18 11:47:43 GMT 52.311356 5.499115 36,000 301 424 -64
2019-02-18 11:47:39 GMT 52.305771 5.513724 36,000 301 424 -64
2019-02-18 11:47:36 GMT 52.302979 5.521317 36,000 301 424 0
2019-02-18 11:47:33 GMT 52.299271 5.531616 36,000 301 424 0
2019-02-18 11:47:30 GMT 52.297295 5.537188 36,000 301 424 0
2019-02-18 11:47:27 GMT 52.294327 5.545425 36,000 301 424 0
2019-02-18 11:47:24 GMT 52.290966 5.554766 36,000 301 424 0
2019-02-18 11:47:21 GMT 52.288834 5.560608 36,000 301 424 -64
2019-02-18 11:47:18 GMT 52.285053 5.571167 36,000 301 423 64
2019-02-18 11:47:15 GMT 52.282059 5.579453 36,000 301 423 64
2019-02-18 11:47:11 GMT 52.276611 5.594482 35,975 301 424 0
2019-02-18 11:47:08 GMT 52.275043 5.598790 36,000 301 424 -64
2019-02-18 11:47:05 GMT 52.273361 5.603485 36,000 301 424 -64
2019-02-18 11:47:02 GMT 52.269505 5.614014 36,000 301 424 -64
2019-02-18 11:46:59 GMT 52.265919 5.623980 36,000 301 424 0
2019-02-18 11:46:56 GMT 52.263592 5.630415 36,000 301 424 -64
2019-02-18 11:46:53 GMT 52.259590 5.641558 36,000 301 424 0
2019-02-18 11:46:50 GMT 52.256607 5.649796 36,000 301 424 0
2019-02-18 11:46:47 GMT 52.255539 5.652780 36,000 301 424 0
2019-02-18 11:46:44 GMT 52.251953 5.662667 36,000 301 424 0
2019-02-18 11:46:41 GMT 52.248791 5.671456 36,000 301 424 0
2019-02-18 11:46:38 GMT 52.244797 5.682449 36,000 301 423 -64
2019-02-18 11:46:35 GMT 52.242413 5.689035 36,000 301 424 -64
2019-02-18 11:46:32 GMT 52.236080 5.706613 36,000 301 423 -64
2019-02-18 11:46:29 GMT 52.236080 5.706613 36,000 301 424 -64
2019-02-18 11:46:26 GMT 52.233707 5.713048 36,000 301 424 -64
2019-02-18 11:46:23 GMT 52.231377 5.719561 36,000 301 424 -64
2019-02-18 11:46:20 GMT 52.227173 5.731201 36,000 301 424 -64
2019-02-18 11:46:17 GMT 52.224163 5.739415 36,000 301 424 -64
2019-02-18 11:46:11 GMT 52.219254 5.752945 36,025 301 424 -64
2019-02-18 11:46:08 GMT 52.216095 5.761719 36,025 301 424 -64
2019-02-18 11:46:05 GMT 52.212479 5.771637 36,025 301 424 -64
2019-02-18 11:46:02 GMT 52.209274 5.780411 36,025 301 424 0
2019-02-18 11:45:59 GMT 52.203552 5.796204 36,025 301 426 0
2019-02-18 11:45:56 GMT 52.200119 5.805664 36,025 301 424 -64
2019-02-18 11:45:52 GMT 52.200119 5.805664 36,025 301 424 -64
2019-02-18 11:45:49 GMT 52.197350 5.813259 36,025 301 424 -64
2019-02-18 11:45:46 GMT 52.193710 5.823212 36,025 301 424 -64
2019-02-18 11:45:43 GMT 52.190971 5.830758 36,025 301 424 0
2019-02-18 11:45:40 GMT 52.187759 5.839547 36,025 301 425 0
2019-02-18 11:45:37 GMT 52.184738 5.847778 36,025 301 424 0
2019-02-18 11:45:34 GMT 52.181534 5.856552 36,025 301 424 0
2019-02-18 11:45:31 GMT 52.178787 5.864105 36,025 301 424 0
2019-02-18 11:45:28 GMT 52.175125 5.874100 36,025 301 424 0
2019-02-18 11:45:25 GMT 52.171978 5.882629 36,025 301 424 0
2019-02-18 11:45:22 GMT 52.170628 5.886396 36,025 301 425 0
2019-02-18 11:45:19 GMT 52.167042 5.896284 36,025 301 425 0
2019-02-18 11:45:16 GMT 52.163364 5.906250 36,025 301 426 0
2019-02-18 11:45:12 GMT 52.158615 5.919198 36,025 301 426 0
2019-02-18 11:45:09 GMT 52.155964 5.926575 36,025 301 426 0
2019-02-18 11:45:06 GMT 52.153309 5.933794 36,025 301 426 0
2019-02-18 11:45:03 GMT 52.150726 5.940781 36,025 301 425 0
2019-02-18 11:45:00 GMT 52.147522 5.949554 36,025 301 425 0
2019-02-18 11:44:57 GMT 52.144093 5.958906 36,025 301 425 0
2019-02-18 11:44:54 GMT 52.141937 5.964661 36,025 301 425 0
2019-02-18 11:44:51 GMT 52.138088 5.975228 36,000 301 425 0
2019-02-18 11:44:48 GMT 52.135712 5.981663 36,025 301 425 0
2019-02-18 11:44:45 GMT 52.132034 5.991629 36,000 301 425 0
2019-02-18 11:44:42 GMT 52.128616 6.000977 36,025 301 425 0
2019-02-18 11:44:39 GMT 52.126682 6.006226 36,000 301 425 0
2019-02-18 11:44:36 GMT 52.123936 6.013759 36,000 301 425 0
2019-02-18 11:44:33 GMT 52.120026 6.024353 36,000 301 423 0
2019-02-18 11:44:30 GMT 52.117092 6.032514 36,000 301 424 0
2019-02-18 11:44:27 GMT 52.115135 6.037772 36,000 301 424 0
2019-02-18 11:44:24 GMT 52.111267 6.048279 36,000 301 425 0
2019-02-18 11:44:21 GMT 52.107876 6.057547 36,000 301 425 0
2019-02-18 11:44:18 GMT 52.105083 6.065238 36,000 301 425 0
2019-02-18 11:44:15 GMT 52.103127 6.070417 36,000 301 425 0
2019-02-18 11:44:12 GMT 52.098862 6.082077 36,000 301 425 0
2019-02-18 11:44:09 GMT 52.096481 6.088486 36,025 301 425 0
2019-02-18 11:44:06 GMT 52.094147 6.094971 36,025 301 425 0
2019-02-18 11:44:02 GMT 52.089249 6.108246 36,025 301 424 0
2019-02-18 11:43:59 GMT 52.086411 6.115875 36,025 301 423 0
2019-02-18 11:43:55 GMT 52.081478 6.129351 36,025 301 423 64
2019-02-18 11:43:52 GMT 52.078503 6.137434 36,000 301 423 64
2019-02-18 11:43:49 GMT 52.075752 6.144889 36,000 301 423 64
2019-02-18 11:43:46 GMT 52.073380 6.151324 36,000 301 424 0
2019-02-18 11:43:43 GMT 52.068512 6.164551 36,000 301 424 0
2019-02-18 11:43:40 GMT 52.067596 6.167068 36,025 302 422 0
2019-02-18 11:43:37 GMT 52.063934 6.176987 36,000 301 423 -64
2019-02-18 11:43:34 GMT 52.062012 6.182175 36,025 302 422 0
2019-02-18 11:43:31 GMT 52.058949 6.190325 36,025 302 423 0
2019-02-18 11:43:28 GMT 52.055511 6.199570 36,000 302 423 0
2019-02-18 11:43:25 GMT 52.052307 6.208267 36,000 302 423 0
2019-02-18 11:43:22 GMT 52.048847 6.217477 36,000 302 423 64
2019-02-18 11:43:19 GMT 52.046082 6.224976 36,000 302 423 64
2019-02-18 11:43:16 GMT 52.042793 6.233721 36,000 302 423 64
2019-02-18 11:43:13 GMT 52.039818 6.241804 36,000 302 422 0
2019-02-18 11:43:10 GMT 52.036377 6.250992 36,000 302 423 0
2019-02-18 11:43:07 GMT 52.030746 6.266098 36,000 302 423 0
2019-02-18 11:43:04 GMT 52.030746 6.266098 36,000 302 423 0
2019-02-18 11:43:01 GMT 52.026875 6.276489 36,000 302 423 0
2019-02-18 11:42:58 GMT 52.025116 6.281128 36,000 302 423 0
2019-02-18 11:42:55 GMT 52.022324 6.288605 36,000 302 422 0
2019-02-18 11:42:52 GMT 52.018913 6.297756 36,000 302 423 64
2019-02-18 11:42:48 GMT 52.011139 6.318551 36,000 302 423 0
2019-02-18 11:42:45 GMT 52.011139 6.318551 36,000 302 422 0
2019-02-18 11:42:41 GMT 52.007462 6.328439 36,000 302 422 0
2019-02-18 11:42:38 GMT 52.004017 6.337777 36,000 302 422 0
2019-02-18 11:42:35 GMT 51.997826 6.354414 36,000 302 422 0
2019-02-18 11:42:32 GMT 51.995869 6.359593 36,000 302 422 0
2019-02-18 11:42:29 GMT 51.992477 6.368790 36,000 301 423 0
2019-02-18 11:42:26 GMT 51.992477 6.368790 36,000 302 422 0
2019-02-18 11:42:23 GMT 51.990097 6.375198 36,000 302 422 0
2019-02-18 11:42:17 GMT 51.982555 6.395455 36,000 302 422 0
2019-02-18 11:42:14 GMT 51.979568 6.403427 36,000 302 422 0
2019-02-18 11:42:11 GMT 51.976551 6.411543 36,000 302 422 0
2019-02-18 11:42:07 GMT 51.971897 6.424098 36,000 302 422 0
2019-02-18 11:42:04 GMT 51.970127 6.428885 36,000 302 422 0
2019-02-18 11:42:01 GMT 51.967754 6.435242 36,000 302 422 0
2019-02-18 11:41:58 GMT 51.964783 6.443253 35,975 302 422 0
2019-02-18 11:41:55 GMT 51.958534 6.460039 35,975 302 422 0
2019-02-18 11:41:52 GMT 51.958534 6.460039 36,000 302 422 0
2019-02-18 11:41:49 GMT 51.955929 6.466945 35,975 302 422 0
2019-02-18 11:41:46 GMT 51.951645 6.478481 35,975 302 422 0
2019-02-18 11:41:43 GMT 51.945419 6.495056 35,975 302 422 0
2019-02-18 11:41:40 GMT 51.945419 6.495056 35,975 302 422 0
2019-02-18 11:41:37 GMT 51.943451 6.500218 35,975 302 422 0
2019-02-18 11:41:34 GMT 51.939217 6.511597 35,975 302 422 0
2019-02-18 11:41:31 GMT 51.937225 6.516953 35,975 302 422 0
2019-02-18 11:41:28 GMT 51.934433 6.524429 35,975 302 422 0
2019-02-18 11:41:25 GMT 51.931396 6.532471 35,975 302 422 0
2019-02-18 11:41:22 GMT 51.927719 6.542280 35,975 302 422 0
2019-02-18 11:41:19 GMT 51.925095 6.549149 35,975 302 422 0
2019-02-18 11:41:16 GMT 51.922504 6.556091 35,975 302 422 0
2019-02-18 11:41:13 GMT 51.918407 6.566921 35,975 302 422 0
2019-02-18 11:41:09 GMT 51.915150 6.575553 35,975 302 423 0
2019-02-18 11:41:06 GMT 51.911938 6.584185 35,975 302 422 0
2019-02-18 11:41:03 GMT 51.908890 6.592255 35,975 302 423 0
2019-02-18 11:41:00 GMT 51.905884 6.600272 35,975 302 422 0
2019-02-18 11:40:57 GMT 51.902893 6.608353 35,975 302 422 0
2019-02-18 11:40:54 GMT 51.898773 6.619263 35,975 302 422 0
2019-02-18 11:40:51 GMT 51.895737 6.627345 35,975 302 422 0
2019-02-18 11:40:47 GMT 51.891083 6.639786 35,975 302 422 0
2019-02-18 11:40:44 GMT 51.889481 6.644056 35,975 302 422 0
2019-02-18 11:40:41 GMT 51.886890 6.650925 35,975 302 422 0
2019-02-18 11:40:38 GMT 51.880234 6.668701 35,975 302 422 0
2019-02-18 11:40:32 GMT 51.877163 6.676788 35,975 302 422 0
2019-02-18 11:40:29 GMT 51.874786 6.683121 35,975 302 422 0
2019-02-18 11:40:26 GMT 51.871582 6.691639 35,975 302 422 0
2019-02-18 11:40:23 GMT 51.868317 6.700363 35,975 302 422 0
2019-02-18 11:40:20 GMT 51.865494 6.707821 35,975 302 423 0
2019-02-18 11:40:17 GMT 51.862499 6.715775 35,975 302 422 0
2019-02-18 11:40:14 GMT 51.858215 6.727066 35,975 302 423 0
2019-02-18 11:40:11 GMT 51.856400 6.731873 35,975 302 424 -64
2019-02-18 11:40:08 GMT 51.853363 6.739890 35,975 302 423 0
2019-02-18 11:40:05 GMT 51.850765 6.746750 35,975 302 423 -64
2019-02-18 11:40:02 GMT 51.847507 6.755371 35,975 302 423 -64
2019-02-18 11:39:59 GMT 51.844204 6.763992 35,975 302 424 -64
2019-02-18 11:39:56 GMT 51.840942 6.772614 35,975 302 423 0
2019-02-18 11:39:53 GMT 51.837219 6.782379 35,975 302 423 -64
2019-02-18 11:39:50 GMT 51.835052 6.788066 35,975 302 423 0
2019-02-18 11:39:47 GMT 51.830475 6.800092 35,975 302 423 -64
2019-02-18 11:39:44 GMT 51.828281 6.805954 35,975 302 423 0
2019-02-18 11:39:41 GMT 51.824799 6.815087 35,975 302 423 0
2019-02-18 11:39:38 GMT 51.822838 6.820221 35,975 302 424 -64
2019-02-18 11:39:35 GMT 51.819530 6.828842 35,975 302 423 0
2019-02-18 11:39:32 GMT 51.812778 6.846695 35,975 302 424 -64
2019-02-18 11:39:29 GMT 51.812778 6.846695 35,975 302 424 -64
2019-02-18 11:39:25 GMT 51.809521 6.855316 36,000 302 427 64
2019-02-18 11:39:22 GMT 51.806259 6.863857 36,000 302 424 -64
2019-02-18 11:39:19 GMT 51.803192 6.871948 36,000 302 424 -64
2019-02-18 11:39:16 GMT 51.799759 6.881079 36,000 302 427 64
2019-02-18 11:39:13 GMT 51.797333 6.887463 36,000 302 424 -64
2019-02-18 11:39:10 GMT 51.793213 6.898375 36,000 302 424 -64
2019-02-18 11:39:07 GMT 51.790329 6.905872 36,000 302 424 -64
2019-02-18 11:39:04 GMT 51.787949 6.912182 36,000 302 425 0
2019-02-18 11:39:01 GMT 51.781590 6.928864 36,000 302 425 -64
2019-02-18 11:38:58 GMT 51.781590 6.928864 36,000 302 426 -64
2019-02-18 11:38:54 GMT 51.776642 6.941949 36,025 302 426 -64
2019-02-18 11:38:51 GMT 51.773941 6.949075 36,025 302 426 -64
2019-02-18 11:38:47 GMT 51.770645 6.957686 36,025 302 426 -64
2019-02-18 11:38:44 GMT 51.766880 6.967545 36,000 302 426 -64
2019-02-18 11:38:39 GMT 51.763000 6.977803 36,025 302 426 -64
2019-02-18 11:38:36 GMT 51.759895 6.985931 36,025 302 427 0
2019-02-18 11:38:33 GMT 51.752403 7.005463 36,025 302 427 0
2019-02-18 11:38:30 GMT 51.752403 7.005463 36,025 302 426 -64
2019-02-18 11:38:27 GMT 51.749981 7.011871 36,025 302 426 -64
2019-02-18 11:38:24 GMT 51.746429 7.021006 36,025 302 427 0
2019-02-18 11:38:21 GMT 51.743744 7.028046 36,025 302 427 0
2019-02-18 11:38:18 GMT 51.740479 7.036595 36,025 302 427 0
2019-02-18 11:38:15 GMT 51.737133 7.045364 36,025 302 428 64
2019-02-18 11:38:09 GMT 51.730476 7.062683 36,025 302 427 0
2019-02-18 11:38:06 GMT 51.726799 7.072220 36,025 302 427 64
2019-02-18 11:38:03 GMT 51.724274 7.078758 36,025 302 429 0
2019-02-18 11:38:00 GMT 51.721848 7.085068 36,025 302 429 0
2019-02-18 11:37:57 GMT 51.715393 7.101898 36,025 302 428 0
2019-02-18 11:37:54 GMT 51.712280 7.110010 36,025 302 429 0
2019-02-18 11:37:51 GMT 51.712280 7.110010 36,025 302 428 0
2019-02-18 11:37:48 GMT 51.709202 7.118073 36,025 302 430 -64
2019-02-18 11:37:45 GMT 51.705231 7.128494 36,025 302 429 -64
2019-02-18 11:37:42 GMT 51.702545 7.135391 36,025 302 429 -64
2019-02-18 11:37:39 GMT 51.700333 7.141262 36,025 302 430 -64
2019-02-18 11:37:35 GMT 51.696121 7.152248 36,025 302 429 -64
2019-02-18 11:37:32 GMT 51.693237 7.159745 36,025 302 429 0
2019-02-18 11:37:29 GMT 51.690117 7.167892 36,025 302 428 0
2019-02-18 11:37:26 GMT 51.687183 7.175446 36,025 302 429 0
2019-02-18 11:37:23 GMT 51.683212 7.185801 36,025 302 429 0
2019-02-18 11:37:20 GMT 51.679871 7.194412 36,025 302 429 0
2019-02-18 11:37:16 GMT 51.675613 7.205472 36,025 302 429 -64
2019-02-18 11:37:13 GMT 51.669167 7.222214 36,050 302 429 -64
2019-02-18 11:37:10 GMT 51.669167 7.222214 36,050 302 429 -64
2019-02-18 11:37:07 GMT 51.666000 7.230340 36,050 302 430 0
2019-02-18 11:37:04 GMT 51.663803 7.236056 36,050 302 429 -64
2019-02-18 11:37:01 GMT 51.656643 7.254639 36,050 302 429 0
2019-02-18 11:36:58 GMT 51.656643 7.254639 36,050 302 429 0
2019-02-18 11:36:55 GMT 51.653091 7.263819 36,050 302 429 64
2019-02-18 11:36:52 GMT 51.647461 7.278368 36,050 302 429 64
2019-02-18 11:36:49 GMT 51.647461 7.278368 36,050 302 430 0
2019-02-18 11:36:46 GMT 51.645241 7.284088 36,050 302 430 0
2019-02-18 11:36:43 GMT 51.640778 7.295738 36,050 302 430 64
2019-02-18 11:36:40 GMT 51.638069 7.302704 36,050 302 430 64
2019-02-18 11:36:37 GMT 51.634506 7.311921 36,025 302 430 0
2019-02-18 11:36:34 GMT 51.632034 7.318305 36,025 302 430 0
2019-02-18 11:36:31 GMT 51.628281 7.328104 36,025 302 430 0
2019-02-18 11:36:28 GMT 51.625809 7.334488 36,025 302 430 0
2019-02-18 11:36:25 GMT 51.622242 7.343750 36,025 302 430 0
2019-02-18 11:36:22 GMT 51.619995 7.349557 36,025 302 430 0
2019-02-18 11:36:19 GMT 51.616425 7.358780 36,025 302 430 0
2019-02-18 11:36:16 GMT 51.613071 7.367477 36,025 302 430 0
2019-02-18 11:36:13 GMT 51.606628 7.384371 36,025 302 430 0
2019-02-18 11:36:10 GMT 51.606628 7.384371 36,025 302 430 0
2019-02-18 11:36:07 GMT 51.602463 7.395061 36,025 302 430 0
2019-02-18 11:36:02 GMT 51.598572 7.405156 36,025 302 430 64
2019-02-18 11:35:59 GMT 51.594818 7.414955 36,025 302 430 64
2019-02-18 11:35:56 GMT 51.592346 7.421339 36,000 303 429 0
2019-02-18 11:35:53 GMT 51.589191 7.429504 36,025 302 430 0
2019-02-18 11:35:50 GMT 51.586304 7.436981 36,000 302 430 0
2019-02-18 11:35:47 GMT 51.582485 7.446823 36,000 302 429 0
2019-02-18 11:35:43 GMT 51.578251 7.457733 36,000 302 430 0
2019-02-18 11:35:37 GMT 51.572205 7.473375 36,000 303 429 64
2019-02-18 11:35:34 GMT 51.568661 7.482529 36,000 302 430 64
2019-02-18 11:35:31 GMT 51.565018 7.491785 36,000 302 430 64
2019-02-18 11:35:28 GMT 51.562134 7.499282 36,000 303 429 64
2019-02-18 11:35:25 GMT 51.559204 7.506706 36,000 303 429 64
2019-02-18 11:35:21 GMT 51.554489 7.518805 35,975 303 429 128
2019-02-18 11:35:18 GMT 51.552704 7.523408 35,975 303 429 64
2019-02-18 11:35:15 GMT 51.548630 7.533800 35,975 303 429 64
2019-02-18 11:35:12 GMT 51.545479 7.541809 35,975 303 429 128
2019-02-18 11:35:06 GMT 51.538727 7.559052 35,950 303 429 64
2019-02-18 11:35:03 GMT 51.535469 7.567444 35,950 303 429 64
2019-02-18 11:35:00 GMT 51.533340 7.572846 35,950 303 429 -64
2019-02-18 11:34:57 GMT 51.528858 7.584229 35,950 303 429 0
2019-02-18 11:34:54 GMT 51.525970 7.591553 35,950 303 429 0
2019-02-18 11:34:51 GMT 51.522945 7.599106 35,950 303 429 -64
2019-02-18 11:34:48 GMT 51.520061 7.606583 35,950 303 429 -64
2019-02-18 11:34:44 GMT 51.516403 7.615752 35,975 303 428 -64
2019-02-18 11:34:41 GMT 51.513977 7.621988 35,975 303 427 -128
2019-02-18 11:34:38 GMT 51.509079 7.634459 35,975 303 427 -128
2019-02-18 11:34:35 GMT 51.505630 7.643204 35,975 303 427 0
2019-02-18 11:34:31 GMT 51.499191 7.659698 36,000 303 427 0
2019-02-18 11:34:28 GMT 51.499191 7.659698 35,975 303 426 0
2019-02-18 11:34:25 GMT 51.492920 7.675732 35,975 303 426 64
2019-02-18 11:34:22 GMT 51.492920 7.675732 35,975 303 425 64
2019-02-18 11:34:19 GMT 51.489799 7.683640 35,975 303 426 64
2019-02-18 11:34:16 GMT 51.486870 7.691116 35,975 303 426 0
2019-02-18 11:34:13 GMT 51.483765 7.699041 35,975 303 426 64
2019-02-18 11:34:10 GMT 51.480377 7.707577 35,975 303 426 0
2019-02-18 11:34:07 GMT 51.478115 7.713318 35,950 302 426 64
2019-02-18 11:34:04 GMT 51.470993 7.731476 35,975 303 427 64
2019-02-18 11:34:01 GMT 51.468060 7.738953 35,975 302 426 64
2019-02-18 11:33:55 GMT 51.464951 7.746994 35,950 302 426 64
2019-02-18 11:33:52 GMT 51.461609 7.755531 35,950 302 426 0
2019-02-18 11:33:49 GMT 51.458332 7.763977 35,950 302 426 0
2019-02-18 11:33:46 GMT 51.456329 7.769089 35,950 302 426 0
2019-02-18 11:33:43 GMT 51.451859 7.780547 35,950 302 426 -64
2019-02-18 11:33:40 GMT 51.448742 7.788544 35,950 302 426 -128
2019-02-18 11:33:37 GMT 51.445221 7.797695 35,950 302 426 -128
2019-02-18 11:33:34 GMT 51.442154 7.805489 35,950 302 426 -128
2019-02-18 11:33:31 GMT 51.437199 7.818146 35,975 303 425 0
2019-02-18 11:33:25 GMT 51.433182 7.828427 36,000 303 425 0
2019-02-18 11:33:22 GMT 51.430073 7.836380 35,975 303 425 0
2019-02-18 11:33:19 GMT 51.427608 7.842560 35,975 303 426 0
2019-02-18 11:33:16 GMT 51.424023 7.851639 35,975 303 425 -64
2019-02-18 11:33:13 GMT 51.421783 7.857303 35,975 303 425 -64
2019-02-18 11:33:10 GMT 51.417755 7.867473 35,975 303 425 0
2019-02-18 11:33:04 GMT 51.409149 7.889000 35,975 303 426 -64
2019-02-18 11:32:58 GMT 51.404617 7.900283 35,975 303 426 -64
2019-02-18 11:32:54 GMT 51.397385 7.918322 36,000 303 428 -64
2019-02-18 11:32:51 GMT 51.397385 7.918322 36,000 303 426 0
2019-02-18 11:32:47 GMT 51.393997 7.926784 36,000 303 425 0
2019-02-18 11:32:44 GMT 51.387711 7.942581 36,000 303 426 -64
2019-02-18 11:32:38 GMT 51.384293 7.951207 36,000 303 426 0
2019-02-18 11:32:35 GMT 51.380962 7.959595 36,000 303 426 0
2019-02-18 11:32:32 GMT 51.377563 7.968063 36,000 303 427 -64
2019-02-18 11:32:28 GMT 51.373512 7.978287 36,000 303 426 0
2019-02-18 11:32:25 GMT 51.370789 7.985205 36,000 303 426 -64
2019-02-18 11:32:22 GMT 51.367630 7.992999 36,000 303 428 -64
2019-02-18 11:32:19 GMT 51.360855 8.009998 36,000 303 427 -64
2019-02-18 11:32:13 GMT 51.357925 8.017347 36,050 303 428 -64
2019-02-18 11:32:10 GMT 51.354752 8.025360 36,025 303 428 -64
2019-02-18 11:32:07 GMT 51.351822 8.032684 36,025 303 428 -64
2019-02-18 11:32:04 GMT 51.347763 8.042883 36,025 303 428 -64
2019-02-18 11:32:01 GMT 51.345703 8.048005 36,025 303 428 -64
2019-02-18 11:31:58 GMT 51.341400 8.058843 36,025 303 428 -64
2019-02-18 11:31:52 GMT 51.335541 8.073541 36,025 303 428 -64
2019-02-18 11:31:48 GMT 51.331013 8.084946 36,050 303 428 0
2019-02-18 11:31:45 GMT 51.327805 8.092915 36,025 303 430 0
2019-02-18 11:31:42 GMT 51.323608 8.103485 36,050 303 428 0
2019-02-18 11:31:37 GMT 51.319698 8.113403 36,025 303 429 0
2019-02-18 11:31:34 GMT 51.316086 8.122460 36,050 303 429 0
2019-02-18 11:31:31 GMT 51.313183 8.129883 36,050 303 429 0
2019-02-18 11:31:28 GMT 51.306850 8.145905 36,025 303 429 0
2019-02-18 11:31:25 GMT 51.304428 8.152084 36,025 303 429 0
2019-02-18 11:31:19 GMT 51.299286 8.165069 36,025 303 430 64
2019-02-18 11:31:16 GMT 51.296703 8.171616 36,025 303 430 0
2019-02-18 11:31:13 GMT 51.292885 8.181229 36,025 303 430 0
2019-02-18 11:31:10 GMT 51.289814 8.189087 36,025 303 430 0
2019-02-18 11:31:07 GMT 51.287483 8.194962 36,025 303 430 64
2019-02-18 11:31:04 GMT 51.284271 8.203001 36,025 303 430 64
2019-02-18 11:31:01 GMT 51.281574 8.209839 36,025 303 430 64
2019-02-18 11:30:58 GMT 51.278641 8.217239 36,025 303 430 64
2019-02-18 11:30:55 GMT 51.275242 8.225784 36,025 303 430 64
2019-02-18 11:30:52 GMT 51.271179 8.236034 36,025 303 431 64
2019-02-18 11:30:49 GMT 51.269073 8.241305 36,025 303 430 64
2019-02-18 11:30:45 GMT 51.263397 8.255483 36,000 303 431 0
2019-02-18 11:30:41 GMT 51.260422 8.262906 36,000 303 431 64
2019-02-18 11:30:38 GMT 51.256107 8.273544 36,000 303 431 0
2019-02-18 11:30:35 GMT 51.254711 8.277130 36,000 303 431 0
2019-02-18 11:30:32 GMT 51.251266 8.285675 36,000 303 431 -64
2019-02-18 11:30:29 GMT 51.246643 8.297053 36,000 303 431 -64
2019-02-18 11:30:25 GMT 51.241631 8.309555 36,000 303 431 0
2019-02-18 11:30:22 GMT 51.239273 8.315314 36,000 303 431 0
2019-02-18 11:30:19 GMT 51.236557 8.322144 36,025 303 431 0
2019-02-18 11:30:16 GMT 51.232864 8.331200 36,025 303 431 -64
2019-02-18 11:30:13 GMT 51.226913 8.346046 36,025 303 431 -64
2019-02-18 11:30:10 GMT 51.226913 8.346046 36,025 303 431 0
2019-02-18 11:30:04 GMT 51.220917 8.360818 36,025 303 431 0
2019-02-18 11:30:01 GMT 51.217518 8.369217 36,025 303 430 0
2019-02-18 11:29:58 GMT 51.214050 8.377892 36,025 303 431 -64
2019-02-18 11:29:55 GMT 51.207184 8.394965 36,025 303 430 0
2019-02-18 11:29:52 GMT 51.207184 8.394965 36,025 303 430 0
2019-02-18 11:29:49 GMT 51.204437 8.401646 36,025 303 431 0
2019-02-18 11:29:45 GMT 51.199860 8.413003 36,025 303 430 0
2019-02-18 11:29:41 GMT 51.195217 8.424454 36,025 303 431 0
2019-02-18 11:29:38 GMT 51.192753 8.430634 36,025 303 431 0
2019-02-18 11:29:35 GMT 51.188599 8.440840 36,025 303 431 -64
2019-02-18 11:29:32 GMT 51.185623 8.448264 36,025 303 431 -64
2019-02-18 11:29:29 GMT 51.181950 8.457336 36,025 303 431 0
2019-02-18 11:29:26 GMT 51.178970 8.464661 36,025 303 430 0
2019-02-18 11:29:23 GMT 51.176422 8.470979 36,025 303 431 0
2019-02-18 11:29:20 GMT 51.171616 8.482895 36,025 303 431 0
2019-02-18 11:29:17 GMT 51.169556 8.487978 36,025 303 430 0
2019-02-18 11:29:14 GMT 51.162258 8.506012 36,025 303 431 64
2019-02-18 11:29:11 GMT 51.162258 8.506012 36,025 303 430 0
2019-02-18 11:29:08 GMT 51.159000 8.514099 36,025 303 430 64
2019-02-18 11:29:05 GMT 51.156952 8.519211 36,025 303 430 64
2019-02-18 11:29:02 GMT 51.153259 8.528286 36,025 303 430 64
2019-02-18 11:28:59 GMT 51.150742 8.534521 36,025 303 431 0
2019-02-18 11:28:56 GMT 51.147968 8.541260 36,025 303 430 64
2019-02-18 11:28:52 GMT 51.139729 8.561707 36,025 303 431 -64
2019-02-18 11:28:49 GMT 51.139729 8.561707 36,000 303 431 -64
2019-02-18 11:28:46 GMT 51.135406 8.572305 36,000 303 431 0
2019-02-18 11:28:43 GMT 51.130051 8.585444 36,025 303 431 -64
2019-02-18 11:28:36 GMT 51.124741 8.598509 36,025 303 430 0
2019-02-18 11:28:31 GMT 51.118362 8.614197 36,025 303 430 64
2019-02-18 11:28:27 GMT 51.116917 8.617706 36,025 303 430 64
2019-02-18 11:28:23 GMT 51.107483 8.640821 36,000 303 430 0
2019-02-18 11:28:19 GMT 51.107483 8.640821 36,000 303 430 64
2019-02-18 11:28:16 GMT 51.104210 8.648758 36,000 303 430 0
2019-02-18 11:28:13 GMT 51.100346 8.658295 36,000 303 428 64
2019-02-18 11:28:10 GMT 51.097321 8.665695 36,000 303 429 0
2019-02-18 11:28:07 GMT 51.093658 8.674671 36,000 303 429 0
2019-02-18 11:28:04 GMT 51.088165 8.688256 36,000 303 429 0
2019-02-18 11:27:57 GMT 51.083817 8.698945 36,000 303 428 0
2019-02-18 11:27:54 GMT 51.080795 8.706294 36,000 303 428 0
2019-02-18 11:27:51 GMT 51.076046 8.717957 36,000 310 427 64
2019-02-18 11:27:47 GMT 51.073471 8.724258 36,000 303 428 0
2019-02-18 11:27:44 GMT 51.069580 8.733908 36,000 303 428 64
2019-02-18 11:27:41 GMT 51.066147 8.742296 36,000 303 428 64
2019-02-18 11:27:38 GMT 51.063171 8.749571 35,975 304 427 0
2019-02-18 11:27:35 GMT 51.058868 8.760147 35,975 303 428 64
2019-02-18 11:27:32 GMT 51.056957 8.764725 35,975 304 428 0
2019-02-18 11:27:29 GMT 51.052582 8.775482 35,975 304 428 0
2019-02-18 11:27:23 GMT 51.046829 8.789508 35,975 304 428 0
2019-02-18 11:27:19 GMT 51.043179 8.798447 36,000 304 426 0
2019-02-18 11:27:16 GMT 51.036438 8.814673 35,975 304 428 -64
2019-02-18 11:27:10 GMT 51.032146 8.825226 36,000 303 426 0
2019-02-18 11:27:06 GMT 51.024929 8.842697 36,000 304 426 -64
2019-02-18 11:27:03 GMT 51.024929 8.842697 36,000 304 426 0
2019-02-18 11:27:00 GMT 51.020966 8.852160 36,000 322 433 0
2019-02-18 11:26:56 GMT 51.017296 8.861084 36,000 304 427 0
2019-02-18 11:26:53 GMT 51.014328 8.868268 36,000 304 427 0
2019-02-18 11:26:50 GMT 51.011307 8.875468 36,000 304 426 0
2019-02-18 11:26:47 GMT 51.006775 8.886455 36,000 304 426 0
2019-02-18 11:26:43 GMT 51.003662 8.893952 35,975 304 426 0
2019-02-18 11:26:39 GMT 50.999771 8.903380 36,000 304 426 0
2019-02-18 11:26:36 GMT 50.996532 8.911209 35,975 304 426 0
2019-02-18 11:26:33 GMT 50.991692 8.922882 36,000 304 426 0
2019-02-18 11:26:30 GMT 50.986385 8.935623 35,975 304 426 0
2019-02-18 11:26:27 GMT 50.986385 8.935623 36,000 304 426 0
2019-02-18 11:26:23 GMT 50.982468 8.945172 36,000 304 427 0
2019-02-18 11:26:20 GMT 50.978378 8.955231 36,000 303 426 0
2019-02-18 11:26:16 GMT 50.974049 8.965836 36,000 303 426 0
2019-02-18 11:26:13 GMT 50.972000 8.970871 36,000 303 425 -64
2019-02-18 11:26:10 GMT 50.967453 8.982066 36,000 303 425 0
2019-02-18 11:26:07 GMT 50.964981 8.988301 36,000 303 426 -64
2019-02-18 11:26:04 GMT 50.959167 9.002925 36,000 303 425 -64
2019-02-18 11:26:01 GMT 50.959167 9.002925 36,000 304 426 64
2019-02-18 11:25:58 GMT 50.955894 9.011307 36,000 302 425 0
2019-02-18 11:25:55 GMT 50.951248 9.023116 36,000 302 425 64
2019-02-18 11:25:52 GMT 50.948586 9.029922 36,000 303 426 64
2019-02-18 11:25:49 GMT 50.947037 9.033879 36,000 303 426 64
2019-02-18 11:25:45 GMT 50.937469 9.056446 36,000 306 426 64
2019-02-18 11:25:41 GMT 50.937469 9.056446 35,975 322 433 -64
2019-02-18 11:25:38 GMT 50.933826 9.063873 35,975 312 429 0
2019-02-18 11:25:32 GMT 50.924973 9.079087 35,975 322 433 -64
2019-02-18 11:25:28 GMT 50.919350 9.087372 35,975 321 432 0
2019-02-18 11:25:25 GMT 50.913811 9.094772 35,975 321 432 0
2019-02-18 11:25:22 GMT 50.911530 9.097748 35,975 322 433 -64
2019-02-18 11:25:19 GMT 50.906158 9.104548 35,975 322 433 -64
2019-02-18 11:25:16 GMT 50.902496 9.109225 35,975 322 433 -64
2019-02-18 11:25:10 GMT 50.891876 9.122661 36,000 322 433 -64
2019-02-18 11:25:07 GMT 50.888206 9.127350 36,000 322 433 -64
2019-02-18 11:25:04 GMT 50.882572 9.134445 36,000 322 432 0
2019-02-18 11:25:00 GMT 50.877548 9.140848 36,000 322 433 0
2019-02-18 11:24:57 GMT 50.872238 9.147568 36,000 322 433 0
2019-02-18 11:24:54 GMT 50.866653 9.154663 36,000 322 432 0
2019-02-18 11:24:51 GMT 50.862946 9.159331 36,000 322 432 0
2019-02-18 11:24:48 GMT 50.857670 9.166031 35,975 322 432 0
2019-02-18 11:24:45 GMT 50.853012 9.171951 36,000 322 432 0
2019-02-18 11:24:41 GMT 50.848312 9.177856 35,975 322 432 -64
2019-02-18 11:24:38 GMT 50.842304 9.185410 36,000 322 432 -64
2019-02-18 11:24:35 GMT 50.837696 9.191284 36,000 322 432 0
2019-02-18 11:24:32 GMT 50.828991 9.202194 36,000 322 432 -64
2019-02-18 11:24:29 GMT 50.823715 9.208918 36,000 322 432 -64
2019-02-18 11:24:26 GMT 50.823715 9.208918 36,000 322 433 -64
2019-02-18 11:24:23 GMT 50.817448 9.216766 36,000 322 433 0
2019-02-18 11:24:20 GMT 50.814049 9.221115 36,000 322 433 0
2019-02-18 11:24:17 GMT 50.809341 9.227031 36,000 322 433 0
2019-02-18 11:24:14 GMT 50.796730 9.243011 36,000 322 433 0
2019-02-18 11:24:09 GMT 50.796730 9.243011 36,000 322 433 0
2019-02-18 11:24:03 GMT 50.787746 9.254379 36,000 322 433 0
2019-02-18 11:24:00 GMT 50.783066 9.260287 36,000 322 434 -64
2019-02-18 11:23:56 GMT 50.775364 9.270020 36,000 322 433 0
2019-02-18 11:23:52 GMT 50.771080 9.275436 36,000 322 433 0
2019-02-18 11:23:49 GMT 50.766403 9.281369 36,000 322 433 0
2019-02-18 11:23:46 GMT 50.761070 9.288101 36,025 322 434 0
2019-02-18 11:23:43 GMT 50.756744 9.293594 36,000 322 434 0
2019-02-18 11:23:40 GMT 50.751389 9.300372 36,025 322 434 -64
2019-02-18 11:23:37 GMT 50.746765 9.306236 36,025 322 434 -64
2019-02-18 11:23:34 GMT 50.743382 9.310455 36,025 322 434 -64
2019-02-18 11:23:31 GMT 50.737061 9.318485 36,025 322 434 -64
2019-02-18 11:23:28 GMT 50.728348 9.329453 36,025 322 434 -64
2019-02-18 11:23:25 GMT 50.728348 9.329453 36,025 322 434 -64
2019-02-18 11:23:22 GMT 50.721680 9.337785 36,025 322 434 0
2019-02-18 11:23:19 GMT 50.717407 9.343185 36,025 322 434 -64
2019-02-18 11:23:16 GMT 50.714264 9.347064 36,025 322 435 0
2019-02-18 11:23:13 GMT 50.709961 9.352557 36,025 322 435 -64
2019-02-18 11:23:10 GMT 50.703674 9.360428 36,025 322 434 0
2019-02-18 11:23:07 GMT 50.699203 9.365993 36,025 322 434 0
2019-02-18 11:23:04 GMT 50.696182 9.369779 36,025 322 435 -64
2019-02-18 11:22:59 GMT 50.686478 9.381953 36,025 322 435 0
2019-02-18 11:22:56 GMT 50.682770 9.386555 36,025 322 435 0
2019-02-18 11:22:52 GMT 50.675743 9.395370 36,025 322 435 0
2019-02-18 11:22:49 GMT 50.671005 9.401333 36,025 322 436 0
2019-02-18 11:22:46 GMT 50.666290 9.407192 36,025 322 436 0
2019-02-18 11:22:40 GMT 50.657593 9.418102 36,025 322 436 0
2019-02-18 11:22:37 GMT 50.653244 9.423523 36,025 322 436 0
2019-02-18 11:22:34 GMT 50.647522 9.430751 36,025 322 436 0
2019-02-18 11:22:31 GMT 50.641617 9.438123 36,025 322 436 0
2019-02-18 11:22:28 GMT 50.637451 9.443327 36,025 322 436 0
2019-02-18 11:22:22 GMT 50.630722 9.451784 36,025 322 436 0
2019-02-18 11:22:19 GMT 50.623325 9.460936 36,025 322 436 0
2019-02-18 11:22:14 GMT 50.617599 9.468062 36,025 322 435 0
2019-02-18 11:22:11 GMT 50.611919 9.475188 36,025 322 435 64
2019-02-18 11:22:08 GMT 50.607494 9.480682 36,025 322 435 64
2019-02-18 11:22:05 GMT 50.602470 9.486917 36,025 322 435 64
2019-02-18 11:22:02 GMT 50.596092 9.494860 36,025 322 435 64
2019-02-18 11:21:58 GMT 50.586735 9.506588 36,000 322 435 64
2019-02-18 11:21:52 GMT 50.574646 9.521677 36,000 322 435 64
2019-02-18 11:21:48 GMT 50.574646 9.521677 36,000 322 435 64
2019-02-18 11:21:45 GMT 50.570908 9.526260 35,975 322 433 0
2019-02-18 11:21:42 GMT 50.566177 9.532157 36,000 322 435 0
2019-02-18 11:21:39 GMT 50.562515 9.536711 36,000 322 435 0
2019-02-18 11:21:36 GMT 50.557823 9.542591 36,000 322 435 0
2019-02-18 11:21:33 GMT 50.551449 9.550534 36,000 322 435 0
2019-02-18 11:21:30 GMT 50.548737 9.553913 36,000 322 435 0
2019-02-18 11:21:27 GMT 50.543392 9.560555 36,000 322 435 0
2019-02-18 11:21:24 GMT 50.538364 9.566865 36,000 322 434 0
2019-02-18 11:21:21 GMT 50.533340 9.573100 36,000 322 434 0
2019-02-18 11:21:18 GMT 50.522278 9.586872 36,000 322 434 0
2019-02-18 11:21:15 GMT 50.522278 9.586872 36,000 322 434 0
2019-02-18 11:21:12 GMT 50.519257 9.590631 36,000 322 434 0
2019-02-18 11:21:09 GMT 50.513832 9.597374 36,000 322 434 0
2019-02-18 11:21:06 GMT 50.509186 9.603135 36,000 322 434 0
2019-02-18 11:21:03 GMT 50.505501 9.607767 36,000 322 434 0
2019-02-18 11:21:00 GMT 50.499451 9.615264 35,975 322 434 0
2019-02-18 11:20:57 GMT 50.495773 9.619831 35,975 322 434 0
2019-02-18 11:20:54 GMT 50.490097 9.626915 35,975 322 434 0
2019-02-18 11:20:51 GMT 50.483368 9.635227 35,975 322 434 0
2019-02-18 11:20:48 GMT 50.480713 9.638624 36,000 322 434 0
2019-02-18 11:20:44 GMT 50.474960 9.645699 36,000 322 434 0
2019-02-18 11:20:41 GMT 50.470352 9.651489 35,975 322 434 0
2019-02-18 11:20:37 GMT 50.462997 9.660620 35,975 322 433 0
2019-02-18 11:20:34 GMT 50.458282 9.666451 36,000 322 434 0
2019-02-18 11:20:31 GMT 50.452011 9.674278 35,975 322 433 0
2019-02-18 11:20:28 GMT 50.450291 9.676431 35,975 322 433 0
2019-02-18 11:20:25 GMT 50.445557 9.682280 35,975 322 433 0
2019-02-18 11:20:22 GMT 50.439514 9.689725 36,000 322 433 0
2019-02-18 11:20:19 GMT 50.435860 9.694247 35,975 322 433 0
2019-02-18 11:20:16 GMT 50.431870 9.699193 35,975 322 433 0
2019-02-18 11:20:13 GMT 50.426147 9.706276 35,975 322 434 -64
2019-02-18 11:20:10 GMT 50.421799 9.711625 36,000 322 433 0
2019-02-18 11:20:07 GMT 50.415749 9.719115 36,000 322 433 0
2019-02-18 11:20:01 GMT 50.408344 9.728245 36,000 322 433 0
2019-02-18 11:19:58 GMT 50.401428 9.736778 36,000 322 433 0
2019-02-18 11:19:55 GMT 50.398293 9.740642 36,000 322 433 0
2019-02-18 11:19:51 GMT 50.392612 9.747620 36,000 322 433 0
2019-02-18 11:19:48 GMT 50.386887 9.754746 36,000 322 433 0
2019-02-18 11:19:45 GMT 50.381207 9.761798 36,000 322 434 -64
2019-02-18 11:19:42 GMT 50.376297 9.767858 36,000 322 434 0
2019-02-18 11:19:38 GMT 50.369476 9.776170 36,000 322 434 -64
2019-02-18 11:19:34 GMT 50.365082 9.781591 36,000 322 433 -64
2019-02-18 11:19:31 GMT 50.360046 9.787806 36,000 322 433 -64
2019-02-18 11:19:28 GMT 50.354050 9.795251 36,000 322 433 -64
2019-02-18 11:19:24 GMT 50.349380 9.801033 36,000 322 432 0
2019-02-18 11:19:21 GMT 50.344986 9.806454 36,000 322 432 0
2019-02-18 11:19:18 GMT 50.338657 9.814280 36,000 322 432 0
2019-02-18 11:19:15 GMT 50.335304 9.818363 36,000 322 433 0
2019-02-18 11:19:12 GMT 50.329285 9.825825 36,000 322 433 0
2019-02-18 11:19:08 GMT 50.325577 9.830378 36,000 322 432 0
2019-02-18 11:19:05 GMT 50.318848 9.838691 36,000 322 433 0
2019-02-18 11:18:59 GMT 50.309189 9.850544 36,000 322 433 0
2019-02-18 11:18:56 GMT 50.306168 9.854303 36,000 322 433 0
2019-02-18 11:18:53 GMT 50.300114 9.861714 36,000 322 433 0
2019-02-18 11:18:50 GMT 50.295689 9.867133 36,000 322 433 0
2019-02-18 11:18:43 GMT 50.278976 9.887623 36,000 322 433 0
2019-02-18 11:18:40 GMT 50.278976 9.887623 36,000 322 433 64
2019-02-18 11:18:34 GMT 50.270550 9.897939 36,000 322 433 64
2019-02-18 11:18:31 GMT 50.264641 9.905214 36,000 322 433 64
2019-02-18 11:18:27 GMT 50.260849 9.909885 36,000 322 433 64
2019-02-18 11:18:24 GMT 50.255421 9.916497 36,000 322 433 0
2019-02-18 11:18:21 GMT 50.250393 9.922659 36,000 322 433 64
2019-02-18 11:18:18 GMT 50.245365 9.928820 36,000 322 433 0
2019-02-18 11:18:14 GMT 50.235672 9.940748 35,975 322 433 0
2019-02-18 11:18:08 GMT 50.229263 9.948626 36,000 322 433 0
2019-02-18 11:18:05 GMT 50.225601 9.953035 35,975 322 433 0
2019-02-18 11:17:59 GMT 50.214272 9.966901 36,000 322 433 -64
2019-02-18 11:17:56 GMT 50.212128 9.969499 36,000 322 433 -64
2019-02-18 11:17:53 GMT 50.206448 9.976477 36,000 322 433 0
2019-02-18 11:17:50 GMT 50.202770 9.981005 36,000 322 433 0
2019-02-18 11:17:47 GMT 50.188797 9.998065 36,000 322 433 0
2019-02-18 11:17:43 GMT 50.188797 9.998065 36,000 322 433 0
2019-02-18 11:17:39 GMT 50.185318 10.002257 36,000 322 433 0
2019-02-18 11:17:36 GMT 50.178268 10.010858 36,000 322 433 0
2019-02-18 11:17:33 GMT 50.175888 10.013749 36,000 322 433 0
2019-02-18 11:17:30 GMT 50.170555 10.020274 35,975 322 433 0
2019-02-18 11:17:27 GMT 50.164490 10.027626 35,975 323 433 0
2019-02-18 11:17:24 GMT 50.161480 10.031334 35,975 323 433 0
2019-02-18 11:17:21 GMT 50.157429 10.036233 35,975 323 433 0
2019-02-18 11:17:17 GMT 50.148651 10.046853 36,000 323 433 -64
2019-02-18 11:17:14 GMT 50.144302 10.052129 35,975 323 433 -64
2019-02-18 11:17:11 GMT 50.141281 10.055815 36,000 323 433 -64
2019-02-18 11:17:08 GMT 50.136932 10.061091 36,000 323 433 -64
2019-02-18 11:17:05 GMT 50.124237 10.076467 36,000 323 433 -64
2019-02-18 11:17:02 GMT 50.124237 10.076467 36,000 323 433 -64
2019-02-18 11:16:58 GMT 50.119396 10.082331 36,000 323 433 -64
2019-02-18 11:16:55 GMT 50.113129 10.089930 36,000 323 433 -64
2019-02-18 11:16:52 GMT 50.108643 10.095322 36,000 323 433 -64
2019-02-18 11:16:49 GMT 50.105942 10.098604 36,000 323 433 -64
2019-02-18 11:16:46 GMT 50.099304 10.106627 36,000 323 433 -64
2019-02-18 11:16:43 GMT 50.097107 10.109301 36,000 323 433 0
2019-02-18 11:16:40 GMT 50.091839 10.115736 36,000 323 433 0
2019-02-18 11:16:36 GMT 50.085461 10.123456 36,025 323 433 0
2019-02-18 11:16:33 GMT 50.080032 10.130045 36,000 323 433 0
2019-02-18 11:16:30 GMT 50.076370 10.134454 36,000 322 433 0
2019-02-18 11:16:27 GMT 50.069916 10.142260 36,000 322 434 0
2019-02-18 11:16:23 GMT 50.063278 10.150283 36,000 323 433 0
2019-02-18 11:16:20 GMT 50.059528 10.154856 36,025 323 433 0
2019-02-18 11:16:16 GMT 50.053757 10.161834 36,000 322 433 0
2019-02-18 11:16:13 GMT 50.048077 10.168737 36,000 322 434 0
2019-02-18 11:16:10 GMT 50.044693 10.172906 36,000 322 433 0
2019-02-18 11:16:07 GMT 50.037743 10.181357 36,000 323 434 0
2019-02-18 11:16:04 GMT 50.034996 10.184697 36,000 322 433 0
2019-02-18 11:16:01 GMT 50.030960 10.189603 36,025 323 433 0
2019-02-18 11:15:58 GMT 50.023964 10.198133 36,025 322 434 0
2019-02-18 11:15:54 GMT 50.018471 10.204814 36,000 322 434 0
2019-02-18 11:15:51 GMT 50.012512 10.212015 36,000 323 433 0
2019-02-18 11:15:48 GMT 50.009068 10.216246 36,025 323 433 0
2019-02-18 11:15:45 GMT 50.004692 10.221516 36,000 323 434 0
2019-02-18 11:15:42 GMT 49.998596 10.228850 36,000 323 433 64
2019-02-18 11:15:39 GMT 49.994888 10.233331 36,000 323 433 0
2019-02-18 11:15:36 GMT 49.991547 10.237379 36,000 323 433 0
2019-02-18 11:15:33 GMT 49.985790 10.244380 36,000 323 434 0
2019-02-18 11:15:30 GMT 49.980717 10.250467 36,000 323 434 0
2019-02-18 11:15:25 GMT 49.971592 10.261453 36,000 323 434 0
2019-02-18 11:15:22 GMT 49.967216 10.266724 36,000 323 434 0
2019-02-18 11:15:19 GMT 49.962189 10.272811 36,000 323 434 0
2019-02-18 11:15:13 GMT 49.954376 10.282191 36,000 323 434 0
2019-02-18 11:15:10 GMT 49.947968 10.289853 36,000 323 434 0
2019-02-18 11:15:07 GMT 49.944214 10.294406 36,025 323 434 0
2019-02-18 11:15:03 GMT 49.939178 10.300478 36,000 323 434 0
2019-02-18 11:14:59 GMT 49.933094 10.307774 36,000 323 434 0
2019-02-18 11:14:56 GMT 49.926670 10.315494 36,000 323 434 0
2019-02-18 11:14:53 GMT 49.922947 10.319948 36,000 323 434 0
2019-02-18 11:14:50 GMT 49.917873 10.326035 36,000 323 434 0
2019-02-18 11:14:47 GMT 49.913818 10.330907 36,000 323 434 0
2019-02-18 11:14:43 GMT 49.906036 10.340303 36,025 323 433 0
2019-02-18 11:14:40 GMT 49.901997 10.345187 36,000 323 434 0
2019-02-18 11:14:37 GMT 49.897621 10.350457 36,000 323 434 0
2019-02-18 11:14:34 GMT 49.891243 10.358103 36,000 323 434 0
2019-02-18 11:14:29 GMT 49.885098 10.365526 36,000 323 434 0
2019-02-18 11:14:26 GMT 49.880444 10.371168 36,000 323 434 0
2019-02-18 11:14:23 GMT 49.874996 10.377700 36,000 323 434 0
2019-02-18 11:14:19 GMT 49.868271 10.385766 36,000 323 434 0
2019-02-18 11:14:16 GMT 49.863922 10.391043 36,000 323 434 0
2019-02-18 11:14:13 GMT 49.859482 10.396319 36,000 323 434 0
2019-02-18 11:14:10 GMT 49.849686 10.408028 36,000 323 434 0
2019-02-18 11:14:04 GMT 49.839851 10.419790 36,000 323 433 0
2019-02-18 11:14:01 GMT 49.839851 10.419790 36,000 323 434 0
2019-02-18 11:13:58 GMT 49.834404 10.426322 36,000 323 434 0
2019-02-18 11:13:54 GMT 49.829041 10.432747 36,000 323 434 0
2019-02-18 11:13:51 GMT 49.823650 10.439239 36,000 323 434 0
2019-02-18 11:13:48 GMT 49.819180 10.444509 36,000 323 433 0
2019-02-18 11:13:45 GMT 49.808716 10.457033 36,000 323 433 0
2019-02-18 11:13:42 GMT 49.803680 10.463032 36,000 323 433 0
2019-02-18 11:13:38 GMT 49.803680 10.463032 36,000 323 433 0
2019-02-18 11:13:35 GMT 49.798885 10.468709 36,000 323 433 0
2019-02-18 11:13:32 GMT 49.793518 10.475175 36,000 323 433 0
2019-02-18 11:13:28 GMT 49.786781 10.483184 36,000 323 433 0
2019-02-18 11:13:24 GMT 49.781754 10.489197 36,000 323 433 0
2019-02-18 11:13:21 GMT 49.774632 10.497659 36,000 323 433 0
2019-02-18 11:13:18 GMT 49.770023 10.503227 36,000 323 433 0
2019-02-18 11:13:15 GMT 49.767879 10.505751 36,000 323 433 0
2019-02-18 11:13:12 GMT 49.762806 10.511838 36,000 323 433 0
2019-02-18 11:13:09 GMT 49.758041 10.517530 36,000 323 433 0
2019-02-18 11:13:06 GMT 49.751308 10.525496 36,000 323 433 0
2019-02-18 11:13:03 GMT 49.742508 10.535963 36,000 323 433 0
2019-02-18 11:12:59 GMT 49.742508 10.535963 36,000 323 433 0
2019-02-18 11:12:56 GMT 49.737122 10.542394 36,000 323 433 0
2019-02-18 11:12:53 GMT 49.732361 10.548063 36,000 323 433 0
2019-02-18 11:12:50 GMT 49.727646 10.553741 36,000 323 433 0
2019-02-18 11:12:47 GMT 49.722931 10.559379 36,000 323 433 0
2019-02-18 11:12:44 GMT 49.718208 10.564988 36,000 323 433 0
2019-02-18 11:12:41 GMT 49.712448 10.571883 36,000 323 433 0
2019-02-18 11:12:38 GMT 49.703293 10.582725 36,000 323 433 0
2019-02-18 11:12:35 GMT 49.703293 10.582725 36,000 323 433 0
2019-02-18 11:12:32 GMT 49.698944 10.587929 36,000 323 434 0
2019-02-18 11:12:29 GMT 49.694550 10.593133 36,000 323 434 0
2019-02-18 11:12:26 GMT 49.690796 10.597614 36,000 323 434 0
2019-02-18 11:12:23 GMT 49.686043 10.603217 36,000 323 433 0
2019-02-18 11:12:19 GMT 49.678314 10.612422 36,000 323 434 0
2019-02-18 11:12:16 GMT 49.673538 10.618069 36,000 323 433 0
2019-02-18 11:12:13 GMT 49.661682 10.632164 36,000 323 433 64
2019-02-18 11:12:09 GMT 49.661682 10.632164 36,000 323 433 0
2019-02-18 11:12:06 GMT 49.658016 10.636473 36,000 323 433 0
2019-02-18 11:12:02 GMT 49.652527 10.642933 35,975 323 433 0
2019-02-18 11:11:58 GMT 49.643509 10.653630 35,975 323 433 0
2019-02-18 11:11:55 GMT 49.641357 10.656160 35,975 323 433 0
2019-02-18 11:11:52 GMT 49.635952 10.662603 36,000 323 433 0
2019-02-18 11:11:48 GMT 49.628540 10.671339 36,000 323 433 0
2019-02-18 11:11:45 GMT 49.625103 10.675445 36,000 323 434 0
2019-02-18 11:11:42 GMT 49.618149 10.683698 36,000 323 433 0
2019-02-18 11:11:39 GMT 49.610229 10.693022 36,000 323 433 0
2019-02-18 11:11:36 GMT 49.610229 10.693022 36,000 323 433 0
2019-02-18 11:11:32 GMT 49.603775 10.700684 36,000 323 433 0
2019-02-18 11:11:29 GMT 49.594986 10.711019 36,000 328 435 0
2019-02-18 11:11:23 GMT 49.588531 10.718681 36,000 323 433 0
2019-02-18 11:11:19 GMT 49.578041 10.731044 36,000 323 433 0
2019-02-18 11:11:13 GMT 49.574314 10.735424 36,000 323 433 0
2019-02-18 11:11:10 GMT 49.567291 10.743689 36,000 323 433 0
2019-02-18 11:11:07 GMT 49.564121 10.747450 36,000 323 433 0
2019-02-18 11:11:04 GMT 49.549622 10.764578 36,000 323 432 0
2019-02-18 11:10:59 GMT 49.549622 10.764578 36,000 323 432 0
2019-02-18 11:10:56 GMT 49.544849 10.770165 36,000 323 432 0
2019-02-18 11:10:53 GMT 49.540474 10.775361 36,000 323 432 0
2019-02-18 11:10:48 GMT 49.534096 10.782933 36,000 323 432 0
2019-02-18 11:10:45 GMT 49.529663 10.788213 36,000 323 432 0
2019-02-18 11:10:42 GMT 49.524551 10.794216 36,000 323 432 0
2019-02-18 11:10:38 GMT 49.516266 10.804014 36,000 323 433 0
2019-02-18 11:10:35 GMT 49.513798 10.806910 36,000 323 432 0
2019-02-18 11:10:32 GMT 49.498947 10.824641 36,000 323 432 0
2019-02-18 11:10:27 GMT 49.498947 10.824641 36,000 323 432 0
2019-02-18 11:10:24 GMT 49.495926 10.828255 36,000 323 432 0
2019-02-18 11:10:20 GMT 49.484192 10.842392 36,000 322 432 64
2019-02-18 11:10:17 GMT 49.484192 10.842392 36,000 322 432 64
2019-02-18 11:10:14 GMT 49.479126 10.848421 36,000 322 432 0
2019-02-18 11:10:10 GMT 49.473450 10.855360 36,000 322 432 0
2019-02-18 11:10:04 GMT 49.463425 10.867575 36,000 322 432 0
2019-02-18 11:10:01 GMT 49.460815 10.870755 36,000 322 433 0
2019-02-18 11:09:58 GMT 49.455826 10.876899 36,000 322 433 0
2019-02-18 11:09:55 GMT 49.450535 10.883443 36,000 322 432 0
2019-02-18 11:09:52 GMT 49.444519 10.890776 36,000 322 432 0
2019-02-18 11:09:49 GMT 49.439873 10.896582 36,000 322 433 -64
2019-02-18 11:09:46 GMT 49.436195 10.901110 36,000 322 433 -64
2019-02-18 11:09:43 GMT 49.431213 10.907271 36,000 322 433 0
2019-02-18 11:09:40 GMT 49.425629 10.914194 36,000 322 433 0
2019-02-18 11:09:34 GMT 49.416367 10.925481 36,000 322 432 0
2019-02-18 11:09:30 GMT 49.411243 10.931758 36,000 322 433 0
2019-02-18 11:09:26 GMT 49.404968 10.939214 36,000 322 433 0
2019-02-18 11:09:23 GMT 49.401489 10.943369 36,000 325 434 0
2019-02-18 11:09:20 GMT 49.396408 10.949284 36,000 325 433 0
2019-02-18 11:09:17 GMT 49.391598 10.954742 36,000 328 435 0
2019-02-18 11:09:14 GMT 49.385036 10.962043 36,000 328 435 -64
2019-02-18 11:09:11 GMT 49.380424 10.966957 36,000 326 434 0
2019-02-18 11:09:05 GMT 49.371208 10.976354 36,000 328 435 0
2019-02-18 11:09:01 GMT 49.362579 10.984920 36,000 328 435 -64
2019-02-18 11:08:57 GMT 49.358597 10.988793 36,000 328 435 -64
2019-02-18 11:08:54 GMT 49.352188 10.994990 36,000 328 435 -64
2019-02-18 11:08:51 GMT 49.348480 10.998653 36,000 328 435 -64
2019-02-18 11:08:48 GMT 49.341568 11.005343 36,000 328 435 -64
2019-02-18 11:08:45 GMT 49.336529 11.010252 36,025 328 435 -64
2019-02-18 11:08:42 GMT 49.331779 11.014878 36,025 328 435 -64
2019-02-18 11:08:38 GMT 49.325226 11.021189 36,025 328 435 0
2019-02-18 11:08:35 GMT 49.318359 11.027809 36,025 328 435 -64
2019-02-18 11:08:32 GMT 49.313297 11.032731 36,025 328 435 0
2019-02-18 11:08:25 GMT 49.303150 11.042561 36,025 338 438 0
2019-02-18 11:08:22 GMT 49.299145 11.046392 36,025 328 435 0
2019-02-18 11:08:19 GMT 49.290813 11.054414 36,025 328 435 0
2019-02-18 11:08:16 GMT 49.288651 11.056472 36,025 328 435 0
2019-02-18 11:08:12 GMT 49.280617 11.064244 36,025 328 435 -64
2019-02-18 11:08:09 GMT 49.274826 11.069782 36,025 328 435 0
2019-02-18 11:08:03 GMT 49.266418 11.077833 36,025 328 435 0
2019-02-18 11:08:00 GMT 49.260277 11.083687 36,025 328 435 -64
2019-02-18 11:07:57 GMT 49.255920 11.087881 36,025 328 435 -64
2019-02-18 11:07:54 GMT 49.250473 11.093163 36,025 328 436 0
2019-02-18 11:07:48 GMT 49.240997 11.102248 36,025 328 435 0
2019-02-18 11:07:44 GMT 49.231979 11.111051 36,025 328 435 0
2019-02-18 11:07:41 GMT 49.227951 11.114925 36,025 328 436 0
2019-02-18 11:07:37 GMT 49.220753 11.122067 36,025 327 435 0
2019-02-18 11:07:34 GMT 49.215729 11.127038 36,025 327 436 0
2019-02-18 11:07:30 GMT 49.209953 11.132837 36,025 327 436 0
2019-02-18 11:07:27 GMT 49.203945 11.138980 36,025 326 435 0
2019-02-18 11:07:24 GMT 49.198219 11.144835 36,025 326 435 0
2019-02-18 11:07:21 GMT 49.195724 11.147391 36,025 327 435 64
2019-02-18 11:07:18 GMT 49.190075 11.153219 36,025 355 442 0
2019-02-18 11:07:15 GMT 49.179924 11.163194 36,025 330 436 0
2019-02-18 11:07:12 GMT 49.179924 11.163194 36,025 332 436 0
2019-02-18 11:07:09 GMT 49.174339 11.168108 36,025 333 437 0
2019-02-18 11:07:05 GMT 49.167030 11.173674 36,025 338 438 0
2019-02-18 11:07:02 GMT 49.160706 11.177814 36,025 339 439 0
2019-02-18 11:06:59 GMT 49.155857 11.180685 36,025 345 440 0
2019-02-18 11:06:56 GMT 49.150505 11.183576 36,025 344 439 0
2019-02-18 11:06:53 GMT 49.142990 11.186829 36,025 356 442 0
2019-02-18 11:06:47 GMT 49.134117 11.189937 36,025 356 442 0
2019-02-18 11:06:43 GMT 49.125973 11.192033 36,025 355 442 0
2019-02-18 11:06:40 GMT 49.109070 11.194857 36,025 356 442 0
2019-02-18 11:06:36 GMT 49.109070 11.194857 36,025 356 442 0
2019-02-18 11:06:30 GMT 49.097763 11.196266 36,025 356 442 64
2019-02-18 11:06:24 GMT 49.086502 11.197674 36,025 356 442 64
2019-02-18 11:06:21 GMT 49.073925 11.199261 36,000 356 442 0
2019-02-18 11:06:18 GMT 49.073925 11.199261 36,000 356 442 64
2019-02-18 11:06:14 GMT 49.064800 11.200417 36,000 356 441 0
2019-02-18 11:06:11 GMT 49.060005 11.200995 36,000 356 441 0
2019-02-18 11:06:08 GMT 49.052650 11.201935 36,000 356 441 0
2019-02-18 11:06:05 GMT 49.045670 11.202886 36,000 355 441 0
2019-02-18 11:06:02 GMT 49.040455 11.203597 36,000 355 441 0
2019-02-18 11:05:58 GMT 49.032669 11.204646 36,000 355 441 0
2019-02-18 11:05:55 GMT 49.026676 11.205404 36,000 356 440 0
2019-02-18 11:05:52 GMT 49.018391 11.206561 36,000 356 440 0
2019-02-18 11:05:49 GMT 49.012802 11.207283 36,000 356 440 0
2019-02-18 11:05:46 GMT 49.006714 11.208097 36,000 356 440 0
2019-02-18 11:05:42 GMT 49.000214 11.208942 36,000 355 437 64
2019-02-18 11:05:39 GMT 48.992413 11.209958 36,000 355 440 0
2019-02-18 11:05:36 GMT 48.988548 11.210464 36,000 355 438 0
2019-02-18 11:05:32 GMT 48.978680 11.211765 36,000 355 439 0
2019-02-18 11:05:26 GMT 48.968300 11.213210 36,000 355 438 0
2019-02-18 11:05:23 GMT 48.959656 11.214365 36,000 355 438 0
2019-02-18 11:05:19 GMT 48.948421 11.215885 36,000 355 437 0
2019-02-18 11:05:13 GMT 48.941986 11.216830 36,000 355 437 64
2019-02-18 11:05:10 GMT 48.936401 11.217604 36,000 355 438 64
2019-02-18 11:05:06 GMT 48.919651 11.219932 35,975 355 437 64
2019-02-18 11:05:02 GMT 48.919651 11.219932 35,975 355 437 64
2019-02-18 11:04:59 GMT 48.914066 11.220727 35,975 355 437 0
2019-02-18 11:04:56 GMT 48.907642 11.221595 35,975 356 437 0
2019-02-18 11:04:52 GMT 48.899914 11.222679 35,975 355 437 -64
2019-02-18 11:04:49 GMT 48.892181 11.223731 35,975 355 437 0
2019-02-18 11:04:45 GMT 48.884876 11.224775 35,975 355 437 0
2019-02-18 11:04:41 GMT 48.877151 11.225859 35,975 355 436 0
2019-02-18 11:04:38 GMT 48.871563 11.226582 35,975 355 436 64
2019-02-18 11:04:35 GMT 48.862976 11.227816 35,975 355 436 64
2019-02-18 11:04:31 GMT 48.855286 11.228872 35,975 355 436 0
2019-02-18 11:04:28 GMT 48.851028 11.229436 35,975 355 436 0
2019-02-18 11:04:25 GMT 48.843307 11.230485 35,975 355 435 0
2019-02-18 11:04:21 GMT 48.835999 11.231569 35,975 355 435 0
2019-02-18 11:04:17 GMT 48.829990 11.232364 35,975 355 435 0
2019-02-18 11:04:14 GMT 48.823566 11.233231 35,975 355 435 0
2019-02-18 11:04:11 GMT 48.816742 11.234154 35,975 355 435 0
2019-02-18 11:04:08 GMT 48.807449 11.235492 35,975 355 435 0
2019-02-18 11:04:05 GMT 48.803925 11.235985 35,975 355 435 0
2019-02-18 11:04:02 GMT 48.798798 11.236690 35,975 355 435 0
2019-02-18 11:03:59 GMT 48.790703 11.237785 35,975 355 434 0
2019-02-18 11:03:56 GMT 48.784698 11.238662 35,975 355 435 -64
2019-02-18 11:03:53 GMT 48.780834 11.239158 35,975 355 435 -64
2019-02-18 11:03:49 GMT 48.771477 11.240459 35,975 355 435 -64
2019-02-18 11:03:46 GMT 48.759888 11.242042 35,975 355 434 -64
2019-02-18 11:03:43 GMT 48.759888 11.242042 35,975 355 434 0
2019-02-18 11:03:40 GMT 48.756500 11.242535 35,975 355 434 -64
2019-02-18 11:03:37 GMT 48.747967 11.243712 35,975 355 434 0
2019-02-18 11:03:33 GMT 48.741165 11.244648 35,975 355 434 0
2019-02-18 11:03:30 GMT 48.736050 11.245374 36,000 355 434 0
2019-02-18 11:03:27 GMT 48.727066 11.246620 36,000 355 434 -64
2019-02-18 11:03:23 GMT 48.720268 11.247615 36,000 355 434 -64
2019-02-18 11:03:20 GMT 48.715073 11.248310 36,000 355 434 -64
2019-02-18 11:03:17 GMT 48.710037 11.249014 36,000 355 434 0
2019-02-18 11:03:14 GMT 48.702347 11.250145 36,000 355 434 -64
2019-02-18 11:03:10 GMT 48.693375 11.251409 36,000 355 434 -64
2019-02-18 11:03:07 GMT 48.689545 11.251952 36,000 355 434 -64
2019-02-18 11:03:03 GMT 48.681862 11.253036 36,000 355 434 0
2019-02-18 11:03:00 GMT 48.673717 11.254192 36,000 355 434 0
2019-02-18 11:02:57 GMT 48.659637 11.256127 36,000 355 434 0
2019-02-18 11:02:53 GMT 48.659637 11.256127 36,000 355 434 0
2019-02-18 11:02:50 GMT 48.652863 11.257083 36,000 355 434 0
2019-02-18 11:02:47 GMT 48.647320 11.257878 36,000 355 434 0
2019-02-18 11:02:42 GMT 48.638306 11.259155 36,000 355 434 0
2019-02-18 11:02:37 GMT 48.627258 11.260697 36,000 355 434 0
2019-02-18 11:02:33 GMT 48.620834 11.261637 36,000 355 434 0
2019-02-18 11:02:30 GMT 48.612671 11.262817 36,000 355 434 -64
2019-02-18 11:02:27 GMT 48.606354 11.263733 36,000 355 434 -64
2019-02-18 11:02:23 GMT 48.600357 11.264578 36,000 355 434 -64
2019-02-18 11:02:20 GMT 48.596512 11.265141 36,000 355 434 -64
2019-02-18 11:02:17 GMT 48.587128 11.266479 36,000 355 434 -64
2019-02-18 11:02:14 GMT 48.583694 11.266972 36,025 355 434 -64
2019-02-18 11:02:11 GMT 48.576416 11.268029 36,025 355 434 -64
2019-02-18 11:02:08 GMT 48.568508 11.269154 36,025 355 434 0
2019-02-18 11:02:05 GMT 48.555496 11.270987 36,025 355 435 0
2019-02-18 11:02:01 GMT 48.555496 11.270987 36,025 355 435 0
2019-02-18 11:01:58 GMT 48.550003 11.271761 36,025 355 435 0
2019-02-18 11:01:55 GMT 48.544373 11.272536 36,025 355 434 0
2019-02-18 11:01:52 GMT 48.536713 11.273635 36,025 355 435 0
2019-02-18 11:01:48 GMT 48.529404 11.274649 36,025 355 435 0
2019-02-18 11:01:45 GMT 48.519608 11.275987 36,025 355 435 0
2019-02-18 11:01:39 GMT 48.513199 11.276902 36,025 355 435 0
2019-02-18 11:01:35 GMT 48.496960 11.279201 36,025 355 435 0
2019-02-18 11:01:32 GMT 48.496960 11.279201 36,025 355 435 0
2019-02-18 11:01:29 GMT 48.491409 11.280001 36,025 355 435 0
2019-02-18 11:01:26 GMT 48.485413 11.280863 36,025 355 435 0
2019-02-18 11:01:23 GMT 48.480759 11.281513 36,025 355 435 0
2019-02-18 11:01:18 GMT 48.470516 11.282887 36,025 355 435 0
2019-02-18 11:01:15 GMT 48.463207 11.283899 36,025 355 435 0
2019-02-18 11:01:08 GMT 48.450806 11.285635 36,025 355 435 0
2019-02-18 11:01:05 GMT 48.444866 11.286428 36,025 355 435 0
2019-02-18 11:01:02 GMT 48.438442 11.287296 36,025 355 435 0
2019-02-18 11:00:59 GMT 48.431580 11.288241 36,025 355 435 0
2019-02-18 11:00:56 GMT 48.426430 11.288886 36,025 355 435 0
2019-02-18 11:00:53 GMT 48.422195 11.289464 36,000 355 435 0
2019-02-18 11:00:50 GMT 48.413582 11.290621 36,000 355 435 0
2019-02-18 11:00:47 GMT 48.408463 11.291343 36,000 355 435 0
2019-02-18 11:00:44 GMT 48.403336 11.292044 36,025 355 435 0
2019-02-18 11:00:41 GMT 48.396545 11.292933 36,025 355 435 0
2019-02-18 11:00:38 GMT 48.391388 11.293664 36,025 355 435 0
2019-02-18 11:00:35 GMT 48.383286 11.294720 36,025 355 435 0
2019-02-18 11:00:32 GMT 48.377701 11.295495 36,000 355 435 0
2019-02-18 11:00:29 GMT 48.373810 11.295988 36,000 355 435 0
2019-02-18 11:00:26 GMT 48.358429 11.298030 36,000 355 435 0
2019-02-18 11:00:20 GMT 48.354584 11.298593 36,000 355 435 0
2019-02-18 11:00:17 GMT 48.347397 11.299579 36,000 355 435 0
2019-02-18 11:00:14 GMT 48.340988 11.300424 36,000 355 435 0
2019-02-18 11:00:11 GMT 48.337051 11.300917 36,000 355 435 0
2019-02-18 11:00:08 GMT 48.329464 11.301968 36,000 355 435 0
2019-02-18 11:00:05 GMT 48.322155 11.302980 36,000 355 435 0
2019-02-18 11:00:02 GMT 48.317917 11.303558 36,000 355 435 0
2019-02-18 10:59:59 GMT 48.313168 11.304137 36,000 355 435 0
2019-02-18 10:59:55 GMT 48.304230 11.305425 36,000 355 433 0
2019-02-18 10:59:52 GMT 48.297436 11.306305 36,000 355 435 0
2019-02-18 10:59:49 GMT 48.293106 11.306883 36,000 355 435 0
2019-02-18 10:59:45 GMT 48.284134 11.308101 36,000 355 434 0
2019-02-18 10:59:42 GMT 48.278210 11.308907 36,000 355 434 0
2019-02-18 10:59:39 GMT 48.273087 11.309630 36,000 355 434 0
2019-02-18 10:59:36 GMT 48.266602 11.310495 36,000 355 434 0
2019-02-18 10:59:33 GMT 48.260284 11.311364 36,000 355 434 0
2019-02-18 10:59:29 GMT 48.253006 11.312397 35,975 355 433 0
2019-02-18 10:59:26 GMT 48.246971 11.313171 36,000 355 434 64
2019-02-18 10:59:23 GMT 48.239319 11.314157 36,000 355 434 64
2019-02-18 10:59:19 GMT 48.229095 11.315557 36,000 355 434 0
2019-02-18 10:59:16 GMT 48.225723 11.315988 36,000 355 434 0
2019-02-18 10:59:13 GMT 48.219315 11.316833 36,000 355 434 0
2019-02-18 10:59:10 GMT 48.207821 11.318375 36,000 355 434 0
2019-02-18 10:59:04 GMT 48.197117 11.319749 35,975 355 434 64
2019-02-18 10:59:01 GMT 48.197117 11.319749 36,000 355 433 -64
2019-02-18 10:58:58 GMT 48.189945 11.320761 36,000 355 433 0
2019-02-18 10:58:55 GMT 48.183426 11.321622 35,975 355 434 64
2019-02-18 10:58:52 GMT 48.176678 11.322568 36,000 355 433 0
2019-02-18 10:58:49 GMT 48.171558 11.323290 36,000 355 433 0
2019-02-18 10:58:46 GMT 48.164387 11.324302 36,000 355 433 0
2019-02-18 10:58:43 GMT 48.159687 11.325003 36,000 355 433 0
2019-02-18 10:58:40 GMT 48.152985 11.325989 35,975 355 434 64
2019-02-18 10:58:37 GMT 48.148605 11.326552 35,975 355 434 64
2019-02-18 10:58:33 GMT 48.141438 11.327609 35,975 355 434 64
2019-02-18 10:58:30 GMT 48.135452 11.328484 35,975 355 433 0
2019-02-18 10:58:27 GMT 48.129475 11.329369 35,975 355 433 0
2019-02-18 10:58:24 GMT 48.121422 11.330496 35,975 355 433 0
2019-02-18 10:58:20 GMT 48.112930 11.331779 35,975 355 433 -64
2019-02-18 10:58:17 GMT 48.106567 11.332672 35,975 355 433 -64
2019-02-18 10:58:14 GMT 48.102333 11.333313 35,975 355 433 0
2019-02-18 10:58:11 GMT 48.095959 11.334229 35,975 355 433 0
2019-02-18 10:58:07 GMT 48.088463 11.335285 35,975 355 433 0
2019-02-18 10:58:04 GMT 48.081940 11.336243 36,000 355 433 0
2019-02-18 10:58:01 GMT 48.075985 11.337116 35,975 355 433 0
2019-02-18 10:57:58 GMT 48.070862 11.337891 35,975 355 433 0
2019-02-18 10:57:55 GMT 48.063721 11.338921 35,975 355 433 0
2019-02-18 10:57:51 GMT 48.050522 11.340778 35,975 355 433 0
2019-02-18 10:57:48 GMT 48.050522 11.340778 35,975 355 433 -64
2019-02-18 10:57:45 GMT 48.044609 11.341694 35,975 355 433 0
2019-02-18 10:57:41 GMT 48.036091 11.342891 35,975 355 432 0
2019-02-18 10:57:38 GMT 48.029713 11.343806 35,975 355 432 0
2019-02-18 10:57:35 GMT 48.011032 11.346336 35,975 355 432 -64
2019-02-18 10:57:30 GMT 48.008484 11.346694 35,975 355 432 0
2019-02-18 10:57:24 GMT 48.003784 11.347398 35,975 355 432 0
2019-02-18 10:57:21 GMT 47.997406 11.348243 36,000 355 432 0
2019-02-18 10:57:18 GMT 47.991486 11.349083 36,000 355 432 0
2019-02-18 10:57:14 GMT 47.983860 11.350145 36,000 355 432 0
2019-02-18 10:57:11 GMT 47.975479 11.351342 36,000 355 432 0
2019-02-18 10:57:08 GMT 47.971104 11.351976 36,000 355 432 0
2019-02-18 10:57:05 GMT 47.965164 11.352791 36,000 355 432 0
2019-02-18 10:56:59 GMT 47.953674 11.354439 36,000 355 432 0
2019-02-18 10:56:56 GMT 47.947781 11.355286 36,000 355 432 -64
2019-02-18 10:56:53 GMT 47.941818 11.356087 36,000 355 432 0
2019-02-18 10:56:50 GMT 47.936703 11.356835 36,000 355 432 0
2019-02-18 10:56:47 GMT 47.929047 11.357872 36,000 355 433 -64
2019-02-18 10:56:43 GMT 47.920990 11.358971 36,000 355 432 0
2019-02-18 10:56:40 GMT 47.906113 11.360962 36,000 355 433 0
2019-02-18 10:56:36 GMT 47.906113 11.360962 36,000 355 433 -64
2019-02-18 10:56:32 GMT 47.897552 11.362117 36,000 355 433 0
2019-02-18 10:56:29 GMT 47.893707 11.362610 36,000 355 433 0
2019-02-18 10:56:21 GMT 47.877136 11.364807 36,000 355 433 -64
2019-02-18 10:56:18 GMT 47.872040 11.365497 36,000 355 433 -64
2019-02-18 10:56:15 GMT 47.864826 11.366483 36,000 355 434 0
2019-02-18 10:56:11 GMT 47.858871 11.367279 36,000 355 433 0
2019-02-18 10:56:08 GMT 47.851185 11.368314 36,025 355 433 0
2019-02-18 10:56:02 GMT 47.839314 11.369934 36,025 355 433 0
2019-02-18 10:55:59 GMT 47.832050 11.370920 36,025 355 433 0
2019-02-18 10:55:56 GMT 47.827351 11.371554 36,025 355 433 0
2019-02-18 10:55:50 GMT 47.814148 11.373322 36,000 355 434 0
2019-02-18 10:55:47 GMT 47.810303 11.373802 36,025 355 434 0
2019-02-18 10:55:43 GMT 47.802631 11.374864 36,000 355 434 -64
2019-02-18 10:55:40 GMT 47.795834 11.375709 36,000 355 434 0
2019-02-18 10:55:36 GMT 47.784393 11.377235 36,025 355 434 0
2019-02-18 10:55:31 GMT 47.777447 11.378174 36,025 355 434 0
2019-02-18 10:55:27 GMT 47.769764 11.379230 36,025 355 434 0
2019-02-18 10:55:24 GMT 47.764618 11.379913 36,025 355 434 0
2019-02-18 10:55:21 GMT 47.756126 11.381061 36,025 355 434 0
2019-02-18 10:55:17 GMT 47.748001 11.382111 36,025 355 434 0
2019-02-18 10:55:14 GMT 47.743744 11.382729 36,025 355 434 0
2019-02-18 10:55:09 GMT 47.733871 11.384090 36,025 355 434 0
2019-02-18 10:55:06 GMT 47.727951 11.384857 36,025 355 434 0
2019-02-18 10:55:03 GMT 47.722824 11.385612 36,025 355 434 0
2019-02-18 10:54:59 GMT 47.711700 11.387123 36,025 355 434 0
2019-02-18 10:54:55 GMT 47.705292 11.388084 36,025 355 434 0
2019-02-18 10:54:52 GMT 47.701447 11.388565 36,025 355 436 0
2019-02-18 10:54:49 GMT 47.692070 11.389935 36,025 355 436 0
2019-02-18 10:54:46 GMT 47.686066 11.390762 36,025 355 436 0
2019-02-18 10:54:43 GMT 47.682617 11.391273 36,025 355 436 0
2019-02-18 10:54:39 GMT 47.674564 11.392400 36,025 355 436 -64
2019-02-18 10:54:36 GMT 47.667755 11.393440 36,025 355 436 0
2019-02-18 10:54:33 GMT 47.661716 11.394301 36,025 355 436 -64
2019-02-18 10:54:30 GMT 47.655716 11.395157 36,025 355 436 0
2019-02-18 10:54:27 GMT 47.650593 11.395851 36,025 355 435 0
2019-02-18 10:54:24 GMT 47.641754 11.397079 36,025 356 435 0
2019-02-18 10:54:21 GMT 47.638626 11.397470 36,025 358 436 64
2019-02-18 10:54:18 GMT 47.630527 11.398245 36,025 358 436 64
2019-02-18 10:54:15 GMT 47.626648 11.398590 36,025 359 436 64
2019-02-18 10:54:12 GMT 47.618042 11.399139 36,000 0 437 0
2019-02-18 10:54:09 GMT 47.612511 11.399372 36,000 359 437 64
2019-02-18 10:54:05 GMT 47.605530 11.399583 36,000 0 437 64
2019-02-18 10:54:02 GMT 47.599106 11.399654 36,000 0 437 64
2019-02-18 10:53:59 GMT 47.591904 11.399689 36,000 0 437 0
2019-02-18 10:53:56 GMT 47.586163 11.399724 36,000 0 437 0
2019-02-18 10:53:53 GMT 47.575836 11.399895 36,000 0 437 -128
2019-02-18 10:53:50 GMT 47.575836 11.399895 36,025 0 437 -64
2019-02-18 10:53:47 GMT 47.568558 11.399963 36,000 0 437 -64
2019-02-18 10:53:44 GMT 47.563797 11.400032 36,025 0 437 -64
2019-02-18 10:53:41 GMT 47.556046 11.400076 36,025 0 437 -64
2019-02-18 10:53:38 GMT 47.550888 11.400169 36,025 0 437 0
2019-02-18 10:53:34 GMT 47.540962 11.400287 36,025 0 436 64
2019-02-18 10:53:31 GMT 47.535374 11.400358 36,025 0 437 -64
2019-02-18 10:53:28 GMT 47.529835 11.400428 36,025 0 437 -64
2019-02-18 10:53:25 GMT 47.523785 11.400499 36,025 0 436 64
2019-02-18 10:53:22 GMT 47.519920 11.400569 36,025 0 436 0
2019-02-18 10:53:19 GMT 47.513855 11.400650 36,025 0 436 0
2019-02-18 10:53:16 GMT 47.506142 11.400710 36,025 0 436 0
2019-02-18 10:53:13 GMT 47.500553 11.400780 36,025 0 436 64
2019-02-18 10:53:10 GMT 47.495014 11.400851 36,025 0 436 64
2019-02-18 10:53:07 GMT 47.488544 11.400921 36,025 359 436 64
2019-02-18 10:53:04 GMT 47.480350 11.401062 36,025 0 436 64
2019-02-18 10:53:01 GMT 47.474396 11.401131 36,025 0 436 64
2019-02-18 10:52:57 GMT 47.469635 11.401199 36,000 0 436 64
2019-02-18 10:52:54 GMT 47.460983 11.401344 36,000 359 436 64
2019-02-18 10:52:51 GMT 47.457642 11.401405 36,000 0 436 64
2019-02-18 10:52:48 GMT 47.448647 11.401555 36,000 0 436 64
2019-02-18 10:52:44 GMT 47.442123 11.401611 36,000 0 436 64
2019-02-18 10:52:41 GMT 47.429260 11.401749 36,000 0 436 0
2019-02-18 10:52:35 GMT 47.424488 11.401837 36,000 0 436 64
2019-02-18 10:52:32 GMT 47.415874 11.401837 36,000 0 436 0
2019-02-18 10:52:29 GMT 47.412460 11.401817 36,000 0 436 0
2019-02-18 10:52:26 GMT 47.407215 11.401837 36,000 0 436 0
2019-02-18 10:52:23 GMT 47.397812 11.401817 36,000 0 436 0
2019-02-18 10:52:20 GMT 47.393967 11.401817 36,000 0 436 0
2019-02-18 10:52:16 GMT 47.383804 11.401749 36,000 0 435 -64
2019-02-18 10:52:13 GMT 47.381058 11.401749 36,000 0 436 0
2019-02-18 10:52:08 GMT 47.365356 11.401680 36,000 0 435 -64
2019-02-18 10:52:04 GMT 47.351215 11.401625 36,000 0 435 -64
2019-02-18 10:52:00 GMT 47.351215 11.401625 36,000 0 435 -64
2019-02-18 10:51:57 GMT 47.348469 11.401625 36,000 0 435 -64
2019-02-18 10:51:54 GMT 47.342045 11.401555 36,000 0 435 -64
2019-02-18 10:51:50 GMT 47.334320 11.401543 36,025 0 435 -64
2019-02-18 10:51:47 GMT 47.326218 11.401543 36,025 0 434 0
2019-02-18 10:51:42 GMT 47.317650 11.401555 36,025 0 434 0
2019-02-18 10:51:39 GMT 47.310760 11.401555 36,025 0 434 0
2019-02-18 10:51:36 GMT 47.305206 11.401543 36,000 0 435 64
2019-02-18 10:51:33 GMT 47.299683 11.401555 36,000 0 435 64
2019-02-18 10:51:30 GMT 47.293629 11.401555 36,000 0 435 64
2019-02-18 10:51:27 GMT 47.288498 11.401611 36,000 0 436 64
2019-02-18 10:51:24 GMT 47.279942 11.401696 36,000 0 437 0
2019-02-18 10:51:21 GMT 47.276077 11.401766 36,000 0 437 0
2019-02-18 10:51:18 GMT 47.269608 11.401766 36,000 0 437 0
2019-02-18 10:51:15 GMT 47.263138 11.401837 36,000 0 438 0
2019-02-18 10:51:12 GMT 47.255455 11.401907 36,000 0 437 0
2019-02-18 10:51:09 GMT 47.251511 11.401955 36,000 0 437 0
2019-02-18 10:51:05 GMT 47.242886 11.401907 36,000 1 438 0
2019-02-18 10:51:02 GMT 47.237301 11.401766 36,000 1 438 0
2019-02-18 10:50:59 GMT 47.230831 11.401414 36,000 3 438 0
2019-02-18 10:50:55 GMT 47.220867 11.400710 36,000 3 438 0
2019-02-18 10:50:50 GMT 47.212208 11.399935 36,000 3 438 0
2019-02-18 10:50:43 GMT 47.189804 11.397697 36,000 4 439 64
2019-02-18 10:50:40 GMT 47.189804 11.397697 36,000 4 439 64
2019-02-18 10:50:34 GMT 47.179810 11.396696 35,975 4 440 64
2019-02-18 10:50:31 GMT 47.172592 11.395921 35,975 4 440 64
2019-02-18 10:50:28 GMT 47.168545 11.395498 35,975 4 440 64
2019-02-18 10:50:21 GMT 47.154373 11.393990 36,000 4 439 -64
2019-02-18 10:50:18 GMT 47.149132 11.393456 36,000 4 437 64
2019-02-18 10:50:15 GMT 47.132446 11.391655 36,000 4 438 0
2019-02-18 10:50:11 GMT 47.132446 11.391655 36,000 4 437 192
2019-02-18 10:50:08 GMT 47.126087 11.390991 36,000 3 436 256
2019-02-18 10:50:05 GMT 47.120872 11.390428 35,950 4 435 384
2019-02-18 10:50:02 GMT 47.115738 11.389870 35,925 3 434 704
2019-02-18 10:49:59 GMT 47.108116 11.389019 35,775 0 433 1024
2019-02-18 10:49:56 GMT 47.104202 11.388565 35,875 4 434 704
2019-02-18 10:49:50 GMT 47.091385 11.387398 35,800 339 438 1536
2019-02-18 10:49:47 GMT 47.085800 11.386986 35,700 2 433 960
2019-02-18 10:49:44 GMT 47.075157 11.386484 35,625 0 433 1024
2019-02-18 10:49:41 GMT 47.075157 11.386484 35,650 0 433 960
2019-02-18 10:49:38 GMT 47.067444 11.386299 35,600 0 433 1024
2019-02-18 10:49:35 GMT 47.061951 11.386299 35,550 0 433 1024
2019-02-18 10:49:30 GMT 47.049911 11.386574 35,450 359 434 1216
2019-02-18 10:49:25 GMT 47.040161 11.387054 35,350 358 434 1216
2019-02-18 10:49:22 GMT 47.036316 11.387329 35,275 357 434 1024
2019-02-18 10:49:19 GMT 47.029400 11.387893 35,225 357 434 1024
2019-02-18 10:49:16 GMT 47.023499 11.388496 35,100 351 435 1216
2019-02-18 10:49:13 GMT 47.018784 11.388977 35,175 356 434 960
2019-02-18 10:49:10 GMT 47.010220 11.390146 35,075 355 434 896
2019-02-18 10:49:07 GMT 47.005096 11.390900 35,050 354 433 960
2019-02-18 10:49:03 GMT 46.997040 11.392273 35,000 353 434 1024
2019-02-18 10:48:58 GMT 46.987267 11.394090 34,850 352 434 1216
2019-02-18 10:48:55 GMT 46.979259 11.395851 34,750 352 435 1280
2019-02-18 10:48:49 GMT 46.969986 11.398041 34,700 351 435 1216
2019-02-18 10:48:45 GMT 46.963165 11.399826 34,625 350 435 1280
2019-02-18 10:48:42 GMT 46.956451 11.401696 34,550 349 435 1216
2019-02-18 10:48:39 GMT 46.944214 11.405457 34,425 346 435 960
2019-02-18 10:48:32 GMT 46.933968 11.409020 34,350 346 435 960
2019-02-18 10:48:28 GMT 46.929199 11.410812 34,300 345 435 896
2019-02-18 10:48:24 GMT 46.920502 11.414177 34,175 339 438 1536
2019-02-18 10:48:21 GMT 46.907757 11.419584 34,150 344 434 832
2019-02-18 10:48:17 GMT 46.907757 11.419584 34,125 343 434 832
2019-02-18 10:48:14 GMT 46.901192 11.422612 34,025 342 433 896
2019-02-18 10:48:11 GMT 46.895920 11.425163 34,050 342 433 896
2019-02-18 10:48:07 GMT 46.886391 11.429936 33,975 341 432 960
2019-02-18 10:48:01 GMT 46.873215 11.437180 33,850 339 432 1152
2019-02-18 10:47:57 GMT 46.869492 11.439303 33,800 339 432 1216
2019-02-18 10:47:54 GMT 46.863968 11.442395 33,725 339 432 1344
2019-02-18 10:47:51 GMT 46.859577 11.444939 33,675 339 432 1344
2019-02-18 10:47:48 GMT 46.853149 11.448578 33,500 339 433 1472
2019-02-18 10:47:43 GMT 46.842865 11.454453 33,450 339 434 1472
2019-02-18 10:47:39 GMT 46.835648 11.458534 33,350 339 435 1408
2019-02-18 10:47:35 GMT 46.820892 11.466911 33,250 340 435 1280
2019-02-18 10:47:32 GMT 46.820892 11.466911 33,200 339 436 1216
2019-02-18 10:47:29 GMT 46.817276 11.468990 33,150 339 436 1152
2019-02-18 10:47:26 GMT 46.812836 11.471468 33,075 339 436 1152
2019-02-18 10:47:23 GMT 46.805157 11.475838 32,975 339 436 1152
2019-02-18 10:47:20 GMT 46.801201 11.478104 32,875 339 436 1280
2019-02-18 10:47:16 GMT 46.793144 11.482635 32,825 339 436 1408
2019-02-18 10:47:10 GMT 46.781555 11.489227 32,725 339 437 1600
2019-02-18 10:47:06 GMT 46.774292 11.493279 32,225 339 441 1152
2019-02-18 10:47:01 GMT 46.762981 11.499733 32,350 339 439 1472
2019-02-18 10:46:55 GMT 46.752876 11.505432 32,350 339 440 1472
2019-02-18 10:46:51 GMT 46.744778 11.510033 32,200 339 441 1152
2019-02-18 10:46:48 GMT 46.739983 11.512711 32,150 339 441 1088
2019-02-18 10:46:44 GMT 46.722702 11.522515 32,025 339 441 896
2019-02-18 10:46:40 GMT 46.722702 11.522515 31,975 339 439 832
2019-02-18 10:46:36 GMT 46.714508 11.527137 31,950 339 438 896
2019-02-18 10:46:33 GMT 46.711262 11.528984 31,900 339 438 1024
2019-02-18 10:46:29 GMT 46.705208 11.532417 31,825 339 438 1216
2019-02-18 10:46:26 GMT 46.699539 11.535578 31,800 339 438 1344
2019-02-18 10:46:23 GMT 46.691895 11.539932 31,575 339 440 1792
2019-02-18 10:46:17 GMT 46.682583 11.545189 31,525 339 441 1792
2019-02-18 10:46:12 GMT 46.672119 11.551052 31,375 339 441 1792
2019-02-18 10:46:08 GMT 46.665173 11.555008 31,250 339 443 1792
2019-02-18 10:46:04 GMT 46.655411 11.560498 31,100 339 444 1600
2019-02-18 10:46:01 GMT 46.651749 11.562574 31,050 339 444 1472
2019-02-18 10:45:58 GMT 46.644562 11.566661 30,800 339 443 1280
2019-02-18 10:45:54 GMT 46.636684 11.571144 30,900 339 444 1344
2019-02-18 10:45:51 GMT 46.632568 11.573494 30,825 339 444 1280
2019-02-18 10:45:48 GMT 46.625656 11.577379 30,475 339 443 1280
2019-02-18 10:45:45 GMT 46.621124 11.579992 30,650 339 444 1152
2019-02-18 10:45:40 GMT 46.611740 11.585351 30,575 339 444 1088
2019-02-18 10:45:37 GMT 46.604828 11.589236 30,500 339 444 1088
2019-02-18 10:45:33 GMT 46.598282 11.592988 30,450 339 443 1152
2019-02-18 10:45:30 GMT 46.591763 11.596687 30,375 339 443 1216
2019-02-18 10:45:24 GMT 46.580383 11.603103 30,225 339 443 1344
2019-02-18 10:45:19 GMT 46.570999 11.608429 30,100 339 443 1408
2019-02-18 10:45:16 GMT 46.565693 11.611382 30,050 339 443 1216
2019-02-18 10:45:12 GMT 46.558365 11.615563 29,975 339 441 1088
2019-02-18 10:45:08 GMT 46.549347 11.620655 29,875 339 443 1216
2019-02-18 10:45:04 GMT 46.540054 11.625947 29,775 339 443 1152
2019-02-18 10:45:00 GMT 46.533096 11.629899 29,700 339 442 1088
2019-02-18 10:44:57 GMT 46.527378 11.633217 29,650 339 442 1088
2019-02-18 10:44:53 GMT 46.520096 11.637335 29,575 339 440 1152
2019-02-18 10:44:49 GMT 46.512817 11.641555 29,450 339 440 1216
2019-02-18 10:44:46 GMT 46.506729 11.644972 29,450 339 441 1152
2019-02-18 10:44:42 GMT 46.500286 11.648666 29,325 339 440 1152
2019-02-18 10:44:38 GMT 46.489746 11.654685 29,275 339 440 1216
2019-02-18 10:44:34 GMT 46.485714 11.656975 29,225 339 440 1280
2019-02-18 10:44:31 GMT 46.478989 11.660781 29,150 339 440 1280
2019-02-18 10:44:28 GMT 46.473999 11.663662 29,075 339 440 1280
2019-02-18 10:44:25 GMT 46.467911 11.667079 28,500 338 435 1216
2019-02-18 10:44:22 GMT 46.459877 11.671600 28,875 339 438 1280
2019-02-18 10:44:19 GMT 46.452164 11.675921 28,425 339 437 1088
2019-02-18 10:44:11 GMT 46.440884 11.682243 28,700 340 438 1152
2019-02-18 10:44:06 GMT 46.430008 11.688247 28,425 339 437 1088
2019-02-18 10:44:03 GMT 46.427216 11.689788 28,550 339 436 1152
2019-02-18 10:44:00 GMT 46.418911 11.694603 28,500 338 436 1152
2019-02-18 10:43:56 GMT 46.411697 11.698997 28,375 334 433 1408
2019-02-18 10:43:52 GMT 46.406574 11.702362 28,325 335 434 1344
2019-02-18 10:43:49 GMT 46.400436 11.706670 28,250 334 433 1408
2019-02-18 10:43:42 GMT 46.388260 11.715780 27,925 329 423 1280
2019-02-18 10:43:37 GMT 46.379017 11.723442 27,950 330 431 1408
2019-02-18 10:43:34 GMT 46.374313 11.727562 27,875 329 431 1408
2019-02-18 10:43:31 GMT 46.369518 11.731750 27,800 329 423 1280
2019-02-18 10:43:28 GMT 46.364502 11.736145 27,725 329 430 1280
2019-02-18 10:43:24 GMT 46.355347 11.744184 27,625 329 430 1216
2019-02-18 10:43:20 GMT 46.351410 11.747667 27,475 329 423 1280
2019-02-18 10:43:17 GMT 46.333008 11.763879 27,325 329 428 1280
2019-02-18 10:43:10 GMT 46.333008 11.763879 27,375 329 423 1280
2019-02-18 10:43:05 GMT 46.325436 11.770546 27,275 329 427 1344
2019-02-18 10:42:59 GMT 46.308838 11.785182 26,825 329 425 1344
2019-02-18 10:42:55 GMT 46.308838 11.785182 27,000 329 425 1344
2019-02-18 10:42:52 GMT 46.302063 11.791144 26,925 329 425 1344
2019-02-18 10:42:48 GMT 46.296387 11.796227 26,750 329 424 1216
2019-02-18 10:42:45 GMT 46.291397 11.800723 26,750 329 424 1216
2019-02-18 10:42:41 GMT 46.284283 11.807076 26,700 329 423 1280
2019-02-18 10:42:35 GMT 46.273018 11.817238 26,550 328 422 1216
2019-02-18 10:42:31 GMT 46.266640 11.823006 26,450 329 420 1152
2019-02-18 10:42:26 GMT 46.260635 11.828430 26,400 328 420 1088
2019-02-18 10:42:23 GMT 46.254490 11.833992 26,350 329 419 1088
2019-02-18 10:42:20 GMT 46.249416 11.838524 26,075 330 413 1600
2019-02-18 10:42:16 GMT 46.243504 11.843811 26,200 329 417 1280
2019-02-18 10:42:13 GMT 46.231979 11.854047 25,975 329 414 1728
2019-02-18 10:42:09 GMT 46.231979 11.854047 25,075 330 413 1600
2019-02-18 10:42:02 GMT 46.220352 11.864230 25,475 329 414 1728
2019-02-18 10:41:59 GMT 46.214176 11.869698 25,725 329 415 1792
2019-02-18 10:41:54 GMT 46.208542 11.874680 25,550 329 415 1792
2019-02-18 10:41:50 GMT 46.200531 11.881647 25,550 329 415 1792
2019-02-18 10:41:47 GMT 46.196346 11.885284 25,425 329 414 1728
2019-02-18 10:41:41 GMT 46.185425 11.894710 25,300 330 413 1600
2019-02-18 10:41:37 GMT 46.178833 11.900471 25,125 330 413 1600
2019-02-18 10:41:32 GMT 46.172516 11.905897 25,025 329 413 1472
2019-02-18 10:41:26 GMT 46.162361 11.914673 24,850 329 412 1408
2019-02-18 10:41:22 GMT 46.154755 11.921305 24,750 329 410 1408
2019-02-18 10:41:18 GMT 46.149582 11.925860 24,625 329 409 1472
2019-02-18 10:41:15 GMT 46.143036 11.931554 24,575 329 408 1536
2019-02-18 10:41:12 GMT 46.139236 11.934904 24,475 329 408 1600
2019-02-18 10:41:09 GMT 46.133732 11.939735 24,325 329 406 1728
2019-02-18 10:41:06 GMT 46.128891 11.944014 24,325 329 407 1600
2019-02-18 10:41:02 GMT 46.122437 11.949776 24,200 329 406 1728
2019-02-18 10:40:59 GMT 46.116276 11.955185 24,125 329 406 1728
2019-02-18 10:40:54 GMT 46.109756 11.960963 24,025 329 406 1728
2019-02-18 10:40:51 GMT 46.105011 11.965141 23,900 329 405 1728
2019-02-18 10:40:48 GMT 46.098633 11.970810 23,700 329 404 1600
2019-02-18 10:40:44 GMT 46.092068 11.976677 23,675 329 405 1664
2019-02-18 10:40:41 GMT 46.089340 11.979117 23,600 329 404 1600
2019-02-18 10:40:38 GMT 46.083618 11.984208 23,525 328 403 1600
2019-02-18 10:40:34 GMT 46.078896 11.988487 23,350 328 401 1472
2019-02-18 10:40:28 GMT 46.069794 11.996668 23,300 328 401 1472
2019-02-18 10:40:25 GMT 46.063068 12.002701 23,225 328 400 1408
2019-02-18 10:40:19 GMT 46.049057 12.015359 22,700 329 396 1856
2019-02-18 10:40:16 GMT 46.049057 12.015359 22,775 329 397 1664
2019-02-18 10:40:09 GMT 46.039078 12.024335 22,800 329 396 1728
2019-02-18 10:40:05 GMT 46.022427 12.038818 22,350 330 395 1984
2019-02-18 10:39:58 GMT 46.022427 12.038818 22,475 330 395 2048
2019-02-18 10:39:54 GMT 46.013580 12.045891 22,275 333 395 2304
2019-02-18 10:39:47 GMT 46.004196 12.052806 21,125 335 397 1984
2019-02-18 10:39:42 GMT 45.996826 12.057964 21,875 335 396 2432
2019-02-18 10:39:37 GMT 45.988026 12.063950 21,650 335 397 2432
2019-02-18 10:39:33 GMT 45.980576 12.069031 21,375 335 397 2176
2019-02-18 10:39:27 GMT 45.971695 12.075046 21,300 335 397 2048
2019-02-18 10:39:23 GMT 45.964233 12.080138 21,125 335 396 1984
2019-02-18 10:39:17 GMT 45.954041 12.087021 20,825 335 394 1984
2019-02-18 10:39:12 GMT 45.944126 12.093750 20,725 335 394 1984
2019-02-18 10:39:06 GMT 45.937134 12.098493 19,950 335 392 1792
2019-02-18 10:39:00 GMT 45.925919 12.106063 20,375 335 392 1728
2019-02-18 10:38:55 GMT 45.917824 12.111534 20,225 335 389 1856
2019-02-18 10:38:49 GMT 45.908840 12.117577 20,050 335 388 1856
2019-02-18 10:38:45 GMT 45.902229 12.122108 19,950 335 388 1856
2019-02-18 10:38:39 GMT 45.892593 12.128632 19,625 335 386 1920
2019-02-18 10:38:34 GMT 45.874344 12.140923 19,375 335 384 2048
2019-02-18 10:38:28 GMT 45.874344 12.140923 19,400 335 384 2048
2019-02-18 10:38:23 GMT 45.864441 12.147596 19,150 335 383 2048
2019-02-18 10:38:18 GMT 45.858284 12.151772 18,700 335 381 2048
2019-02-18 10:38:13 GMT 45.851440 12.156372 18,875 335 381 2048
2019-02-18 10:38:08 GMT 45.841324 12.163205 18,525 335 379 2112
2019-02-18 10:38:03 GMT 45.835190 12.167358 18,525 335 379 2112
2019-02-18 10:37:58 GMT 45.820995 12.176903 18,150 335 375 2048
2019-02-18 10:37:52 GMT 45.815689 12.180473 18,150 335 375 2048
2019-02-18 10:37:49 GMT 45.812576 12.182632 18,150 335 375 2048
2019-02-18 10:37:46 GMT 45.808937 12.185074 17,950 335 373 2112
2019-02-18 10:37:43 GMT 45.799210 12.191609 17,750 335 372 2176
2019-02-18 10:37:35 GMT 45.789917 12.197906 17,425 335 371 2176
2019-02-18 10:37:32 GMT 45.786942 12.199915 17,375 335 371 2176
2019-02-18 10:37:25 GMT 45.775040 12.207954 17,175 335 370 2240
2019-02-18 10:37:22 GMT 45.770393 12.211098 16,950 335 369 2240
2019-02-18 10:37:14 GMT 45.757965 12.219475 16,775 335 367 2240
2019-02-18 10:37:10 GMT 45.752052 12.223457 16,625 335 366 2240
2019-02-18 10:37:04 GMT 45.741028 12.230865 16,400 335 364 2176
2019-02-18 10:37:00 GMT 45.737000 12.233544 16,275 335 364 2176
2019-02-18 10:36:51 GMT 45.722397 12.243392 15,875 335 361 2240
2019-02-18 10:36:48 GMT 45.716999 12.246941 15,725 335 361 2240
2019-02-18 10:36:43 GMT 45.710480 12.251335 15,600 335 358 2304
2019-02-18 10:36:40 GMT 45.706650 12.253909 15,475 335 357 2368
2019-02-18 10:36:37 GMT 45.702801 12.256485 15,425 335 357 2368
2019-02-18 10:36:30 GMT 45.690994 12.264360 15,100 335 356 2496
2019-02-18 10:36:22 GMT 45.678589 12.272666 14,525 335 354 2560
2019-02-18 10:36:19 GMT 45.675751 12.274612 14,525 335 354 2560
2019-02-18 10:36:14 GMT 45.668163 12.279694 14,475 335 352 2624
2019-02-18 10:36:09 GMT 45.659924 12.285187 14,275 335 352 2624
2019-02-18 10:36:03 GMT 45.650803 12.291290 13,950 335 350 2624
2019-02-18 10:35:59 GMT 45.643616 12.296180 13,750 335 350 2624
2019-02-18 10:35:52 GMT 45.635159 12.301804 13,500 335 349 2432
2019-02-18 10:35:49 GMT 45.631714 12.304138 13,400 335 349 2432
2019-02-18 10:35:46 GMT 45.626408 12.307709 13,275 335 348 2368
2019-02-18 10:35:41 GMT 45.619286 12.312515 13,075 335 343 2496
2019-02-18 10:35:36 GMT 45.611881 12.317459 12,950 335 345 2304
2019-02-18 10:35:31 GMT 45.603924 12.322884 12,650 335 341 2688
2019-02-18 10:35:26 GMT 45.597546 12.327209 12,475 335 340 2688
2019-02-18 10:35:20 GMT 45.589325 12.332689 12,200 335 339 2752
2019-02-18 10:35:16 GMT 45.582962 12.337044 11,850 335 336 2496
2019-02-18 10:35:11 GMT 45.574825 12.342522 11,750 335 336 2432
2019-02-18 10:35:05 GMT 45.568542 12.346824 11,575 335 335 2304
2019-02-18 10:35:00 GMT 45.560211 12.352478 11,375 335 330 1728
2019-02-18 10:34:54 GMT 45.553135 12.357285 11,275 337 296 1600
2019-02-18 10:34:47 GMT 45.543594 12.363804 11,050 335 322 1152
2019-02-18 10:34:44 GMT 45.538982 12.366921 11,000 335 318 1152
2019-02-18 10:34:33 GMT 45.524826 12.376360 10,775 336 305 1344
2019-02-18 10:34:28 GMT 45.518600 12.380415 10,650 336 296 1536
2019-02-18 10:34:24 GMT 45.511642 12.384796 10,500 337 292 2048
2019-02-18 10:34:18 GMT 45.505882 12.388291 10,350 337 287 3136
2019-02-18 10:34:13 GMT 45.496712 12.393918 9,975 327 285 2752
2019-02-18 10:34:04 GMT 45.489944 12.398987 9,675 325 285 2752
2019-02-18 10:34:01 GMT 45.485912 12.403296 9,575 320 284 2752
2019-02-18 10:33:54 GMT 45.480103 12.412393 9,225 302 280 2496
2019-02-18 10:33:51 GMT 45.477673 12.417967 9,125 299 278 2496
2019-02-18 10:33:43 GMT 45.473484 12.432370 8,750 289 274 2624
2019-02-18 10:33:40 GMT 45.469898 12.446907 8,000 290 272 2688
2019-02-18 10:33:33 GMT 45.469898 12.446907 8,325 291 270 2944
2019-02-18 10:33:30 GMT 45.468292 12.453003 8,150 291 269 3200
2019-02-18 10:33:22 GMT 45.465088 12.464970 7,750 290 268 3392
2019-02-18 10:33:19 GMT 45.463715 12.470987 7,550 280 267 3072
2019-02-18 10:33:13 GMT 45.462543 12.481005 7,250 269 267 2944
2019-02-18 10:33:07 GMT 45.463196 12.492125 6,950 252 264 2240
2019-02-18 10:33:02 GMT 45.464825 12.499561 6,775 245 262 1984
2019-02-18 10:32:57 GMT 45.467850 12.507265 6,625 214 248 1472
2019-02-18 10:32:52 GMT 45.472088 12.513964 6,500 221 251 1344
2019-02-18 10:32:47 GMT 45.476669 12.518594 6,375 208 245 1600
2019-02-18 10:32:41 GMT 45.482143 12.522337 6,225 202 239 1920
2019-02-18 10:32:37 GMT 45.492828 12.526899 5,525 181 234 2944
2019-02-18 10:32:31 GMT 45.492828 12.526899 5,825 187 233 3008
2019-02-18 10:32:25 GMT 45.499237 12.527422 5,525 177 234 2880
2019-02-18 10:32:20 GMT 45.504765 12.526357 5,300 167 234 2880
2019-02-18 10:32:14 GMT 45.511505 12.523172 4,900 156 234 3072
2019-02-18 10:32:10 GMT 45.514618 12.520883 4,825 145 234 3136
2019-02-18 10:32:03 GMT 45.521294 12.512758 4,400 127 238 2880
2019-02-18 10:31:59 GMT 45.523499 12.508392 4,225 120 238 2752
2019-02-18 10:31:54 GMT 45.526199 12.500610 3,975 101 235 1984
2019-02-18 10:31:49 GMT 45.527573 12.493940 3,800 101 235 1984
2019-02-18 10:31:42 GMT 45.528717 12.484262 3,625 98 227 1088
2019-02-18 10:31:39 GMT 45.529266 12.478834 3,550 98 221 960
2019-02-18 10:31:32 GMT 45.530228 12.469155 3,225 98 209 896
2019-02-18 10:31:29 GMT 45.530743 12.464458 3,400 98 207 896
2019-02-18 10:31:22 GMT 45.531815 12.454075 3,275 98 192 960
2019-02-18 10:31:18 GMT 45.532139 12.451127 3,225 98 190 960
2019-02-18 10:31:11 GMT 45.533161 12.441749 3,100 98 180 1024
2019-02-18 10:31:08 GMT 45.533524 12.438289 3,050 98 177 1088
2019-02-18 10:31:00 GMT 45.534512 12.429423 2,925 98 164 1216
2019-02-18 10:30:56 GMT 45.535034 12.424425 2,850 98 159 1920
2019-02-18 10:30:50 GMT 45.535770 12.417766 2,600 98 158 2112
2019-02-18 10:30:47 GMT 45.535904 12.416186 2,550 98 158 2112
2019-02-18 10:30:39 GMT 45.536747 12.407383 2,250 93 158 2176
2019-02-18 10:30:36 GMT 45.536888 12.404971 2,150 91 158 2112
2019-02-18 10:30:26 GMT 45.535309 12.394998 1,850 61 160 2048
2019-02-18 10:30:16 GMT 45.530502 12.386366 1,425 46 159 2048
2019-02-18 10:30:06 GMT 45.525604 12.379107 1,125 46 156 2048
2019-02-18 10:30:03 GMT 45.523945 12.376635 1,000 46 155 2176
2019-02-18 10:29:55 GMT 45.519711 12.370605 650 43 155 2496
2019-02-18 10:29:43 GMT 45.512878 12.361646 175 41 155 2048
2019-02-18 10:29:34 GMT 45.508530 12.356219 -125 41 153 2176
2019-02-18 10:29:22 GMT 45.502693 12.348767 0 42 135
2019-02-18 10:29:12 GMT 45.498676 12.343614 0 42 96
2019-02-18 10:29:02 GMT 45.495918 12.340050 0 42 53
2019-02-18 10:28:50 GMT 45.494648 12.338431 0 42 10
2019-02-18 10:28:41 GMT 45.494640 12.338417 0 42 0
2019-02-18 10:28:31 GMT 45.494488 12.338251 0 87 8
2019-02-18 10:28:19 GMT 45.494759 12.337646 0 137 12
2019-02-18 10:28:08 GMT 45.495247 12.337379 0 188 10
2019-02-18 10:27:57 GMT 45.495644 12.337483 0 191 7
2019-02-18 10:27:45 GMT 45.495888 12.337563 0 191 2
2019-02-18 10:27:25 GMT 45.495911 12.337563 0 191 0
2019-02-18 10:27:15 GMT 45.495907 12.337565 0 191 0
2019-02-18 10:27:00 GMT 45.495911 12.337563 0 191 0
2019-02-18 10:26:50 GMT 45.495922 12.337563 0 191 0
2019-02-18 10:26:30 GMT 45.495918 12.337565 0 191 0
2019-02-18 10:26:21 GMT 45.495922 12.337563 0 191 0
2019-02-18 10:25:59 GMT 45.495918 12.337565 0 191 0
2019-02-18 10:25:49 GMT 45.496048 12.337596 0 191 5
2019-02-18 10:25:38 GMT 45.496296 12.337679 0 191 10
2019-02-18 10:25:28 GMT 45.496868 12.337859 0 210 13
2019-02-18 10:25:17 GMT 45.497417 12.338480 0 222 19
2019-02-18 10:25:11 GMT 45.497807 12.338970 0 222 20
2019-02-18 10:25:06 GMT 45.498138 12.339396 0 222 19
2019-02-18 10:24:55 GMT 45.498959 12.340460 0 222 19
2019-02-18 10:24:44 GMT 45.499565 12.341230 0 222 17
2019-02-18 10:24:37 GMT 45.499958 12.341750 0 222 17
2019-02-18 10:24:32 GMT 45.500320 12.342219 0 222 18
2019-02-18 10:24:22 GMT 45.500851 12.342894 0 222 16
2019-02-18 10:24:12 GMT 45.501343 12.343483 0 205 14
2019-02-18 10:24:00 GMT 45.502132 12.343597 0 177 13
2019-02-18 10:23:49 GMT 45.502705 12.343548 0 177 12
2019-02-18 10:23:40 GMT 45.503174 12.343516 0 177 12
2019-02-18 10:23:29 GMT 45.503696 12.343475 0 177 10
2019-02-18 10:23:18 GMT 45.504185 12.343441 0 177 10
2019-02-18 10:23:08 GMT 45.504650 12.343418 0 177 12
2019-02-18 10:22:57 GMT 45.505257 12.343374 0 180 11
2019-02-18 10:22:45 GMT 45.505768 12.343341 0 177 10
2019-02-18 10:22:35 GMT 45.506184 12.343336 0 180 8
2019-02-18 10:22:28 GMT 45.506420 12.343257 0 137 7
2019-02-18 10:22:25 GMT 45.506477 12.343190 0 132 7
2019-02-18 10:22:15 GMT 45.506790 12.342687 0 132 12
2019-02-18 10:22:04 GMT 45.507107 12.342202 0 132 9

Making use of Plane Finder data

You are free to use the raw flight data, aircraft information and images provided in this report for your own purposes provided the data is correctly attributed to Plane Finder. We ask that you please credit Plane Finder and link to planefinder.net in close proximity to the content.

Optionally one of the following logos (no smaller then 150x24px) can be used and must link to planefinder.net

Embedding the Plane Finder map

You are welcome to embed the Plane Finder playback map on your website to offer visitors a more interactive experience. We suggest using the following HTML code:

<iframe src="//planefinder.net/data/report/U23385-G-EZAB-7700-squawk-2019-02-18/map" width="800" height="600" seamless="seamless"></iframe>

Where our data comes from

Plane Finder has a global network of data feeds and antenna radars that receive data broadcast directly from aircraft. The primary technologies used are ADS-B and MLAT. We also show feeds from the FAA and a FLARM glider feed.

Click here to find out more about the Plane Finder network.

How we collect our data